Provisional Data: Marsh Creek near Blanchard, PA


Please select a monitoring station.
Please select start date.
Please select start date.

Toggle Unit: C/F Toggle Unit: C/F
Sample Time Temperature (C) Temperature (F) Specific Conductivity (mS/cm) pH   Turbidity (NTU+) DO (mg/L)
10/17/2022 12:00:00 AM 11.03 51.854 0.148 7.11 0.6 9.58
10/17/2022 12:15:00 AM 10.94 51.692 0.148 7.09 0.76 9.59
10/17/2022 12:30:00 AM 10.86 51.548 0.148 7.08 0.69 9.59
10/17/2022 12:45:00 AM 10.77 51.386 0.148 7.06 0.72 9.59
10/17/2022 1:00:00 AM 10.69 51.242 0.148 7.04 0.7 9.61
10/17/2022 1:15:00 AM 10.62 51.116 0.148 7.02 0.75 9.61
10/17/2022 1:30:00 AM 10.54 50.972 0.149 7.01 0.92 9.62
10/17/2022 1:45:00 AM 10.47 50.846 0.149 7 0.77 9.63
10/17/2022 2:00:00 AM 10.4 50.72 0.149 6.99 0.68 9.64
10/17/2022 2:15:00 AM 10.34 50.612 0.149 6.98 0.78 9.64
10/17/2022 2:30:00 AM 10.28 50.504 0.149 6.97 0.75 9.66
10/17/2022 2:45:00 AM 10.22 50.396 0.149 6.97 0.78 9.67
10/17/2022 3:00:00 AM 10.17 50.306 0.149 6.97 0.66 9.68
10/17/2022 3:15:00 AM 10.12 50.216 0.149 6.96 0.68 9.7
10/17/2022 3:30:00 AM 10.07 50.126 0.149 6.95 0.7 9.72
10/17/2022 3:45:00 AM 10.01 50.018 0.149 6.96 0.76 9.74
10/17/2022 4:00:00 AM 9.97 49.946 0.149 6.96 0.84 9.76
10/17/2022 4:15:00 AM 9.92 49.856 0.149 6.95 0.63 9.77
10/17/2022 4:30:00 AM 9.88 49.784 0.149 6.95 0.72 9.79
10/17/2022 4:45:00 AM 9.85 49.73 0.149 6.95 0.75 9.8
10/17/2022 5:00:00 AM 9.82 49.676 0.149 6.95 0.6 9.82
10/17/2022 5:15:00 AM 9.79 49.622 0.149 6.95 0.73 9.83
10/17/2022 5:30:00 AM 9.76 49.568 0.148 6.96 0.64 9.85
10/17/2022 5:45:00 AM 9.74 49.532 0.148 6.96 0.7 9.86
10/17/2022 6:00:00 AM 9.71 49.478 0.149 6.96 0.65 9.88
10/17/2022 6:15:00 AM 9.69 49.442 0.149 6.96 0.63 9.88
10/17/2022 6:30:00 AM 9.66 49.388 0.148 6.96 0.76 9.9
10/17/2022 6:45:00 AM 9.63 49.334 0.148 6.96 0.66 9.91
10/17/2022 7:00:00 AM 9.61 49.298 0.148 6.96 0.73 9.91
10/17/2022 7:15:00 AM 9.59 49.262 0.149 6.97 0.78 9.93
10/17/2022 7:30:00 AM 9.57 49.226 0.148 6.97 0.67 9.94
10/17/2022 7:45:00 AM 9.55 49.19 0.149 6.96 0.66 9.96
10/17/2022 8:00:00 AM 9.53 49.154 0.148 6.97 0.61 9.97
10/17/2022 8:15:00 AM 9.52 49.136 0.148 6.97 0.67 10.01
10/17/2022 8:30:00 AM 9.51 49.118 0.148 6.98 0.62 10.07
10/17/2022 8:45:00 AM 9.5 49.1 0.148 6.99 0.57 10.12
10/17/2022 9:00:00 AM 9.5 49.1 0.148 7 0.63 10.22
10/17/2022 9:15:00 AM 9.52 49.136 0.148 7.01 0.55 10.32
10/17/2022 9:30:00 AM 9.53 49.154 0.148 7.02 0.5 10.41
10/17/2022 9:45:00 AM 9.56 49.208 0.148 7.04 0.52 10.52
10/17/2022 10:00:00 AM 9.57 49.226 0.148 7.06 0.51 10.58
10/17/2022 10:15:00 AM 9.6 49.28 0.148 7.07 0.47 10.7
10/17/2022 10:30:00 AM 9.65 49.37 0.148 7.1 0.49 10.79
10/17/2022 10:45:00 AM 9.69 49.442 0.148 7.12 0.47 10.88
10/17/2022 11:00:00 AM 9.7 49.46 0.148 7.14 0.41 10.93
10/17/2022 11:15:00 AM 9.72 49.496 0.148 7.15 0.53 10.98
10/17/2022 11:30:00 AM 9.75 49.55 0.147 7.17 0.55 11.03
10/17/2022 11:45:00 AM 9.85 49.73 0.147 7.19 0.49 11.15
10/17/2022 12:00:00 PM 10.02 50.036 0.147 7.22 0.44 11.26
10/17/2022 12:15:00 PM 10.19 50.342 0.147 7.26 0.52 11.39
10/17/2022 12:30:00 PM 10.32 50.576 0.147 7.3 0.52 11.51
10/17/2022 12:45:00 PM 10.37 50.666 0.147 7.33 0.5 11.59
10/17/2022 1:00:00 PM 10.46 50.828 0.147 7.38 0.54 11.68
10/17/2022 1:15:00 PM 10.48 50.864 0.146 7.41 0.52 11.73
10/17/2022 1:30:00 PM 10.47 50.846 0.146 7.45 0.6 11.78
10/17/2022 1:45:00 PM 10.49 50.882 0.146 7.46 0.86 11.8
10/17/2022 2:00:00 PM 10.52 50.936 0.146 7.49 0.61 11.83
10/17/2022 2:15:00 PM 10.53 50.954 0.146 7.54 3.27 11.85
10/17/2022 2:30:00 PM 10.64 51.152 0.146 7.57 0.79 11.87
10/17/2022 2:45:00 PM 10.77 51.386 0.146 7.61 0.87 11.9
10/17/2022 3:00:00 PM 10.81 51.458 0.145 7.64 1.31 11.92
10/17/2022 3:15:00 PM 10.85 51.53 0.145 7.68 1.28 11.94
10/17/2022 3:30:00 PM 10.85 51.53 0.145 7.73 0.81 11.92
10/17/2022 3:45:00 PM 10.87 51.566 0.145 7.73 1.4 11.88
10/17/2022 4:00:00 PM 10.89 51.602 0.145 7.76 0.65 11.85
10/17/2022 4:15:00 PM 10.92 51.656 0.145 7.78 1.11 11.82
10/17/2022 4:30:00 PM 10.92 51.656 0.144 7.78 5.28 11.79
10/17/2022 4:45:00 PM 10.96 51.728 0.144 7.81 0.81 11.74
10/17/2022 5:00:00 PM 10.99 51.782 0.144 7.81 0.93 11.69
10/17/2022 5:15:00 PM 10.99 51.782 0.144 7.82 7.84 11.63
10/17/2022 5:30:00 PM 11 51.8 0.144 7.82 0.56 11.54
10/17/2022 5:45:00 PM 10.98 51.764 0.144 7.79 0.44 11.44
10/17/2022 6:00:00 PM 10.97 51.746 0.144 7.79 0.44 11.32
10/17/2022 6:15:00 PM 10.95 51.71 0.144 7.76 0.45 11.2
10/17/2022 6:30:00 PM 10.93 51.674 0.144 7.73 0.54 11.06
10/17/2022 6:45:00 PM 10.92 51.656 0.144 7.67 0.56 10.92
10/17/2022 7:00:00 PM 10.89 51.602 0.144 7.64 0.52 10.79
10/17/2022 7:15:00 PM 10.86 51.548 0.144 7.61 0.63 10.69
10/17/2022 7:30:00 PM 10.83 51.494 0.144 7.58 0.83 10.6
10/17/2022 7:45:00 PM 10.81 51.458 0.144 7.53 0.9 10.52
10/17/2022 8:00:00 PM 10.78 51.404 0.144 7.52 0.8 10.45
10/17/2022 8:15:00 PM 10.75 51.35 0.144 7.49 1.25 10.37
10/17/2022 8:30:00 PM 10.71 51.278 0.144 7.47 0.85 10.31
10/17/2022 8:45:00 PM 10.67 51.206 0.144 7.44 0.96 10.25
10/17/2022 9:00:00 PM 10.63 51.134 0.144 7.4 0.74 10.19
10/17/2022 9:15:00 PM 10.58 51.044 0.145 7.39 0.75 10.14
10/17/2022 9:30:00 PM 10.53 50.954 0.145 7.36 0.85 10.08
10/17/2022 9:45:00 PM 10.48 50.864 0.145 7.33 0.84 10.03
10/17/2022 10:00:00 PM 10.44 50.792 0.145 7.3 0.73 9.99
10/17/2022 10:15:00 PM 10.37 50.666 0.145 7.28 0.73 9.96
10/17/2022 10:30:00 PM 10.31 50.558 0.146 7.26 0.8 9.93
10/17/2022 10:45:00 PM 10.24 50.432 0.146 7.24 0.61 9.89
10/17/2022 11:00:00 PM 10.18 50.324 0.146 7.22 0.67 9.87
10/17/2022 11:15:00 PM 10.11 50.198 0.146 7.2 0.64 9.86
10/17/2022 11:30:00 PM 10.02 50.036 0.146 7.19 0.66 9.84
10/17/2022 11:45:00 PM 9.94 49.892 0.147 7.16 0.57 9.83
10/18/2022 12:00:00 AM 9.86 49.748 0.147 7.14 0.64 9.83
10/18/2022 12:15:00 AM 9.77 49.586 0.147 7.13 0.64 9.81
10/18/2022 12:30:00 AM 9.69 49.442 0.147 7.11 0.64 9.81
10/18/2022 12:45:00 AM 9.6 49.28 0.147 7.09 0.75 9.82
10/18/2022 1:00:00 AM 9.51 49.118 0.148 7.07 0.65 9.83
10/18/2022 1:15:00 AM 9.42 48.956 0.148 7.04 0.73 9.84
10/18/2022 1:30:00 AM 9.32 48.776 0.148 7.03 0.69 9.85
10/18/2022 1:45:00 AM 9.23 48.614 0.148 7 0.56 9.87
10/18/2022 2:00:00 AM 9.15 48.47 0.148 7.01 0.57 9.88
10/18/2022 2:15:00 AM 9.07 48.326 0.148 7.01 0.6 9.89
10/18/2022 2:30:00 AM 9 48.2 0.148 7 0.58 9.91
10/18/2022 2:45:00 AM 8.92 48.056 0.148 6.98 0.63 9.92
10/18/2022 3:00:00 AM 8.84 47.912 0.148 6.96 0.67 9.94
10/18/2022 3:15:00 AM 8.77 47.786 0.148 6.97 0.7 9.95
10/18/2022 3:30:00 AM 8.69 47.642 0.148 6.95 0.6 9.98
10/18/2022 3:45:00 AM 8.61 47.498 0.148 6.96 0.6 9.99
10/18/2022 4:00:00 AM 8.54 47.372 0.148 6.96 0.64 10.02
10/18/2022 4:15:00 AM 8.47 47.246 0.148 6.95 0.61 10.05
10/18/2022 4:30:00 AM 8.4 47.12 0.148 6.94 0.67 10.06
10/18/2022 4:45:00 AM 8.34 47.012 0.148 6.95 0.73 10.08
10/18/2022 5:00:00 AM 8.28 46.904 0.148 6.94 0.66 10.11
10/18/2022 5:15:00 AM 8.22 46.796 0.148 6.94 0.69 10.13
10/18/2022 5:30:00 AM 8.15 46.67 0.148 6.94 0.92 10.16
10/18/2022 5:45:00 AM 8.09 46.562 0.148 6.93 0.87 10.19
10/18/2022 6:00:00 AM 8.02 46.436 0.148 6.94 0.92 10.21
10/18/2022 6:15:00 AM 7.96 46.328 0.148 6.94 0.73 10.23
10/18/2022 6:30:00 AM 7.88 46.184 0.148 6.93 0.67 10.25
10/18/2022 6:45:00 AM 7.82 46.076 0.148 6.94 0.57 10.29
10/18/2022 7:00:00 AM 7.75 45.95 0.148 6.94 0.56 10.31
10/18/2022 7:15:00 AM 7.7 45.86 0.148 6.93 0.63 10.33
10/18/2022 7:30:00 AM 7.65 45.77 0.148 6.93 1.79 10.36
10/18/2022 7:45:00 AM 7.6 45.68 0.148 6.94 0.72 10.4
10/18/2022 8:00:00 AM 7.56 45.608 0.148 6.94 0.62 10.45
10/18/2022 8:15:00 AM 7.53 45.554 0.148 6.95 1.17 10.53
10/18/2022 8:30:00 AM 7.5 45.5 0.148 6.95 0.53 10.6
10/18/2022 8:45:00 AM 7.5 45.5 0.148 6.97 0.48 10.67
10/18/2022 9:00:00 AM 7.49 45.482 0.148 6.98 0.47 10.75
10/18/2022 9:15:00 AM 7.5 45.5 0.148 6.99 0.42 10.81
10/18/2022 9:30:00 AM 7.51 45.518 0.148 7.01 0.41 10.91
10/18/2022 9:45:00 AM 7.54 45.572 0.148 7.03 0.42 11
10/18/2022 10:00:00 AM 7.6 45.68 0.147 7.04 0.49 11.14
10/18/2022 10:15:00 AM 7.61 45.698 0.147 7.08 0.47 11.25
10/18/2022 10:30:00 AM 7.62 45.716 0.147 7.09 0.45 11.34
10/18/2022 10:45:00 AM 7.62 45.716 0.147 7.11 0.39 11.41
10/18/2022 11:00:00 AM 7.61 45.698 0.147 7.13 0.42 11.46
10/18/2022 11:15:00 AM 7.59 45.662 0.147 7.13 0.45 11.5
10/18/2022 11:30:00 AM 7.59 45.662 0.147 7.15 0.58 11.53
10/18/2022 11:45:00 AM 7.58 45.644 0.147 7.16 0.62 11.57
10/18/2022 12:00:00 PM 7.59 45.662 0.147 7.17 0.43 11.62
10/18/2022 12:15:00 PM 7.61 45.698 0.147 7.19 0.34 11.68
10/18/2022 12:30:00 PM 7.64 45.752 0.147 7.19 0.44 11.75
10/18/2022 12:45:00 PM 7.67 45.806 0.147 7.23 0.37 11.82
10/18/2022 1:00:00 PM 7.69 45.842 0.147 7.23 0.5 11.88
10/18/2022 1:15:00 PM 7.73 45.914 0.147 7.26 0.48 11.94
10/18/2022 1:30:00 PM 7.76 45.968 0.147 7.28 0.47 11.96
10/18/2022 1:45:00 PM 7.79 46.022 0.146 7.29 0.45 12.01
10/18/2022 2:00:00 PM 7.8 46.04 0.146 7.31 0.78 12.01
10/18/2022 2:15:00 PM 7.8 46.04 0.146 7.32 0.65 12.01
10/18/2022 2:30:00 PM 7.8 46.04 0.146 7.32 0.58 11.97
10/18/2022 2:45:00 PM 7.82 46.076 0.146 7.33 0.68 11.97
10/18/2022 3:00:00 PM 7.86 46.148 0.146 7.33 0.55 11.97
10/18/2022 3:15:00 PM 7.88 46.184 0.146 7.34 0.46 11.95
10/18/2022 3:30:00 PM 7.91 46.238 0.146 7.35 0.46 11.98
10/18/2022 3:45:00 PM 7.94 46.292 0.146 7.36 0.4 11.95
10/18/2022 4:00:00 PM 7.96 46.328 0.146 7.36 0.32 11.93
10/18/2022 4:15:00 PM 7.98 46.364 0.146 7.35 0.37 11.87
10/18/2022 4:30:00 PM 7.99 46.382 0.146 7.35 0.39 11.81
10/18/2022 4:45:00 PM 8.02 46.436 0.146 7.34 0.37 11.78
10/18/2022 5:00:00 PM 8.04 46.472 0.146 7.34 0.38 11.72
10/18/2022 5:15:00 PM 8.05 46.49 0.146 7.33 0.39 11.66
10/18/2022 5:30:00 PM 8.07 46.526 0.146 7.32 0.36 11.58
10/18/2022 5:45:00 PM 8.07 46.526 0.146 7.31 1.64 11.51
10/18/2022 6:00:00 PM 8.07 46.526 0.146 7.3 0.4 11.45
10/18/2022 6:15:00 PM 8.08 46.544 0.146 7.29 0.35 11.39
10/18/2022 6:30:00 PM 8.07 46.526 0.146 7.28 0.35 11.34
10/18/2022 6:45:00 PM 8.06 46.508 0.146 7.27 0.35 11.29
10/18/2022 7:00:00 PM 8.06 46.508 0.146 7.26 0.44 11.24
10/18/2022 7:15:00 PM 8.05 46.49 0.146 7.24 0.4 11.19
10/18/2022 7:30:00 PM 8.05 46.49 0.146 7.23 0.52 11.14
10/18/2022 7:45:00 PM 8.05 46.49 0.146 7.22 0.72 11.09
10/18/2022 8:00:00 PM 8.04 46.472 0.146 7.2 0.51 11.05
10/18/2022 8:15:00 PM 8.03 46.454 0.146 7.2 0.46 11.01
10/18/2022 8:30:00 PM 8.02 46.436 0.146 7.19 0.64 10.97
10/18/2022 8:45:00 PM 8.01 46.418 0.146 7.18 0.64 10.93
10/18/2022 9:00:00 PM 7.99 46.382 0.146 7.17 0.67 10.91
10/18/2022 9:15:00 PM 7.97 46.346 0.146 7.16 0.51 10.87
10/18/2022 9:30:00 PM 7.94 46.292 0.146 7.13 0.55 10.84
10/18/2022 9:45:00 PM 7.92 46.256 0.146 7.14 0.59 10.81
10/18/2022 10:00:00 PM 7.89 46.202 0.146 7.13 0.66 10.78
10/18/2022 10:15:00 PM 7.86 46.148 0.146 7.12 0.57 10.76
10/18/2022 10:30:00 PM 7.84 46.112 0.146 7.11 0.47 10.74
10/18/2022 10:45:00 PM 7.82 46.076 0.146 7.1 0.49 10.73
10/18/2022 11:00:00 PM 7.8 46.04 0.146 7.1 0.52 10.72
10/18/2022 11:15:00 PM 7.78 46.004 0.146 7.09 0.51 10.7
10/18/2022 11:30:00 PM 7.76 45.968 0.146 7.08 1.25 10.68
10/18/2022 11:45:00 PM 7.72 45.896 0.146 7.07 0.74 10.68
10/19/2022 12:00:00 AM 7.68 45.824 0.146 7.07 0.53 10.67
10/19/2022 12:15:00 AM 7.66 45.788 0.146 7.06 0.46 10.66
10/19/2022 12:30:00 AM 7.65 45.77 0.146 7.06 0.45 10.66
10/19/2022 12:45:00 AM 7.64 45.752 0.147 7.05 0.73 10.65
10/19/2022 1:00:00 AM 7.63 45.734 0.147 7.04 0.66 10.64
10/19/2022 1:15:00 AM 7.62 45.716 0.147 7.04 0.6 10.64
10/19/2022 1:30:00 AM 7.6 45.68 0.147 7.04 0.52 10.64
10/19/2022 1:45:00 AM 7.59 45.662 0.147 7.03 0.5 10.63
10/19/2022 2:00:00 AM 7.57 45.626 0.147 7.03 0.67 10.62
10/19/2022 2:15:00 AM 7.55 45.59 0.147 7.02 0.79 10.62
10/19/2022 2:30:00 AM 7.53 45.554 0.147 7.02 0.64 10.61
10/19/2022 2:45:00 AM 7.5 45.5 0.147 7 0.65 10.61
10/19/2022 3:00:00 AM 7.48 45.464 0.147 7.01 0.67 10.62
10/19/2022 3:15:00 AM 7.46 45.428 0.147 7.01 0.6 10.62
10/19/2022 3:30:00 AM 7.45 45.41 0.147 7.01 0.49 10.62
10/19/2022 3:45:00 AM 7.42 45.356 0.147 7 0.52 10.64
10/19/2022 4:00:00 AM 7.38 45.284 0.147 7 0.47 10.66
10/19/2022 4:15:00 AM 7.36 45.248 0.147 7 0.49 10.66
10/19/2022 4:30:00 AM 7.34 45.212 0.147 7 0.48 10.68
10/19/2022 4:45:00 AM 7.32 45.176 0.147 6.99 0.67 10.69
10/19/2022 5:00:00 AM 7.28 45.104 0.147 6.99 0.76 10.7
10/19/2022 5:15:00 AM 7.25 45.05 0.147 6.99 0.73 10.71
10/19/2022 5:30:00 AM 7.23 45.014 0.147 6.99 0.54 10.72
10/19/2022 5:45:00 AM 7.21 44.978 0.147 6.99 0.78 10.73
10/19/2022 6:00:00 AM 7.2 44.96 0.146 6.99 0.61 10.74
10/19/2022 6:15:00 AM 7.19 44.942 0.146 6.99 0.72 10.75
10/19/2022 6:30:00 AM 7.17 44.906 0.146 6.99 0.51 10.76
10/19/2022 6:45:00 AM 7.16 44.888 0.146 6.98 0.52 10.75
10/19/2022 7:00:00 AM 7.16 44.888 0.146 6.99 0.76 10.76
10/19/2022 7:15:00 AM 7.14 44.852 0.146 6.98 0.65 10.77
10/19/2022 7:30:00 AM 7.12 44.816 0.146 6.99 0.62 10.78
10/19/2022 7:45:00 AM 7.13 44.834 0.146 6.99 0.61 10.81
10/19/2022 8:00:00 AM 7.12 44.816 0.146 6.98 0.46 10.82
10/19/2022 8:15:00 AM 7.11 44.798 0.146 7 7.52 10.86
10/19/2022 8:30:00 AM 7.11 44.798 0.146 7 0.61 10.9
10/19/2022 8:45:00 AM 7.1 44.78 0.146 7.01 7.98 10.94
10/19/2022 9:00:00 AM 7.1 44.78 0.146 7.02 8.28 10.99
10/19/2022 9:15:00 AM 7.1 44.78 0.146 7.02 8.4 11.06
10/19/2022 9:30:00 AM 7.1 44.78 0.146 7.03 7.99 11.1
10/19/2022 9:45:00 AM 7.1 44.78 0.146 7.03 0.39 11.14
10/19/2022 10:00:00 AM 7.11 44.798 0.146 7.04 0.41 11.2
10/19/2022 10:15:00 AM 7.14 44.852 0.146 7.05 0.82 11.29
10/19/2022 10:30:00 AM 7.16 44.888 0.146 7.07 0.96 11.38
10/19/2022 10:45:00 AM 7.19 44.942 0.146 7.08 0.45 11.46
10/19/2022 11:00:00 AM 7.21 44.978 0.145 7.08 0.54 11.55
10/19/2022 11:15:00 AM 7.2 44.96 0.145 7.11 0.85 11.59
10/19/2022 11:30:00 AM 7.2 44.96 0.145 7.13 1.74 11.64
10/19/2022 11:45:00 AM 7.2 44.96 0.145 7.13 0.72 11.67
10/19/2022 12:00:00 PM 7.21 44.978 0.145 7.15 1.12 11.69
10/19/2022 12:15:00 PM 7.27 45.086 0.145 7.16 0.54 11.77
10/19/2022 12:30:00 PM 7.32 45.176 0.145 7.18 0.64 11.83
10/19/2022 12:45:00 PM 7.34 45.212 0.145 7.2 0.73 11.91
10/19/2022 1:00:00 PM 7.38 45.284 0.145 7.22 1.13 11.96
10/19/2022 1:15:00 PM 7.4 45.32 0.145 7.23 0.76 12
10/19/2022 1:30:00 PM 7.42 45.356 0.145 7.23 0.74 12.04
10/19/2022 1:45:00 PM 7.47 45.446 0.145 7.27 0.66 12.07
10/19/2022 2:00:00 PM 7.52 45.536 0.145 7.28 0.7 12.12
10/19/2022 2:15:00 PM 7.6 45.68 0.144 7.3 0.91 12.17
10/19/2022 2:30:00 PM 7.65 45.77 0.144 7.32 0.78 12.22
10/19/2022 2:45:00 PM 7.71 45.878 0.144 7.34 0.8 12.27
10/19/2022 3:00:00 PM 7.78 46.004 0.144 7.36 0.64 12.29
10/19/2022 3:15:00 PM 7.84 46.112 0.144 7.38 0.51 12.34
10/19/2022 3:30:00 PM 7.88 46.184 0.144 7.41 0.66 12.34
10/19/2022 3:45:00 PM 7.93 46.274 0.144 7.43 0.33 12.37
10/19/2022 4:00:00 PM 7.97 46.346 0.143 7.45 0.72 12.37
10/19/2022 4:15:00 PM 7.99 46.382 0.143 7.46 0.56 12.37
10/19/2022 4:30:00 PM 8.01 46.418 0.143 7.47 0.5 12.36
10/19/2022 4:45:00 PM 8.02 46.436 0.143 7.48 0.68 12.32
10/19/2022 5:00:00 PM 8.03 46.454 0.143 7.48 0.56 12.27
10/19/2022 5:15:00 PM 8.05 46.49 0.143 7.49 0.88 12.25
10/19/2022 5:30:00 PM 8.05 46.49 0.143 7.49 0.79 12.19
10/19/2022 5:45:00 PM 8.05 46.49 0.143 7.48 0.46 12.13
10/19/2022 6:00:00 PM 8.04 46.472 0.143 7.47 0.61 12.03
10/19/2022 6:15:00 PM 8.04 46.472 0.143 7.46 1.28 11.94
10/19/2022 6:30:00 PM 8.04 46.472 0.143 7.42 0.55 11.83
10/19/2022 6:45:00 PM 8.03 46.454 0.143 7.42 0.99 11.74
10/19/2022 7:00:00 PM 8.03 46.454 0.143 7.4 11.3 11.66
10/19/2022 7:15:00 PM 8.03 46.454 0.143 7.38 0.53 11.59
10/19/2022 7:30:00 PM 8.03 46.454 0.143 7.37 0.55 11.53
10/19/2022 7:45:00 PM 8.02 46.436 0.143 7.34 0.47 11.47
10/19/2022 8:00:00 PM 8.01 46.418 0.143 7.33 0.52 11.4
10/19/2022 8:15:00 PM 8 46.4 0.143 7.32 0.53 11.35
10/19/2022 8:30:00 PM 8 46.4 0.143 7.29 0.8 11.29
10/19/2022 8:45:00 PM 7.99 46.382 0.143 7.28 0.89 11.24
10/19/2022 9:00:00 PM 7.97 46.346 0.143 7.26 0.69 11.18
10/19/2022 9:15:00 PM 7.97 46.346 0.143 7.25 0.67 11.13
10/19/2022 9:30:00 PM 7.96 46.328 0.143 7.24 0.74 11.08
10/19/2022 9:45:00 PM 7.93 46.274 0.143 7.23 0.9 11.03
10/19/2022 10:00:00 PM 7.92 46.256 0.143 7.21 0.76 10.99
10/19/2022 10:15:00 PM 7.91 46.238 0.143 7.2 0.65 10.94
10/19/2022 10:30:00 PM 7.9 46.22 0.143 7.18 0.67 10.9
10/19/2022 10:45:00 PM 7.88 46.184 0.143 7.17 0.5 10.87
10/19/2022 11:00:00 PM 7.86 46.148 0.143 7.16 0.58 10.85
10/19/2022 11:15:00 PM 7.84 46.112 0.144 7.15 0.63 10.82
10/19/2022 11:30:00 PM 7.81 46.058 0.144 7.13 0.52 10.79
10/19/2022 11:45:00 PM 7.78 46.004 0.144 7.13 0.63 10.79
10/20/2022 12:00:00 AM 7.76 45.968 0.144 7.11 0.67 10.76
10/20/2022 12:15:00 AM 7.75 45.95 0.144 7.1 0.57 10.75
10/20/2022 12:30:00 AM 7.72 45.896 0.144 7.09 0.51 10.75
10/20/2022 12:45:00 AM 7.71 45.878 0.144 7.08 0.48 10.74
10/20/2022 1:00:00 AM 7.69 45.842 0.144 7.08 0.45 10.73
10/20/2022 1:15:00 AM 7.66 45.788 0.144 7.07 0.49 10.72
10/20/2022 1:30:00 AM 7.64 45.752 0.144 7.06 0.52 10.71
10/20/2022 1:45:00 AM 7.6 45.68 0.144 7.05 0.5 10.71
10/20/2022 2:00:00 AM 7.55 45.59 0.145 7.03 0.6 10.68
10/20/2022 2:15:00 AM 7.51 45.518 0.145 7.04 0.57 10.7
10/20/2022 2:30:00 AM 7.47 45.446 0.145 7.04 0.58 10.69
10/20/2022 2:45:00 AM 7.43 45.374 0.145 7.03 1.67 10.69
10/20/2022 3:00:00 AM 7.39 45.302 0.145 7.02 1.11 10.69
10/20/2022 3:15:00 AM 7.35 45.23 0.145 7 0.76 10.69
10/20/2022 3:30:00 AM 7.31 45.158 0.145 7.01 0.71 10.69
10/20/2022 3:45:00 AM 7.27 45.086 0.145 7 0.68 10.71
10/20/2022 4:00:00 AM 7.22 44.996 0.145 7 0.6 10.73
10/20/2022 4:15:00 AM 7.18 44.924 0.145 7 0.72 10.74
10/20/2022 4:30:00 AM 7.14 44.852 0.145 6.99 0.57 10.74
10/20/2022 4:45:00 AM 7.09 44.762 0.144 6.97 0.62 10.77
10/20/2022 5:00:00 AM 7.05 44.69 0.144 6.98 0.61 10.77
10/20/2022 5:15:00 AM 7 44.6 0.144 6.97 0.63 10.8
10/20/2022 5:30:00 AM 6.95 44.51 0.144 6.96 0.81 10.79
10/20/2022 5:45:00 AM 6.91 44.438 0.144 6.96 0.74 10.81
10/20/2022 6:00:00 AM 6.86 44.348 0.144 6.93 0.57 10.82
10/20/2022 6:15:00 AM 6.82 44.276 0.144 6.94 0.57 10.85
10/20/2022 6:30:00 AM 6.77 44.186 0.144 6.95 0.52 10.86
10/20/2022 6:45:00 AM 6.74 44.132 0.144 6.95 0.68 10.88
10/20/2022 7:00:00 AM 6.69 44.042 0.144 6.95 0.62 10.9
10/20/2022 7:15:00 AM 6.65 43.97 0.144 6.95 0.64 10.92
10/20/2022 7:30:00 AM 6.61 43.898 0.144 6.93 0.77 10.93
10/20/2022 7:45:00 AM 6.56 43.808 0.144 6.95 0.61 10.97
10/20/2022 8:00:00 AM 6.52 43.736 0.144 6.95 0.81 10.99
10/20/2022 8:15:00 AM 6.48 43.664 0.144 6.95 0.61 11.03
10/20/2022 8:30:00 AM 6.44 43.592 0.144 6.95 0.87 11.07
10/20/2022 8:45:00 AM 6.42 43.556 0.144 6.96 0.72 11.15
10/20/2022 9:00:00 AM 6.42 43.556 0.144 6.96 0.62 11.19
10/20/2022 9:15:00 AM 6.44 43.592 0.144 6.98 0.89 11.29
10/20/2022 9:30:00 AM 6.49 43.682 0.144 6.99 0.69 11.41
10/20/2022 9:45:00 AM 6.54 43.772 0.143 7.01 1.02 11.49
10/20/2022 10:00:00 AM 6.6 43.88 0.143 7.02 0.83 11.57
10/20/2022 10:15:00 AM 6.63 43.934 0.143 7.05 0.9 11.67
10/20/2022 10:30:00 AM 6.65 43.97 0.143 7.06 1.07 11.74
10/20/2022 10:45:00 AM 6.66 43.988 0.143 7.06 1.21 11.82
10/20/2022 11:00:00 AM 6.68 44.024 0.143 7.09 9.35 11.9
10/20/2022 11:15:00 AM 6.72 44.096 0.143 7.11 9.78 11.98
10/20/2022 11:30:00 AM 6.76 44.168 0.143 7.12 9.62 12.06
10/20/2022 11:45:00 AM 6.83 44.294 0.143 7.14 1.46 12.12
10/20/2022 12:00:00 PM 6.97 44.546 0.143 7.16 0.88 12.2
10/20/2022 12:15:00 PM 7.08 44.744 0.143 7.18 2.13 12.28
10/20/2022 12:30:00 PM 7.21 44.978 0.142 7.2 1.65 12.33
10/20/2022 12:45:00 PM 7.34 45.212 0.142 7.22 0.98 12.37
10/20/2022 1:00:00 PM 7.42 45.356 0.142 7.23 5.36 12.38
10/20/2022 1:15:00 PM 7.55 45.59 0.142 7.26 0.86 12.44
10/20/2022 1:30:00 PM 7.72 45.896 0.142 7.27 2.03 12.49
10/20/2022 1:45:00 PM 7.82 46.076 0.142 7.31 0.99 12.5
10/20/2022 2:00:00 PM 7.99 46.382 0.142 7.33 1.33 12.55
10/20/2022 2:15:00 PM 8.17 46.706 0.142 7.33 0.96 12.54
10/20/2022 2:30:00 PM 8.32 46.976 0.142 7.36 0.69 12.55
10/20/2022 2:45:00 PM 8.45 47.21 0.142 7.39 0.52 12.54
10/20/2022 3:00:00 PM 8.55 47.39 0.142 7.41 0.5 12.53
10/20/2022 3:15:00 PM 8.65 47.57 0.142 7.43 0.71 12.52
10/20/2022 3:30:00 PM 8.76 47.768 0.142 7.45 0.8 12.51
10/20/2022 3:45:00 PM 8.85 47.93 0.142 7.45 0.79 12.45
10/20/2022 4:00:00 PM 8.84 47.912 0.141 7.47 0.7 12.44
10/20/2022 4:15:00 PM 8.87 47.966 0.141 7.48 0.52 12.38
10/20/2022 4:30:00 PM 8.83 47.894 0.141 7.49 0.4 12.35
10/20/2022 4:45:00 PM 8.8 47.84 0.141 7.5 1.4 12.29
10/20/2022 5:00:00 PM 8.76 47.768 0.141 7.5 0.45 12.22
10/20/2022 5:15:00 PM 8.74 47.732 0.141 7.5 0.4 12.15
10/20/2022 5:30:00 PM 8.72 47.696 0.141 7.47 0.42 12.06
10/20/2022 5:45:00 PM 8.7 47.66 0.141 7.48 0.39 11.95
10/20/2022 6:00:00 PM 8.71 47.678 0.141 7.47 0.38 11.87
10/20/2022 6:15:00 PM 8.7 47.66 0.141 7.44 0.38 11.75
10/20/2022 6:30:00 PM 8.69 47.642 0.141 7.42 1.24 11.64
10/20/2022 6:45:00 PM 8.68 47.624 0.141 7.4 0.5 11.53
10/20/2022 7:00:00 PM 8.66 47.588 0.141 7.37 0.54 11.42
10/20/2022 7:15:00 PM 8.65 47.57 0.142 7.35 0.61 11.33
10/20/2022 7:30:00 PM 8.65 47.57 0.142 7.33 0.53 11.24
10/20/2022 7:45:00 PM 8.66 47.588 0.142 7.32 0.49 11.16
10/20/2022 8:00:00 PM 8.66 47.588 0.142 7.29 0.53 11.08
10/20/2022 8:15:00 PM 8.68 47.624 0.142 7.28 0.57 11.02
10/20/2022 8:30:00 PM 8.68 47.624 0.142 7.26 0.63 10.96
10/20/2022 8:45:00 PM 8.69 47.642 0.142 7.23 0.58 10.9
10/20/2022 9:00:00 PM 8.69 47.642 0.142 7.23 0.47 10.84
10/20/2022 9:15:00 PM 8.69 47.642 0.142 7.22 0.6 10.79
10/20/2022 9:30:00 PM 8.69 47.642 0.142 7.19 0.55 10.73
10/20/2022 9:45:00 PM 8.68 47.624 0.142 7.18 0.7 10.68
10/20/2022 10:00:00 PM 8.66 47.588 0.142 7.17 0.58 10.65
10/20/2022 10:15:00 PM 8.65 47.57 0.142 7.16 0.54 10.61
10/20/2022 10:30:00 PM 8.62 47.516 0.142 7.14 0.54 10.58
10/20/2022 10:45:00 PM 8.61 47.498 0.142 7.11 0.78 10.56
10/20/2022 11:00:00 PM 8.57 47.426 0.143 7.11 0.59 10.52
10/20/2022 11:15:00 PM 8.53 47.354 0.143 7.1 0.57 10.51
10/20/2022 11:30:00 PM 8.49 47.282 0.143 7.09 0.67 10.49
10/20/2022 11:45:00 PM 8.45 47.21 0.143 7.07 0.46 10.48
10/21/2022 12:00:00 AM 8.4 47.12 0.143 7.06 0.82 10.48
10/21/2022 12:15:00 AM 8.35 47.03 0.143 7.05 0.54 10.47
10/21/2022 12:30:00 AM 8.29 46.922 0.143 7.04 0.51 10.47
10/21/2022 12:45:00 AM 8.23 46.814 0.143 7.02 0.56 10.48
10/21/2022 1:00:00 AM 8.16 46.688 0.143 7.03 0.69 10.49
10/21/2022 1:15:00 AM 8.08 46.544 0.143 7.02 0.54 10.5
10/21/2022 1:30:00 AM 8 46.4 0.143 7.01 0.59 10.52
10/21/2022 1:45:00 AM 7.91 46.238 0.143 7 0.53 10.54
10/21/2022 2:00:00 AM 7.81 46.058 0.144 7 0.61 10.54
10/21/2022 2:15:00 AM 7.73 45.914 0.144 7 0.54 10.56
10/21/2022 2:30:00 AM 7.62 45.716 0.144 6.97 0.58 10.59
10/21/2022 2:45:00 AM 7.55 45.59 0.144 6.98 0.56 10.61
10/21/2022 3:00:00 AM 7.47 45.446 0.144 6.98 0.76 10.62
10/21/2022 3:15:00 AM 7.39 45.302 0.144 6.97 0.64 10.65
10/21/2022 3:30:00 AM 7.32 45.176 0.144 6.95 0.57 10.66
10/21/2022 3:45:00 AM 7.26 45.068 0.144 6.93 0.62 10.68
10/21/2022 4:00:00 AM 7.19 44.942 0.144 6.93 0.65 10.69
10/21/2022 4:15:00 AM 7.13 44.834 0.144 6.92 0.63 10.71
10/21/2022 4:30:00 AM 7.06 44.708 0.144 6.91 0.61 10.71
10/21/2022 4:45:00 AM 7.01 44.618 0.144 6.91 0.64 10.73
10/21/2022 5:00:00 AM 6.95 44.51 0.144 6.91 0.77 10.75
10/21/2022 5:15:00 AM 6.89 44.402 0.144 6.91 0.74 10.78
10/21/2022 5:30:00 AM 6.83 44.294 0.144 6.91 0.6 10.8
10/21/2022 5:45:00 AM 6.77 44.186 0.144 6.9 0.6 10.81
10/21/2022 6:00:00 AM 6.72 44.096 0.144 6.9 0.54 10.83
10/21/2022 6:15:00 AM 6.65 43.97 0.144 6.9 0.66 10.85
10/21/2022 6:30:00 AM 6.6 43.88 0.143 6.9 0.48 10.88
10/21/2022 6:45:00 AM 6.53 43.754 0.143 6.9 0.66 10.89
10/21/2022 7:00:00 AM 6.47 43.646 0.143 6.9 0.75 10.9
10/21/2022 7:15:00 AM 6.41 43.538 0.143 6.89 0.73 10.93
10/21/2022 7:30:00 AM 6.35 43.43 0.143 6.89 0.68 10.96
10/21/2022 7:45:00 AM 6.3 43.34 0.143 6.89 0.67 11
10/21/2022 8:00:00 AM 6.24 43.232 0.143 6.89 0.41 11.04
10/21/2022 8:15:00 AM 6.2 43.16 0.143 6.9 0.78 11.08
10/21/2022 8:30:00 AM 6.16 43.088 0.143 6.91 0.69 11.15
10/21/2022 8:45:00 AM 6.15 43.07 0.143 6.92 0.52 11.22
10/21/2022 9:00:00 AM 6.15 43.07 0.143 6.93 0.51 11.3
10/21/2022 9:15:00 AM 6.19 43.142 0.143 6.95 0.77 11.4
10/21/2022 9:30:00 AM 6.22 43.196 0.143 6.96 1.18 11.47
10/21/2022 9:45:00 AM 6.27 43.286 0.143 6.97 0.4 11.55
10/21/2022 10:00:00 AM 6.38 43.484 0.143 6.99 0.6 11.65
10/21/2022 10:15:00 AM 6.48 43.664 0.142 7.01 0.79 11.72
10/21/2022 10:30:00 AM 6.58 43.844 0.142 7.03 0.51 11.79
10/21/2022 10:45:00 AM 6.66 43.988 0.142 7.04 1.34 11.84
10/21/2022 11:00:00 AM 6.76 44.168 0.142 7.06 1.2 11.9
10/21/2022 11:15:00 AM 6.87 44.366 0.142 7.07 0.93 11.95
10/21/2022 11:30:00 AM 7.01 44.618 0.142 7.08 1.25 11.99
10/21/2022 11:45:00 AM 7.17 44.906 0.142 7.1 0.59 12.05
10/21/2022 12:00:00 PM 7.33 45.194 0.142 7.12 2.48 12.08
10/21/2022 12:15:00 PM 7.47 45.446 0.142 7.13 7.78 12.14
10/21/2022 12:30:00 PM 7.62 45.716 0.142 7.15 0.49 12.18
10/21/2022 12:45:00 PM 7.79 46.022 0.142 7.17 0.52 12.24
10/21/2022 1:00:00 PM 7.98 46.364 0.142 7.19 0.68 12.25
10/21/2022 1:15:00 PM 8.13 46.634 0.142 7.21 0.64 12.29
10/21/2022 1:30:00 PM 8.28 46.904 0.141 7.23 0.58 12.31
10/21/2022 1:45:00 PM 8.44 47.192 0.141 7.23 0.93 12.32
10/21/2022 2:00:00 PM 8.58 47.444 0.141 7.25 0.73 12.32
10/21/2022 2:15:00 PM 8.69 47.642 0.141 7.27 1.18 12.34
10/21/2022 2:30:00 PM 8.8 47.84 0.141 7.29 1.33 12.35
10/21/2022 2:45:00 PM 8.9 48.02 0.141 7.32 0.77 12.35
10/21/2022 3:00:00 PM 9.01 48.218 0.141 7.33 0.48 12.35
10/21/2022 3:15:00 PM 9.11 48.398 0.141 7.34 5.37 12.34
10/21/2022 3:30:00 PM 9.16 48.488 0.141 7.36 0.33 12.34
10/21/2022 3:45:00 PM 9.24 48.632 0.141 7.35 0.52 12.31
10/21/2022 4:00:00 PM 9.23 48.614 0.141 7.39 0.79 12.28
10/21/2022 4:15:00 PM 9.19 48.542 0.141 7.41 0.44 12.25
10/21/2022 4:30:00 PM 9.22 48.596 0.141 7.4 0.83 12.2
10/21/2022 4:45:00 PM 9.22 48.596 0.141 7.4 0.47 12.13
10/21/2022 5:00:00 PM 9.2 48.56 0.141 7.4 1.53 12.07
10/21/2022 5:15:00 PM 9.18 48.524 0.141 7.39 0.91 11.98
10/21/2022 5:30:00 PM 9.19 48.542 0.141 7.38 0.38 11.9
10/21/2022 5:45:00 PM 9.2 48.56 0.141 7.36 1.58 11.79
10/21/2022 6:00:00 PM 9.2 48.56 0.141 7.37 8.36 11.68
10/21/2022 6:15:00 PM 9.21 48.578 0.141 7.35 0.4 11.59
10/21/2022 6:30:00 PM 9.23 48.614 0.141 7.34 0.39 11.48
10/21/2022 6:45:00 PM 9.23 48.614 0.141 7.32 0.43 11.36
10/21/2022 7:00:00 PM 9.23 48.614 0.141 7.3 0.48 11.26
10/21/2022 7:15:00 PM 9.23 48.614 0.141 7.28 0.6 11.15
10/21/2022 7:30:00 PM 9.22 48.596 0.142 7.26 0.81 11.06
10/21/2022 7:45:00 PM 9.21 48.578 0.142 7.25 0.84 10.98
10/21/2022 8:00:00 PM 9.22 48.596 0.142 7.23 0.77 10.91
10/21/2022 8:15:00 PM 9.21 48.578 0.142 7.22 0.66 10.84
10/21/2022 8:30:00 PM 9.19 48.542 0.142 7.2 0.73 10.77
10/21/2022 8:45:00 PM 9.17 48.506 0.142 7.16 0.73 10.69
10/21/2022 9:00:00 PM 9.15 48.47 0.142 7.17 0.74 10.64
10/21/2022 9:15:00 PM 9.13 48.434 0.142 7.14 0.81 10.59
10/21/2022 9:30:00 PM 9.1 48.38 0.142 7.14 0.78 10.54
10/21/2022 9:45:00 PM 9.07 48.326 0.142 7.13 0.73 10.5
10/21/2022 10:00:00 PM 9.03 48.254 0.142 7.12 0.65 10.45
10/21/2022 10:15:00 PM 8.98 48.164 0.142 7.11 0.56 10.43
10/21/2022 10:30:00 PM 8.92 48.056 0.143 7.08 0.58 10.39
10/21/2022 10:45:00 PM 8.86 47.948 0.143 7.08 0.56 10.37
10/21/2022 11:00:00 PM 8.8 47.84 0.143 7.07 0.69 10.36
10/21/2022 11:15:00 PM 8.73 47.714 0.143 7.07 0.57 10.37
10/21/2022 11:30:00 PM 8.66 47.588 0.143 7.04 0.52 10.36
10/21/2022 11:45:00 PM 8.58 47.444 0.143 7.04 0.59 10.34
10/22/2022 12:00:00 AM 8.49 47.282 0.143 7.04 0.66 10.35
10/22/2022 12:15:00 AM 8.41 47.138 0.143 7.03 0.72 10.37
10/22/2022 12:30:00 AM 8.31 46.958 0.143 7.02 0.61 10.37
10/22/2022 12:45:00 AM 8.21 46.778 0.143 7.01 0.6 10.39
10/22/2022 1:00:00 AM 8.11 46.598 0.144 7 0.57 10.4
10/22/2022 1:15:00 AM 8.02 46.436 0.144 6.99 0.65 10.42
10/22/2022 1:30:00 AM 7.92 46.256 0.144 6.98 0.61 10.45
10/22/2022 1:45:00 AM 7.81 46.058 0.144 6.99 0.61 10.49
10/22/2022 2:00:00 AM 7.71 45.878 0.144 6.97 0.65 10.51
10/22/2022 2:15:00 AM 7.62 45.716 0.144 6.96 0.68 10.54
10/22/2022 2:30:00 AM 7.5 45.5 0.144 6.94 0.83 10.58
10/22/2022 2:45:00 AM 7.41 45.338 0.144 6.93 0.69 10.6
10/22/2022 3:00:00 AM 7.31 45.158 0.144 6.92 0.58 10.63
10/22/2022 3:15:00 AM 7.21 44.978 0.144 6.91 0.68 10.65
10/22/2022 3:30:00 AM 7.13 44.834 0.144 6.9 0.77 10.69
10/22/2022 3:45:00 AM 7.03 44.654 0.144 6.89 0.85 10.71
10/22/2022 4:00:00 AM 6.96 44.528 0.144 6.89 0.54 10.74
10/22/2022 4:15:00 AM 6.88 44.384 0.144 6.88 0.58 10.77
10/22/2022 4:30:00 AM 6.8 44.24 0.144 6.88 0.52 10.8
10/22/2022 4:45:00 AM 6.74 44.132 0.144 6.88 0.59 10.83
10/22/2022 5:00:00 AM 6.68 44.024 0.144 6.88 0.59 10.85
10/22/2022 5:15:00 AM 6.61 43.898 0.144 6.88 0.76 10.86
10/22/2022 5:30:00 AM 6.55 43.79 0.144 6.88 0.66 10.89
10/22/2022 5:45:00 AM 6.5 43.7 0.144 6.88 0.61 10.91
10/22/2022 6:00:00 AM 6.44 43.592 0.144 6.88 0.61 10.93
10/22/2022 6:15:00 AM 6.39 43.502 0.143 6.88 0.71 10.96
10/22/2022 6:30:00 AM 6.34 43.412 0.144 6.88 0.71 10.96
10/22/2022 6:45:00 AM 6.3 43.34 0.143 6.88 0.55 10.99
10/22/2022 7:00:00 AM 6.27 43.286 0.144 6.89 0.63 11
10/22/2022 7:15:00 AM 6.25 43.25 0.144 6.89 0.71 11.01
10/22/2022 7:30:00 AM 6.23 43.214 0.144 6.89 2.99 11.03
10/22/2022 7:45:00 AM 6.2 43.16 0.144 6.9 2.97 11.06
10/22/2022 8:00:00 AM 6.19 43.142 0.144 6.9 2.82 11.1
10/22/2022 8:15:00 AM 6.18 43.124 0.144 6.91 2.41 11.12
10/22/2022 8:30:00 AM 6.18 43.124 0.144 6.92 3.14 11.18
10/22/2022 8:45:00 AM 6.18 43.124 0.144 6.93 6.42 11.24
10/22/2022 9:00:00 AM 6.2 43.16 0.143 6.92 2.78 11.31
10/22/2022 9:15:00 AM 6.2 43.16 0.143 6.95 6.74 11.4
10/22/2022 9:30:00 AM 6.23 43.214 0.143 6.96 4.91 11.48
10/22/2022 9:45:00 AM 6.28 43.304 0.143 6.97 6.38 11.57
10/22/2022 10:00:00 AM 6.37 43.466 0.143 6.97 6.83 11.65
10/22/2022 10:15:00 AM 6.49 43.682 0.143 7 2.38 11.71
10/22/2022 10:30:00 AM 6.62 43.916 0.143 7.01 5.34 11.77
10/22/2022 10:45:00 AM 6.77 44.186 0.143 7.03 6.65 11.85
10/22/2022 11:00:00 AM 6.92 44.456 0.143 7.04 5.93 11.89
10/22/2022 11:15:00 AM 7.04 44.672 0.143 7.05 9.11 11.91
10/22/2022 11:30:00 AM 7.21 44.978 0.142 7.07 7.89 11.97
10/22/2022 11:45:00 AM 7.4 45.32 0.142 7.09 8.78 12.03
10/22/2022 12:00:00 PM 7.56 45.608 0.142 7.1 8.66 12.07
10/22/2022 12:15:00 PM 7.74 45.932 0.142 7.12 8.33 12.09
10/22/2022 12:30:00 PM 7.9 46.22 0.142 7.13 10.82 12.13
10/22/2022 12:45:00 PM 8.07 46.526 0.142 7.14 6.41 12.14
10/22/2022 1:00:00 PM 8.24 46.832 0.142 7.16 14.26 12.18
10/22/2022 1:15:00 PM 8.41 47.138 0.142 7.17 7.26 12.21
10/22/2022 1:30:00 PM 8.58 47.444 0.141 7.19 7.75 12.22
10/22/2022 1:45:00 PM 8.73 47.714 0.141 7.21 11.94 12.24
10/22/2022 2:00:00 PM 8.85 47.93 0.141 7.23 7.66 12.26
10/22/2022 2:15:00 PM 9 48.2 0.141 7.24 2.16 12.26
10/22/2022 2:30:00 PM 9.12 48.416 0.141 7.27 5.37 12.26
10/22/2022 2:45:00 PM 9.23 48.614 0.141 7.28 9.26 12.26
10/22/2022 3:00:00 PM 9.35 48.83 0.141 7.29 0.48 12.25
10/22/2022 3:15:00 PM 9.43 48.974 0.141 7.31 3.13 12.24
10/22/2022 3:30:00 PM 9.51 49.118 0.141 7.31 6.5 12.21
10/22/2022 3:45:00 PM 9.52 49.136 0.141 7.33 0.57 12.19
10/22/2022 4:00:00 PM 9.61 49.298 0.141 7.33 11.38 12.15
10/22/2022 4:15:00 PM 9.6 49.28 0.141 7.34 8.6 12.1
10/22/2022 4:30:00 PM 9.58 49.244 0.141 7.34 11.54 12.06
10/22/2022 4:45:00 PM 9.57 49.226 0.141 7.34 0.4 11.99
10/22/2022 5:00:00 PM 9.56 49.208 0.141 7.34 10.28 11.92
10/22/2022 5:15:00 PM 9.57 49.226 0.141 7.34 10.83 11.84
10/22/2022 5:30:00 PM 9.58 49.244 0.141 7.33 12.49 11.76
10/22/2022 5:45:00 PM 9.59 49.262 0.141 7.32 0.43 11.67
10/22/2022 6:00:00 PM 9.6 49.28 0.141 7.32 0.34 11.57
10/22/2022 6:15:00 PM 9.61 49.298 0.141 7.31 0.36 11.46
10/22/2022 6:30:00 PM 9.62 49.316 0.141 7.3 0.39 11.35
10/22/2022 6:45:00 PM 9.62 49.316 0.141 7.28 0.44 11.26
10/22/2022 7:00:00 PM 9.64 49.352 0.141 7.26 0.38 11.14
10/22/2022 7:15:00 PM 9.66 49.388 0.141 7.25 0.62 11.05
10/22/2022 7:30:00 PM 9.67 49.406 0.141 7.23 0.66 10.95
10/22/2022 7:45:00 PM 9.69 49.442 0.141 7.22 0.66 10.87
10/22/2022 8:00:00 PM 9.69 49.442 0.141 7.2 0.67 10.78
10/22/2022 8:15:00 PM 9.7 49.46 0.141 7.19 0.76 10.71
10/22/2022 8:30:00 PM 9.71 49.478 0.141 7.18 0.55 10.64
10/22/2022 8:45:00 PM 9.71 49.478 0.141 7.17 0.84 10.59
10/22/2022 9:00:00 PM 9.7 49.46 0.141 7.15 0.69 10.51
10/22/2022 9:15:00 PM 9.7 49.46 0.141 7.14 0.7 10.46
10/22/2022 9:30:00 PM 9.67 49.406 0.141 7.12 0.79 10.41
10/22/2022 9:45:00 PM 9.65 49.37 0.141 7.11 0.65 10.36
10/22/2022 10:00:00 PM 9.62 49.316 0.142 7.11 0.85 10.32
10/22/2022 10:15:00 PM 9.58 49.244 0.142 7.1 0.98 10.29
10/22/2022 10:30:00 PM 9.53 49.154 0.142 7.09 0.82 10.25
10/22/2022 10:45:00 PM 9.47 49.046 0.142 7.07 0.75 10.22
10/22/2022 11:00:00 PM 9.42 48.956 0.142 7.06 0.69 10.21
10/22/2022 11:15:00 PM 9.35 48.83 0.142 7.03 0.71 10.2
10/22/2022 11:30:00 PM 9.27 48.686 0.142 7.03 0.62 10.18
10/22/2022 11:45:00 PM 9.19 48.542 0.142 7.04 0.55 10.19
10/23/2022 12:00:00 AM 9.1 48.38 0.142 7.02 0.96 10.18
10/23/2022 12:15:00 AM 9.01 48.218 0.142 7.02 0.61 10.21
10/23/2022 12:30:00 AM 8.92 48.056 0.143 7.01 0.61 10.22
10/23/2022 12:45:00 AM 8.82 47.876 0.143 7 0.51 10.21
10/23/2022 1:00:00 AM 8.73 47.714 0.143 6.99 0.72 10.24
10/23/2022 1:15:00 AM 8.62 47.516 0.143 6.98 0.59 10.27
10/23/2022 1:30:00 AM 8.52 47.336 0.143 6.97 0.55 10.29
10/23/2022 1:45:00 AM 8.4 47.12 0.143 6.97 0.51 10.32
10/23/2022 2:00:00 AM 8.3 46.94 0.143 6.97 0.6 10.34
10/23/2022 2:15:00 AM 8.2 46.76 0.143 6.95 0.54 10.39
10/23/2022 2:30:00 AM 8.1 46.58 0.143 6.96 0.61 10.41
10/23/2022 2:45:00 AM 7.97 46.346 0.143 6.93 1.23 10.44
10/23/2022 3:00:00 AM 7.87 46.166 0.143 6.95 0.64 10.5
10/23/2022 3:15:00 AM 7.77 45.986 0.143 6.93 0.55 10.51
10/23/2022 3:30:00 AM 7.68 45.824 0.143 6.93 0.83 10.53
10/23/2022 3:45:00 AM 7.58 45.644 0.143 6.91 0.57 10.57
10/23/2022 4:00:00 AM 7.49 45.482 0.143 6.9 0.7 10.6
10/23/2022 4:15:00 AM 7.41 45.338 0.143 6.89 0.66 10.62
10/23/2022 4:30:00 AM 7.33 45.194 0.143 6.89 0.65 10.65
10/23/2022 4:45:00 AM 7.25 45.05 0.143 6.88 0.57 10.66
10/23/2022 5:00:00 AM 7.17 44.906 0.143 6.88 0.53 10.7
10/23/2022 5:15:00 AM 7.11 44.798 0.143 6.87 0.66 10.71
10/23/2022 5:30:00 AM 7.04 44.672 0.143 6.87 0.52 10.74
10/23/2022 5:45:00 AM 6.97 44.546 0.143 6.86 0.66 10.77
10/23/2022 6:00:00 AM 6.91 44.438 0.143 6.87 0.62 10.79
10/23/2022 6:15:00 AM 6.85 44.33 0.143 6.87 0.55 10.82
10/23/2022 6:30:00 AM 6.79 44.222 0.143 6.87 0.61 10.85
10/23/2022 6:45:00 AM 6.74 44.132 0.143 6.87 0.48 10.87
10/23/2022 7:00:00 AM 6.69 44.042 0.143 6.87 0.59 10.88
10/23/2022 7:15:00 AM 6.64 43.952 0.143 6.87 0.74 10.91
10/23/2022 7:30:00 AM 6.59 43.862 0.143 6.86 7.26 10.92
10/23/2022 7:45:00 AM 6.54 43.772 0.143 6.87 7.85 10.95
10/23/2022 8:00:00 AM 6.51 43.718 0.143 6.87 8.47 10.98
10/23/2022 8:15:00 AM 6.51 43.718 0.143 6.88 8.53 11.03
10/23/2022 8:30:00 AM 6.5 43.7 0.143 6.89 8.56 11.07
10/23/2022 8:45:00 AM 6.51 43.718 0.143 6.9 8.4 11.15
10/23/2022 9:00:00 AM 6.5 43.7 0.142 6.91 93.5 11.22
10/23/2022 9:15:00 AM 6.55 43.79 0.142 6.93 8.05 11.31
10/23/2022 9:30:00 AM 6.66 43.988 0.142 6.95 7.98 11.39
10/23/2022 9:45:00 AM 6.76 44.168 0.142 6.94 7.94 11.48
10/23/2022 10:00:00 AM 6.85 44.33 0.142 6.98 6.06 11.54
10/23/2022 10:15:00 AM 6.93 44.474 0.142 6.99 7.3 11.62
10/23/2022 10:30:00 AM 6.99 44.582 0.142 7.01 8.35 11.68
10/23/2022 10:45:00 AM 7.14 44.852 0.142 7.02 8.33 11.73
10/23/2022 11:00:00 AM 7.29 45.122 0.142 7.03 8.56 11.77
10/23/2022 11:15:00 AM 7.44 45.392 0.142 7.04 5.23 11.82
10/23/2022 11:30:00 AM 7.52 45.536 0.141 7.06 7.07 11.82
10/23/2022 11:45:00 AM 7.59 45.662 0.141 7.08 8.34 11.92
10/23/2022 12:00:00 PM 7.64 45.752 0.141 7.09 8.03 11.94
10/23/2022 12:15:00 PM 7.73 45.914 0.141 7.1 7.28 11.98
10/23/2022 12:30:00 PM 7.81 46.058 0.141 7.12 0.43 12.06
10/23/2022 12:45:00 PM 7.97 46.346 0.141 7.14 10.56 12.09
10/23/2022 1:00:00 PM 8.07 46.526 0.141 7.16 8.55 12.12
10/23/2022 1:15:00 PM 8.19 46.742 0.141 7.17 2.56 12.15
10/23/2022 1:30:00 PM 8.47 47.246 0.141 7.18 3.79 12.17
10/23/2022 1:45:00 PM 8.7 47.66 0.14 7.21 3.16 12.23
10/23/2022 2:00:00 PM 8.89 48.002 0.14 7.23 7.73 12.24
10/23/2022 2:15:00 PM 8.97 48.146 0.14 7.25 4.88 12.24
10/23/2022 2:30:00 PM 9.02 48.236 0.14 7.27 3.2 12.25
10/23/2022 2:45:00 PM 9.1 48.38 0.14 7.29 9.72 12.24
10/23/2022 3:00:00 PM 9.07 48.326 0.14 7.3 7.54 12.25
10/23/2022 3:15:00 PM 9.1 48.38 0.14 7.31 0.9 12.22
10/23/2022 3:30:00 PM 9.09 48.362 0.14 7.32 0.45 12.21
10/23/2022 3:45:00 PM 9.12 48.416 0.14 7.32 0.41 12.19
10/23/2022 4:00:00 PM 9.09 48.362 0.14 7.34 2.85 12.17
10/23/2022 4:15:00 PM 9.13 48.434 0.14 7.33 8.8 12.13
10/23/2022 4:30:00 PM 9.17 48.506 0.14 7.34 0.41 12.08
10/23/2022 4:45:00 PM 9.22 48.596 0.14 7.34 7.17 12.03
10/23/2022 5:00:00 PM 9.28 48.704 0.14 7.33 8.2 11.96
10/23/2022 5:15:00 PM 9.32 48.776 0.139 7.33 7.61 11.89
10/23/2022 5:30:00 PM 9.38 48.884 0.139 7.33 0.38 11.82
10/23/2022 5:45:00 PM 9.43 48.974 0.139 7.33 0.69 11.75
10/23/2022 6:00:00 PM 9.47 49.046 0.139 7.31 0.49 11.65
10/23/2022 6:15:00 PM 9.52 49.136 0.139 7.32 0.42 11.57
10/23/2022 6:30:00 PM 9.57 49.226 0.139 7.28 0.87 11.45
10/23/2022 6:45:00 PM 9.63 49.334 0.14 7.29 0.38 11.35
10/23/2022 7:00:00 PM 9.68 49.424 0.14 7.26 0.49 11.25
10/23/2022 7:15:00 PM 9.74 49.532 0.14 7.26 0.49 11.16
10/23/2022 7:30:00 PM 9.8 49.64 0.14 7.25 0.65 11.07
10/23/2022 7:45:00 PM 9.86 49.748 0.14 7.23 0.72 10.96
10/23/2022 8:00:00 PM 9.91 49.838 0.14 7.21 0.73 10.88
10/23/2022 8:15:00 PM 9.97 49.946 0.14 7.2 0.47 10.8
10/23/2022 8:30:00 PM 10.01 50.018 0.14 7.18 0.73 10.72
10/23/2022 8:45:00 PM 10.07 50.126 0.14 7.17 0.64 10.65
10/23/2022 9:00:00 PM 10.11 50.198 0.14 7.16 0.7 10.57
10/23/2022 9:15:00 PM 10.14 50.252 0.14 7.13 0.64 10.49
10/23/2022 9:30:00 PM 10.18 50.324 0.14 7.14 0.49 10.44
10/23/2022 9:45:00 PM 10.21 50.378 0.14 7.12 0.56 10.38
10/23/2022 10:00:00 PM 10.21 50.378 0.14 7.1 0.53 10.32
10/23/2022 10:15:00 PM 10.22 50.396 0.14 7.1 0.46 10.27
10/23/2022 10:30:00 PM 10.23 50.414 0.14 7.09 0.54 10.23
10/23/2022 10:45:00 PM 10.23 50.414 0.141 7.08 0.62 10.18
10/23/2022 11:00:00 PM 10.22 50.396 0.141 7.05 0.55 10.14
10/23/2022 11:15:00 PM 10.22 50.396 0.141 7.06 0.53 10.1
10/23/2022 11:30:00 PM 10.21 50.378 0.141 7.05 0.6 10.07
10/23/2022 11:45:00 PM 10.18 50.324 0.141 7.04 0.52 10.05
10/24/2022 12:00:00 AM 10.15 50.27 0.141 7.03 0.58 10.03
10/24/2022 12:15:00 AM 10.11 50.198 0.141 7.02 0.5 10
10/24/2022 12:30:00 AM 10.08 50.144 0.141 7.01 0.45 9.98
10/24/2022 12:45:00 AM 10.03 50.054 0.141 7 0.45 9.98
10/24/2022 1:00:00 AM 9.98 49.964 0.142 6.99 0.7 9.96
10/24/2022 1:15:00 AM 9.93 49.874 0.142 6.98 0.69 9.97
10/24/2022 1:30:00 AM 9.89 49.802 0.142 6.97 0.54 9.97
10/24/2022 1:45:00 AM 9.83 49.694 0.142 6.97 0.45 9.97
10/24/2022 2:00:00 AM 9.79 49.622 0.142 6.96 0.52 9.97
10/24/2022 2:15:00 AM 9.76 49.568 0.142 6.96 0.54 9.97
10/24/2022 2:30:00 AM 9.71 49.478 0.142 6.95 0.6 9.98
10/24/2022 2:45:00 AM 9.67 49.406 0.142 6.94 0.54 9.99
10/24/2022 3:00:00 AM 9.65 49.37 0.142 6.94 0.74 9.98
10/24/2022 3:15:00 AM 9.63 49.334 0.142 6.93 0.66 9.97
10/24/2022 3:30:00 AM 9.6 49.28 0.142 6.93 0.66 9.98
10/24/2022 3:45:00 AM 9.58 49.244 0.142 6.93 0.63 9.98
10/24/2022 4:00:00 AM 9.56 49.208 0.142 6.92 0.62 9.97
10/24/2022 4:15:00 AM 9.55 49.19 0.142 6.92 0.65 9.96
10/24/2022 4:30:00 AM 9.54 49.172 0.142 6.92 0.54 9.95
10/24/2022 4:45:00 AM 9.53 49.154 0.142 6.92 0.65 9.95
10/24/2022 5:00:00 AM 9.52 49.136 0.142 6.91 0.59 9.96
10/24/2022 5:15:00 AM 9.51 49.118 0.142 6.91 0.54 9.95
10/24/2022 5:30:00 AM 9.5 49.1 0.142 6.91 0.68 9.94
10/24/2022 5:45:00 AM 9.5 49.1 0.143 6.9 0.48 9.94
10/24/2022 6:00:00 AM 9.49 49.082 0.142 6.9 0.53 9.96
10/24/2022 6:15:00 AM 9.48 49.064 0.142 6.9 0.64 9.94
10/24/2022 6:30:00 AM 9.48 49.064 0.142 6.9 0.57 9.94
10/24/2022 6:45:00 AM 9.48 49.064 0.142 6.9 0.58 9.96
10/24/2022 7:00:00 AM 9.48 49.064 0.142 6.9 0.57 9.99
10/24/2022 7:15:00 AM 9.47 49.046 0.142 6.9 0.63 9.99
10/24/2022 7:30:00 AM 9.47 49.046 0.142 6.9 1.74 9.98
10/24/2022 7:45:00 AM 9.47 49.046 0.142 6.9 7.96 9.98
10/24/2022 8:00:00 AM 9.48 49.064 0.142 6.9 9.4 9.99
10/24/2022 8:15:00 AM 9.48 49.064 0.142 6.9 7.39 10.02
10/24/2022 8:30:00 AM 9.5 49.1 0.142 6.91 7.03 10.04
10/24/2022 8:45:00 AM 9.51 49.118 0.142 6.9 8.21 10.08
10/24/2022 9:00:00 AM 9.53 49.154 0.142 6.91 5.49 10.08
10/24/2022 9:15:00 AM 9.56 49.208 0.142 6.92 0.39 10.14
10/24/2022 9:30:00 AM 9.59 49.262 0.142 6.93 6.62 10.16
10/24/2022 9:45:00 AM 9.62 49.316 0.142 6.93 3.69 10.21
10/24/2022 10:00:00 AM 9.68 49.424 0.142 6.94 7.75 10.3
10/24/2022 10:15:00 AM 9.73 49.514 0.142 6.95 6.25 10.32
10/24/2022 10:30:00 AM 9.78 49.604 0.142 6.96 0.45 10.39
10/24/2022 10:45:00 AM 9.85 49.73 0.142 6.98 0.43 10.51
10/24/2022 11:00:00 AM 9.9 49.82 0.142 6.99 0.47 10.57
10/24/2022 11:15:00 AM 10.01 50.018 0.142 7.01 8.22 10.66
10/24/2022 11:30:00 AM 10.18 50.324 0.141 7.02 0.42 10.7
10/24/2022 11:45:00 AM 10.33 50.594 0.141 7.04 0.43 10.82
10/24/2022 12:00:00 PM 10.45 50.81 0.141 7.06 0.48 10.83
10/24/2022 12:15:00 PM 10.54 50.972 0.141 7.08 0.44 10.91
10/24/2022 12:30:00 PM 10.72 51.296 0.141 7.1 0.48 10.98
10/24/2022 12:45:00 PM 10.87 51.566 0.141 7.11 0.53 11.05
10/24/2022 1:00:00 PM 10.99 51.782 0.141 7.15 0.52 11.11
10/24/2022 1:15:00 PM 11.05 51.89 0.141 7.16 0.46 11.12
10/24/2022 1:30:00 PM 11.16 52.088 0.141 7.18 0.61 11.16
10/24/2022 1:45:00 PM 11.34 52.412 0.141 7.19 0.67 11.22
10/24/2022 2:00:00 PM 11.52 52.736 0.141 7.22 0.58 11.22
10/24/2022 2:15:00 PM 11.75 53.15 0.14 7.22 0.99 11.25
10/24/2022 2:30:00 PM 11.92 53.456 0.14 7.24 0.49 11.25
10/24/2022 2:45:00 PM 12.09 53.762 0.14 7.26 0.42 11.23
10/24/2022 3:00:00 PM 12.23 54.014 0.14 7.28 0.49 11.26
10/24/2022 3:15:00 PM 12.36 54.248 0.14 7.3 0.51 11.24
10/24/2022 3:30:00 PM 12.43 54.374 0.14 7.32 0.46 11.25
10/24/2022 3:45:00 PM 12.49 54.482 0.14 7.34 0.44 11.23
10/24/2022 4:00:00 PM 12.48 54.464 0.14 7.35 0.42 11.19
10/24/2022 4:15:00 PM 12.48 54.464 0.14 7.36 0.42 11.16
10/24/2022 4:30:00 PM 12.5 54.5 0.14 7.35 0.4 11.1
10/24/2022 4:45:00 PM 12.47 54.446 0.14 7.35 0.4 11.03
10/24/2022 5:00:00 PM 12.48 54.464 0.14 7.34 0.47 10.95
10/24/2022 5:15:00 PM 12.46 54.428 0.14 7.33 0.53 10.85
10/24/2022 5:30:00 PM 12.46 54.428 0.14 7.33 0.48 10.76
10/24/2022 5:45:00 PM 12.47 54.446 0.14 7.31 0.45 10.65
10/24/2022 6:00:00 PM 12.48 54.464 0.14 7.29 0.89 10.56
10/24/2022 6:15:00 PM 12.49 54.482 0.14 7.26 0.94 10.44
10/24/2022 6:30:00 PM 12.5 54.5 0.14 7.25 0.94 10.35
10/24/2022 6:45:00 PM 12.51 54.518 0.14 7.24 0.42 10.23
10/24/2022 7:00:00 PM 12.51 54.518 0.14 7.21 0.93 10.14
10/24/2022 7:15:00 PM 12.5 54.5 0.141 7.22 0.61 10.04
10/24/2022 7:30:00 PM 12.5 54.5 0.141 7.2 0.73 9.95
10/24/2022 7:45:00 PM 12.49 54.482 0.141 7.19 0.79 9.9
10/24/2022 8:00:00 PM 12.5 54.5 0.141 7.17 0.99 9.81
10/24/2022 8:15:00 PM 12.51 54.518 0.141 7.16 1.04 9.74
10/24/2022 8:30:00 PM 12.5 54.5 0.141 7.12 0.96 9.66
10/24/2022 8:45:00 PM 12.51 54.518 0.141 7.12 1.1 9.61
10/24/2022 9:00:00 PM 12.52 54.536 0.141 7.11 0.81 9.54
10/24/2022 9:15:00 PM 12.52 54.536 0.141 7.1 0.81 9.48
10/24/2022 9:30:00 PM 12.52 54.536 0.141 7.09 0.73 9.41
10/24/2022 9:45:00 PM 12.51 54.518 0.141 7.07 0.85 9.36
10/24/2022 10:00:00 PM 12.52 54.536 0.142 7.06 0.82 9.3
10/24/2022 10:15:00 PM 12.51 54.518 0.142 7.06 0.64 9.24
10/24/2022 10:30:00 PM 12.49 54.482 0.142 7.04 0.79 9.2
10/24/2022 10:45:00 PM 12.5 54.5 0.142 7.04 0.96 9.15
10/24/2022 11:00:00 PM 12.5 54.5 0.142 7.02 0.94 9.11
10/24/2022 11:15:00 PM 12.49 54.482 0.142 7 0.94 9.07
10/24/2022 11:30:00 PM 12.5 54.5 0.142 7 0.65 9.02
10/24/2022 11:45:00 PM 12.49 54.482 0.142 7 0.7 9.01
10/25/2022 12:00:00 AM 12.49 54.482 0.142 6.98 0.62 8.97
10/25/2022 12:15:00 AM 12.48 54.464 0.143 6.98 0.59 8.96
10/25/2022 12:30:00 AM 12.47 54.446 0.143 6.98 0.54 8.95
10/25/2022 12:45:00 AM 12.45 54.41 0.143 6.97 0.52 8.92
10/25/2022 1:00:00 AM 12.43 54.374 0.143 6.96 0.59 8.92
10/25/2022 1:15:00 AM 12.41 54.338 0.143 6.94 0.63 8.91
10/25/2022 1:30:00 AM 12.38 54.284 0.143 6.95 0.75 8.92
10/25/2022 1:45:00 AM 12.35 54.23 0.143 6.95 0.58 8.91
10/25/2022 2:00:00 AM 12.32 54.176 0.143 6.95 0.6 8.92
10/25/2022 2:15:00 AM 12.28 54.104 0.143 6.94 0.87 8.92
10/25/2022 2:30:00 AM 12.25 54.05 0.144 6.93 0.85 8.9
10/25/2022 2:45:00 AM 12.21 53.978 0.144 6.92 0.78 8.92
10/25/2022 3:00:00 AM 12.17 53.906 0.144 6.92 0.82 8.92
10/25/2022 3:15:00 AM 12.13 53.834 0.144 6.91 0.68 8.93
10/25/2022 3:30:00 AM 12.09 53.762 0.144 6.91 0.69 8.94
10/25/2022 3:45:00 AM 12.05 53.69 0.144 6.91 0.97 8.94
10/25/2022 4:00:00 AM 12.01 53.618 0.144 6.91 0.73 8.95
10/25/2022 4:15:00 AM 11.97 53.546 0.144 6.91 0.88 8.96
10/25/2022 4:30:00 AM 11.93 53.474 0.144 6.91 0.64 8.97
10/25/2022 4:45:00 AM 11.9 53.42 0.144 6.9 0.88 8.97
10/25/2022 5:00:00 AM 11.87 53.366 0.144 6.88 0.71 8.96
10/25/2022 5:15:00 AM 11.84 53.312 0.144 6.89 0.66 8.97
10/25/2022 5:30:00 AM 11.82 53.276 0.144 6.89 0.62 8.98
10/25/2022 5:45:00 AM 11.79 53.222 0.144 6.89 0.79 8.99
10/25/2022 6:00:00 AM 11.77 53.186 0.144 6.89 0.63 9
10/25/2022 6:15:00 AM 11.76 53.168 0.144 6.89 0.76 9.01
10/25/2022 6:30:00 AM 11.74 53.132 0.144 6.89 0.77 9.02
10/25/2022 6:45:00 AM 11.73 53.114 0.144 6.88 0.82 9.02
10/25/2022 7:00:00 AM 11.72 53.096 0.144 6.89 1.38 9.03
10/25/2022 7:15:00 AM 11.71 53.078 0.144 6.89 0.72 9.03
10/25/2022 7:30:00 AM 11.7 53.06 0.144 6.89 0.78 9.05
10/25/2022 7:45:00 AM 11.69 53.042 0.144 6.88 0.83 9.05
10/25/2022 8:00:00 AM 11.69 53.042 0.144 6.88 0.78 9.05
10/25/2022 8:15:00 AM 11.69 53.042 0.144 6.89 0.8 9.07
10/25/2022 8:30:00 AM 11.7 53.06 0.144 6.89 0.57 9.1
10/25/2022 8:45:00 AM 11.71 53.078 0.144 6.89 0.59 9.14
10/25/2022 9:00:00 AM 11.72 53.096 0.144 6.89 0.53 9.18
10/25/2022 9:15:00 AM 11.74 53.132 0.144 6.9 0.61 9.21
10/25/2022 9:30:00 AM 11.79 53.222 0.144 6.91 0.55 9.28
10/25/2022 9:45:00 AM 11.82 53.276 0.144 6.92 0.62 9.34
10/25/2022 10:00:00 AM 11.92 53.456 0.144 6.93 0.48 9.43
10/25/2022 10:15:00 AM 11.96 53.528 0.144 6.94 0.67 9.5
10/25/2022 10:30:00 AM 11.99 53.582 0.143 6.95 0.47 9.59
10/25/2022 10:45:00 AM 12.03 53.654 0.143 6.96 0.54 9.62
10/25/2022 11:00:00 AM 12.07 53.726 0.143 6.95 0.42 9.65
10/25/2022 11:15:00 AM 12.13 53.834 0.143 6.97 1.02 9.69
10/25/2022 11:30:00 AM 12.18 53.924 0.143 6.98 0.94 9.76
10/25/2022 11:45:00 AM 12.21 53.978 0.143 7 1 9.81
10/25/2022 12:00:00 PM 12.27 54.086 0.143 7.02 0.46 9.87
10/25/2022 12:15:00 PM 12.34 54.212 0.143 7.02 1.01 9.91
10/25/2022 12:30:00 PM 12.39 54.302 0.143 7.04 0.45 9.95
10/25/2022 12:45:00 PM 12.47 54.446 0.143 7.04 0.91 10.02
10/25/2022 1:00:00 PM 12.55 54.59 0.143 7.07 0.98 10.07
10/25/2022 1:15:00 PM 12.61 54.698 0.142 7.08 0.49 10.11
10/25/2022 1:30:00 PM 12.65 54.77 0.142 7.1 0.53 10.15
10/25/2022 1:45:00 PM 12.75 54.95 0.142 7.11 0.6 10.19
10/25/2022 2:00:00 PM 12.9 55.22 0.142 7.12 0.61 10.24
10/25/2022 2:15:00 PM 12.98 55.364 0.142 7.12 1.25 10.28
10/25/2022 2:30:00 PM 13.05 55.49 0.142 7.16 0.77 10.34
10/25/2022 2:45:00 PM 13.21 55.778 0.142 7.18 0.66 10.38
10/25/2022 3:00:00 PM 13.34 56.012 0.142 7.19 0.76 10.41
10/25/2022 3:15:00 PM 13.35 56.03 0.142 7.2 0.77 10.4
10/25/2022 3:30:00 PM 13.38 56.084 0.142 7.22 0.71 10.41
10/25/2022 3:45:00 PM 13.46 56.228 0.142 7.23 0.87 10.41
10/25/2022 4:00:00 PM 13.53 56.354 0.142 7.24 0.72 10.36
10/25/2022 4:15:00 PM 13.65 56.57 0.142 7.24 0.67 10.37
10/25/2022 4:30:00 PM 13.69 56.642 0.142 7.24 0.65 10.33
10/25/2022 4:45:00 PM 13.74 56.732 0.142 7.25 0.54 10.34
10/25/2022 5:00:00 PM 13.75 56.75 0.142 7.25 0.58 10.26
10/25/2022 5:15:00 PM 13.76 56.768 0.142 7.25 0.54 10.19
10/25/2022 5:30:00 PM 13.77 56.786 0.142 7.24 0.69 10.09
10/25/2022 5:45:00 PM 13.78 56.804 0.142 7.23 0.67 9.96
10/25/2022 6:00:00 PM 13.78 56.804 0.142 7.22 0.47 9.86
10/25/2022 6:15:00 PM 13.78 56.804 0.142 7.2 0.66 9.75
10/25/2022 6:30:00 PM 13.79 56.822 0.142 7.18 0.6 9.64
10/25/2022 6:45:00 PM 13.79 56.822 0.142 7.17 0.58 9.57
10/25/2022 7:00:00 PM 13.8 56.84 0.142 7.17 0.69 9.49
10/25/2022 7:15:00 PM 13.82 56.876 0.142 7.16 0.8 9.42
10/25/2022 7:30:00 PM 13.84 56.912 0.143 7.14 0.94 9.35
10/25/2022 7:45:00 PM 13.85 56.93 0.143 7.13 0.83 9.29
10/25/2022 8:00:00 PM 13.87 56.966 0.143 7.11 1.32 9.22
10/25/2022 8:15:00 PM 13.88 56.984 0.143 7.1 1.07 9.15
10/25/2022 8:30:00 PM 13.9 57.02 0.143 7.1 1.08 9.11
10/25/2022 8:45:00 PM 13.91 57.038 0.143 7.08 1.07 9.01
10/25/2022 9:00:00 PM 13.92 57.056 0.143 7.08 0.89 8.96
10/25/2022 9:15:00 PM 13.93 57.074 0.143 7.07 0.93 8.91
10/25/2022 9:30:00 PM 13.94 57.092 0.143 7.06 1.18 8.85
10/25/2022 9:45:00 PM 13.94 57.092 0.144 7.03 1.29 8.76
10/25/2022 10:00:00 PM 13.94 57.092 0.144 7.02 1.72 8.72
10/25/2022 10:15:00 PM 13.93 57.074 0.144 7.01 1.4 8.67
10/25/2022 10:30:00 PM 13.93 57.074 0.144 7.01 0.9 8.63
10/25/2022 10:45:00 PM 13.91 57.038 0.144 7.01 0.94 8.58
10/25/2022 11:00:00 PM 13.89 57.002 0.144 7 1 8.53
10/25/2022 11:15:00 PM 13.88 56.984 0.144 6.98 1.37 8.51
10/25/2022 11:30:00 PM 13.87 56.966 0.144 6.99 0.79 8.47
10/25/2022 11:45:00 PM 13.86 56.948 0.144 6.97 1.25 8.45
10/26/2022 12:00:00 AM 13.85 56.93 0.145 6.98 0.89 8.43
10/26/2022 12:15:00 AM 13.85 56.93 0.145 6.97 0.65 8.4
10/26/2022 12:30:00 AM 13.84 56.912 0.145 6.97 0.74 8.37
10/26/2022 12:45:00 AM 13.82 56.876 0.145 6.96 0.79 8.32
10/26/2022 1:00:00 AM 13.8 56.84 0.145 6.96 0.73 8.33
10/26/2022 1:15:00 AM 13.76 56.768 0.145 6.93 1.11 8.32
10/26/2022 1:30:00 AM 13.73 56.714 0.145 6.94 0.74 8.3
10/26/2022 1:45:00 AM 13.71 56.678 0.146 6.94 0.73 8.3
10/26/2022 2:00:00 AM 13.68 56.624 0.145 6.92 1.15 8.3
10/26/2022 2:15:00 AM 13.63 56.534 0.146 6.93 0.93 8.3
10/26/2022 2:30:00 AM 13.57 56.426 0.146 6.92 1.22 8.28
10/26/2022 2:45:00 AM 13.52 56.336 0.146 6.91 1.24 8.28
10/26/2022 3:00:00 AM 13.47 56.246 0.146 6.92 0.86 8.3
10/26/2022 3:15:00 AM 13.41 56.138 0.146 6.92 0.95 8.28
10/26/2022 3:30:00 AM 13.35 56.03 0.146 6.92 0.89 8.28
10/26/2022 3:45:00 AM 13.3 55.94 0.146 6.91 0.97 8.29
10/26/2022 4:00:00 AM 13.23 55.814 0.146 6.91 0.88 8.31
10/26/2022 4:15:00 AM 13.16 55.688 0.146 6.91 1.04 8.35
10/26/2022 4:30:00 AM 13.1 55.58 0.146 6.91 1.14 8.34
10/26/2022 4:45:00 AM 13.02 55.436 0.146 6.91 1.19 8.3
10/26/2022 5:00:00 AM 12.95 55.31 0.146 6.9 0.84 8.34
10/26/2022 5:15:00 AM 12.88 55.184 0.146 6.9 0.81 8.37
10/26/2022 5:30:00 AM 12.8 55.04 0.146 6.9 0.82 8.39
10/26/2022 5:45:00 AM 12.74 54.932 0.146 6.9 0.64 8.41
10/26/2022 6:00:00 AM 12.68 54.824 0.146 6.89 0.68 8.41
10/26/2022 6:15:00 AM 12.62 54.716 0.146 6.89 0.74 8.43
10/26/2022 6:30:00 AM 12.57 54.626 0.146 6.88 0.82 8.44
10/26/2022 6:45:00 AM 12.53 54.554 0.146 6.88 0.79 8.46
10/26/2022 7:00:00 AM 12.48 54.464 0.146 6.88 0.68 8.48
10/26/2022 7:15:00 AM 12.42 54.356 0.147 6.88 0.76 8.48
10/26/2022 7:30:00 AM 12.37 54.266 0.147 6.87 0.71 8.5
10/26/2022 7:45:00 AM 12.31 54.158 0.146 6.88 0.7 8.54
10/26/2022 8:00:00 AM 12.27 54.086 0.147 6.88 0.6 8.56
10/26/2022 8:15:00 AM 12.24 54.032 0.147 6.88 0.54 8.59
10/26/2022 8:30:00 AM 12.22 53.996 0.147 6.86 0.62 8.63
10/26/2022 8:45:00 AM 12.21 53.978 0.146 6.89 0.6 8.75
10/26/2022 9:00:00 AM 12.22 53.996 0.146 6.89 0.51 8.83
10/26/2022 9:15:00 AM 12.24 54.032 0.146 6.89 0.49 8.91
10/26/2022 9:30:00 AM 12.23 54.014 0.146 6.9 0.48 8.99
10/26/2022 9:45:00 AM 12.3 54.14 0.146 6.92 0.56 9.07
10/26/2022 10:00:00 AM 12.36 54.248 0.146 6.91 0.55 9.15
10/26/2022 10:15:00 AM 12.37 54.266 0.146 6.94 0.46 9.23
10/26/2022 10:30:00 AM 12.37 54.266 0.146 6.93 0.37 9.28
10/26/2022 10:45:00 AM 12.38 54.284 0.146 6.95 0.48 9.34
10/26/2022 11:00:00 AM 12.44 54.392 0.146 6.96 0.5 9.39
10/26/2022 11:15:00 AM 12.56 54.608 0.146 6.98 0.52 9.48
10/26/2022 11:30:00 AM 12.61 54.698 0.146 6.99 0.59 9.54
10/26/2022 11:45:00 AM 12.62 54.716 0.146 7.01 0.58 9.6
10/26/2022 12:00:00 PM 12.65 54.77 0.146 7.02 0.51 9.68
10/26/2022 12:15:00 PM 12.64 54.752 0.146 7.02 0.69 9.68
10/26/2022 12:30:00 PM 12.66 54.788 0.145 7.03 1.08 9.73
10/26/2022 12:45:00 PM 12.69 54.842 0.145 7.05 0.54 9.77
10/26/2022 1:00:00 PM 12.69 54.842 0.145 7.06 0.52 9.75
10/26/2022 1:15:00 PM 12.7 54.86 0.145 7.07 0.51 9.78
10/26/2022 1:30:00 PM 12.69 54.842 0.145 7.07 0.67 9.76
10/26/2022 1:45:00 PM 12.67 54.806 0.145 7.06 1.13 9.74
10/26/2022 2:00:00 PM 12.66 54.788 0.145 7.07 0.67 9.7
10/26/2022 2:15:00 PM 12.67 54.806 0.145 7.07 0.66 9.69
10/26/2022 2:30:00 PM 12.68 54.824 0.145 7.07 0.67 9.64
10/26/2022 2:45:00 PM 12.68 54.824 0.145 7.07 0.86 9.62
10/26/2022 3:00:00 PM 12.68 54.824 0.145 7.06 0.79 9.6
10/26/2022 3:15:00 PM 12.7 54.86 0.145 7.06 1.25 9.57
10/26/2022 3:30:00 PM 12.71 54.878 0.145 7.06 1.19 9.56
10/26/2022 3:45:00 PM 12.73 54.914 0.145 7.07 0.6 9.53
10/26/2022 4:00:00 PM 12.75 54.95 0.145 7.05 1.04 9.54
10/26/2022 4:15:00 PM 12.77 54.986 0.145 7.07 0.52 9.52
10/26/2022 4:30:00 PM 12.78 55.004 0.145 7.07 0.67 9.49
10/26/2022 4:45:00 PM 12.8 55.04 0.145 7.06 0.98 9.46
10/26/2022 5:00:00 PM 12.82 55.076 0.145 7.06 0.5 9.42
10/26/2022 5:15:00 PM 12.83 55.094 0.145 7.06 0.5 9.36
10/26/2022 5:30:00 PM 12.84 55.112 0.145 7.06 0.43 9.33
10/26/2022 5:45:00 PM 12.85 55.13 0.145 7.05 0.53 9.29
10/26/2022 6:00:00 PM 12.85 55.13 0.145 7.03 1.15 9.24
10/26/2022 6:15:00 PM 12.85 55.13 0.145 7.01 1.15 9.19
10/26/2022 6:30:00 PM 12.85 55.13 0.145 7.02 1.19 9.16
10/26/2022 6:45:00 PM 12.85 55.13 0.145 7.03 0.61 9.11
10/26/2022 7:00:00 PM 12.86 55.148 0.145 7.01 1.21 9.06
10/26/2022 7:15:00 PM 12.86 55.148 0.145 7 0.87 9.01
10/26/2022 7:30:00 PM 12.85 55.13 0.145 7 1.01 8.98
10/26/2022 7:45:00 PM 12.83 55.094 0.145 6.99 1.55 8.94
10/26/2022 8:00:00 PM 12.81 55.058 0.145 6.99 1.37 8.9
10/26/2022 8:15:00 PM 12.81 55.058 0.146 6.97 1.44 8.87
10/26/2022 8:30:00 PM 12.79 55.022 0.146 6.98 1.38 8.83
10/26/2022 8:45:00 PM 12.78 55.004 0.146 6.97 1.37 8.8
10/26/2022 9:00:00 PM 12.76 54.968 0.146 6.96 1.67 8.77
10/26/2022 9:15:00 PM 12.73 54.914 0.146 6.96 1.11 8.75
10/26/2022 9:30:00 PM 12.7 54.86 0.146 6.96 1.22 8.71
10/26/2022 9:45:00 PM 12.69 54.842 0.146 6.95 1.13 8.69
10/26/2022 10:00:00 PM 12.65 54.77 0.146 6.95 0.87 8.69
10/26/2022 10:15:00 PM 12.63 54.734 0.146 6.95 1.2 8.67
10/26/2022 10:30:00 PM 12.58 54.644 0.147 6.94 0.8 8.68
10/26/2022 10:45:00 PM 12.57 54.626 0.147 6.94 0.9 8.66
10/26/2022 11:00:00 PM 12.54 54.572 0.147 6.93 1.04 8.64
10/26/2022 11:15:00 PM 12.53 54.554 0.147 6.93 0.8 8.62
10/26/2022 11:30:00 PM 12.49 54.482 0.147 6.93 0.8 8.61
10/26/2022 11:45:00 PM 12.44 54.392 0.147 6.92 0.79 8.59
10/27/2022 12:00:00 AM 12.43 54.374 0.147 6.92 0.9 8.59
10/27/2022 12:15:00 AM 12.4 54.32 0.147 6.91 0.99 8.58
10/27/2022 12:30:00 AM 12.35 54.23 0.147 6.91 1.04 8.59
10/27/2022 12:45:00 AM 12.31 54.158 0.147 6.91 0.88 8.58
10/27/2022 1:00:00 AM 12.27 54.086 0.147 6.91 0.83 8.6
10/27/2022 1:15:00 AM 12.23 54.014 0.147 6.9 0.78 8.59
10/27/2022 1:30:00 AM 12.17 53.906 0.147 6.9 1.12 8.59
10/27/2022 1:45:00 AM 12.13 53.834 0.147 6.91 0.9 8.6
10/27/2022 2:00:00 AM 12.09 53.762 0.147 6.9 0.79 8.6
10/27/2022 2:15:00 AM 12.05 53.69 0.147 6.9 0.86 8.61
10/27/2022 2:30:00 AM 12.02 53.636 0.147 6.9 0.96 8.6
10/27/2022 2:45:00 AM 12 53.6 0.147 6.9 0.89 8.62
10/27/2022 3:00:00 AM 11.99 53.582 0.147 6.89 0.89 8.62
10/27/2022 3:15:00 AM 11.97 53.546 0.147 6.89 0.94 8.64
10/27/2022 3:30:00 AM 11.96 53.528 0.147 6.88 1 8.64
10/27/2022 3:45:00 AM 11.94 53.492 0.147 6.89 1.04 8.65
10/27/2022 4:00:00 AM 11.92 53.456 0.147 6.89 0.93 8.65
10/27/2022 4:15:00 AM 11.88 53.384 0.147 6.89 0.89 8.6
10/27/2022 4:30:00 AM 11.85 53.33 0.147 6.89 0.96 8.69
10/27/2022 4:45:00 AM 11.83 53.294 0.147 6.89 1.02 8.69
10/27/2022 5:00:00 AM 11.8 53.24 0.147 6.88 1 8.69
10/27/2022 5:15:00 AM 11.77 53.186 0.147 6.88 0.83 8.72
10/27/2022 5:30:00 AM 11.74 53.132 0.147 6.89 0.81 8.71
10/27/2022 5:45:00 AM 11.7 53.06 0.147 6.88 0.93 8.74
10/27/2022 6:00:00 AM 11.65 52.97 0.147 6.88 1.02 8.74
10/27/2022 6:15:00 AM 11.6 52.88 0.147 6.88 0.82 8.76
10/27/2022 6:30:00 AM 11.54 52.772 0.147 6.85 0.8 8.79
10/27/2022 6:45:00 AM 11.48 52.664 0.147 6.87 0.84 8.81
10/27/2022 7:00:00 AM 11.43 52.574 0.147 6.85 0.73 8.84
10/27/2022 7:15:00 AM 11.36 52.448 0.147 6.82 0.71 8.85
10/27/2022 7:30:00 AM 11.3 52.34 0.147 6.85 0.71 8.88
10/27/2022 7:45:00 AM 11.26 52.268 0.147 6.85 0.7 8.89
10/27/2022 8:00:00 AM 11.23 52.214 0.147 6.84 0.64 8.93
10/27/2022 8:15:00 AM 11.18 52.124 0.147 6.85 0.66 8.98
10/27/2022 8:30:00 AM 11.15 52.07 0.147 6.86 0.55 9
10/27/2022 8:45:00 AM 11.13 52.034 0.147 6.85 0.52 9.04
10/27/2022 9:00:00 AM 11.14 52.052 0.147 6.87 0.49 9.1
10/27/2022 9:15:00 AM 11.21 52.178 0.147 6.89 0.51 9.23
10/27/2022 9:30:00 AM 11.26 52.268 0.147 6.91 0.54 9.31
10/27/2022 9:45:00 AM 11.3 52.34 0.147 6.91 0.52 9.4
10/27/2022 10:00:00 AM 11.42 52.556 0.147 6.94 0.46 9.51
10/27/2022 10:15:00 AM 11.53 52.754 0.147 6.95 0.72 9.56
10/27/2022 10:30:00 AM 11.64 52.952 0.147 6.96 0.57 9.6
10/27/2022 10:45:00 AM 11.74 53.132 0.147 6.97 0.54 9.66
10/27/2022 11:00:00 AM 11.85 53.33 0.146 6.99 0.52 9.73
10/27/2022 11:15:00 AM 11.98 53.564 0.146 7 0.46 9.75
10/27/2022 11:30:00 AM 12.11 53.798 0.146 7.01 1.03 9.86
10/27/2022 11:45:00 AM 12.24 54.032 0.146 7.01 1.07 9.9
10/27/2022 12:00:00 PM 12.36 54.248 0.146 7.04 0.6 9.95
10/27/2022 12:15:00 PM 12.48 54.464 0.146 7.03 0.97 10
10/27/2022 12:30:00 PM 12.59 54.662 0.146 7.07 0.47 10.05
10/27/2022 12:45:00 PM 12.7 54.86 0.146 7.07 1 10.09
10/27/2022 1:00:00 PM 12.87 55.166 0.146 7.1 0.53 10.1
10/27/2022 1:15:00 PM 13.01 55.418 0.146 7.11 0.61 10.14
10/27/2022 1:30:00 PM 13.09 55.562 0.146 7.12 0.57 10.18
10/27/2022 1:45:00 PM 13.16 55.688 0.146 7.14 0.57 10.23
10/27/2022 2:00:00 PM 13.27 55.886 0.146 7.15 0.52 10.25
10/27/2022 2:15:00 PM 13.35 56.03 0.146 7.15 0.56 10.25
10/27/2022 2:30:00 PM 13.41 56.138 0.146 7.16 0.66 10.27
10/27/2022 2:45:00 PM 13.43 56.174 0.146 7.18 0.67 10.31
10/27/2022 3:00:00 PM 13.47 56.246 0.146 7.18 0.66 10.31
10/27/2022 3:15:00 PM 13.47 56.246 0.145 7.2 0.64 10.31
10/27/2022 3:30:00 PM 13.47 56.246 0.145 7.2 0.85 10.32
10/27/2022 3:45:00 PM 13.42 56.156 0.145 7.2 1.09 10.33
10/27/2022 4:00:00 PM 13.4 56.12 0.145 7.22 0.65 10.31
10/27/2022 4:15:00 PM 13.34 56.012 0.145 7.22 0.75 10.28
10/27/2022 4:30:00 PM 13.29 55.922 0.145 7.21 0.53 10.25
10/27/2022 4:45:00 PM 13.2 55.76 0.145 7.19 0.47 10.22
10/27/2022 5:00:00 PM 13.13 55.634 0.145 7.21 0.46 10.19
10/27/2022 5:15:00 PM 13.06 55.508 0.145 7.2 0.45 10.14
10/27/2022 5:30:00 PM 12.97 55.346 0.145 7.2 0.44 10.08
10/27/2022 5:45:00 PM 12.9 55.22 0.145 7.19 0.49 9.99
10/27/2022 6:00:00 PM 12.83 55.094 0.145 7.16 0.55 9.91
10/27/2022 6:15:00 PM 12.76 54.968 0.145 7.16 0.51 9.86
10/27/2022 6:30:00 PM 12.68 54.824 0.145 7.15 0.58 9.8
10/27/2022 6:45:00 PM 12.62 54.716 0.145 7.14 0.72 9.72
10/27/2022 7:00:00 PM 12.56 54.608 0.145 7.13 0.56 9.66
10/27/2022 7:15:00 PM 12.49 54.482 0.145 7.12 0.68 9.6
10/27/2022 7:30:00 PM 12.44 54.392 0.145 7.11 0.81 9.53
10/27/2022 7:45:00 PM 12.39 54.302 0.145 7.09 1.03 9.48
10/27/2022 8:00:00 PM 12.33 54.194 0.146 7.08 0.75 9.45
10/27/2022 8:15:00 PM 12.26 54.068 0.146 7.07 1.04 9.39
10/27/2022 8:30:00 PM 12.2 53.96 0.146 7.06 1.53 9.34
10/27/2022 8:45:00 PM 12.14 53.852 0.146 7.03 0.96 9.3
10/27/2022 9:00:00 PM 12.06 53.708 0.146 7.04 0.87 9.25
10/27/2022 9:15:00 PM 12.01 53.618 0.146 7.02 0.81 9.22
10/27/2022 9:30:00 PM 11.94 53.492 0.146 7.02 0.77 9.2
10/27/2022 9:45:00 PM 11.88 53.384 0.146 6.99 1.22 9.17
10/27/2022 10:00:00 PM 11.82 53.276 0.146 7 0.86 9.14
10/27/2022 10:15:00 PM 11.76 53.168 0.146 6.99 0.73 9.11
10/27/2022 10:30:00 PM 11.7 53.06 0.146 6.98 0.8 9.1
10/27/2022 10:45:00 PM 11.64 52.952 0.146 6.98 0.71 9.08
10/27/2022 11:00:00 PM 11.57 52.826 0.146 6.95 0.65 9.06
10/27/2022 11:15:00 PM 11.5 52.7 0.147 6.96 0.81 9.03
10/27/2022 11:30:00 PM 11.42 52.556 0.147 6.94 0.76 9.03
10/27/2022 11:45:00 PM 11.33 52.394 0.147 6.93 0.8 9.04
10/28/2022 12:00:00 AM 11.25 52.25 0.147 6.91 0.7 9.04
10/28/2022 12:15:00 AM 11.15 52.07 0.147 6.91 0.75 9.05
10/28/2022 12:30:00 AM 11.05 51.89 0.147 6.89 0.68 9.06
10/28/2022 12:45:00 AM 10.95 51.71 0.147 6.89 0.68 9.07
10/28/2022 1:00:00 AM 10.85 51.53 0.147 6.88 0.73 9.08
10/28/2022 1:15:00 AM 10.75 51.35 0.147 6.87 0.8 9.11
10/28/2022 1:30:00 AM 10.63 51.134 0.147 6.86 0.92 9.14
10/28/2022 1:45:00 AM 10.52 50.936 0.147 6.85 0.94 9.17
10/28/2022 2:00:00 AM 10.4 50.72 0.148 6.85 0.89 9.19
10/28/2022 2:15:00 AM 10.28 50.504 0.148 6.84 0.85 9.23
10/28/2022 2:30:00 AM 10.16 50.288 0.148 6.83 0.85 9.24
10/28/2022 2:45:00 AM 10.04 50.072 0.148 6.84 1.12 9.31
10/28/2022 3:00:00 AM 9.92 49.856 0.148 6.83 0.93 9.35
10/28/2022 3:15:00 AM 9.8 49.64 0.148 6.78 1.06 9.39
10/28/2022 3:30:00 AM 9.69 49.442 0.148 6.8 1.36 9.43
10/28/2022 3:45:00 AM 9.57 49.226 0.148 6.8 1.22 9.44
10/28/2022 4:00:00 AM 9.44 48.992 0.148 6.79 0.76 9.52
10/28/2022 4:15:00 AM 9.32 48.776 0.148 6.79 0.96 9.5
10/28/2022 4:30:00 AM 9.21 48.578 0.148 6.8 1.01 9.53
10/28/2022 4:45:00 AM 9.1 48.38 0.148 6.8 0.9 9.62
10/28/2022 5:00:00 AM 8.99 48.182 0.148 6.8 0.89 9.64
10/28/2022 5:15:00 AM 8.9 48.02 0.148 6.8 0.96 9.72
10/28/2022 5:30:00 AM 8.8 47.84 0.148 6.8 1.04 9.75
10/28/2022 5:45:00 AM 8.7 47.66 0.148 6.8 1.02 9.79
10/28/2022 6:00:00 AM 8.61 47.498 0.147 6.81 1.12 9.82
10/28/2022 6:15:00 AM 8.52 47.336 0.147 6.81 1.02 9.86
10/28/2022 6:30:00 AM 8.43 47.174 0.147 6.81 1 9.9
10/28/2022 6:45:00 AM 8.35 47.03 0.147 6.82 0.87 9.94
10/28/2022 7:00:00 AM 8.26 46.868 0.147 6.82 0.89 9.96
10/28/2022 7:15:00 AM 8.18 46.724 0.147 6.8 0.81 9.95
10/28/2022 7:30:00 AM 8.1 46.58 0.147 6.82 1.03 9.98
10/28/2022 7:45:00 AM 8.03 46.454 0.147 6.83 0.64 10.04
10/28/2022 8:00:00 AM 7.94 46.292 0.147 6.83 1.69 10.08
10/28/2022 8:15:00 AM 7.87 46.166 0.147 6.83 1.03 10.1
10/28/2022 8:30:00 AM 7.85 46.13 0.147 6.84 0.72 10.18
10/28/2022 8:45:00 AM 7.81 46.058 0.147 6.85 0.62 10.25
10/28/2022 9:00:00 AM 7.78 46.004 0.147 6.87 0.61 10.3
10/28/2022 9:15:00 AM 7.77 45.986 0.147 6.89 0.53 10.38
10/28/2022 9:30:00 AM 7.77 45.986 0.147 6.9 0.63 10.45
10/28/2022 9:45:00 AM 7.79 46.022 0.147 6.92 0.48 10.55
10/28/2022 10:00:00 AM 7.85 46.13 0.147 6.92 0.52 10.62
10/28/2022 10:15:00 AM 7.92 46.256 0.146 6.93 0.45 10.67
10/28/2022 10:30:00 AM 7.95 46.31 0.147 6.95 2.36 10.73
10/28/2022 10:45:00 AM 8.06 46.508 0.146 6.96 1.57 10.82
10/28/2022 11:00:00 AM 8.14 46.652 0.146 6.97 1.52 10.92
10/28/2022 11:15:00 AM 8.28 46.904 0.146 6.99 1.47 10.98
10/28/2022 11:30:00 AM 8.37 47.066 0.146 6.99 0.56 11.01
10/28/2022 11:45:00 AM 8.45 47.21 0.146 7 0.67 11.06
10/28/2022 12:00:00 PM 8.56 47.408 0.146 7.02 0.67 11.13
10/28/2022 12:15:00 PM 8.68 47.624 0.146 7.03 1.45 11.18
10/28/2022 12:30:00 PM 8.83 47.894 0.146 7.04 0.9 11.21
10/28/2022 12:45:00 PM 8.92 48.056 0.145 7.05 0.71 11.24
10/28/2022 1:00:00 PM 9.01 48.218 0.145 7.06 0.69 11.28
10/28/2022 1:15:00 PM 9.07 48.326 0.145 7.07 0.85 11.32
10/28/2022 1:30:00 PM 9.14 48.452 0.145 7.09 0.82 11.36
10/28/2022 1:45:00 PM 9.2 48.56 0.145 7.07 0.69 11.39
10/28/2022 2:00:00 PM 9.24 48.632 0.145 7.11 0.9 11.42
10/28/2022 2:15:00 PM 9.32 48.776 0.145 7.11 2.73 11.46
10/28/2022 2:30:00 PM 9.52 49.136 0.145 7.12 1.12 11.46
10/28/2022 2:45:00 PM 9.55 49.19 0.145 7.14 1.57 11.49
10/28/2022 3:00:00 PM 9.58 49.244 0.145 7.14 1.02 11.49
10/28/2022 3:15:00 PM 9.65 49.37 0.144 7.15 1.01 11.5
10/28/2022 3:30:00 PM 9.73 49.514 0.144 7.16 0.81 11.51
10/28/2022 3:45:00 PM 9.84 49.712 0.144 7.18 3.66 11.55
10/28/2022 4:00:00 PM 9.85 49.73 0.144 7.19 6.05 11.54
10/28/2022 4:15:00 PM 9.83 49.694 0.144 7.19 0.49 11.54
10/28/2022 4:30:00 PM 9.8 49.64 0.144 7.18 0.55 11.53
10/28/2022 4:45:00 PM 9.77 49.586 0.144 7.2 0.49 11.49
10/28/2022 5:00:00 PM 9.75 49.55 0.144 7.19 0.43 11.44
10/28/2022 5:15:00 PM 9.73 49.514 0.144 7.19 0.39 11.42
10/28/2022 5:30:00 PM 9.72 49.496 0.144 7.18 0.41 11.37
10/28/2022 5:45:00 PM 9.69 49.442 0.144 7.19 0.43 11.32
10/28/2022 6:00:00 PM 9.65 49.37 0.144 7.18 0.44 11.19
10/28/2022 6:15:00 PM 9.61 49.298 0.144 7.18 0.42 11.13
10/28/2022 6:30:00 PM 9.58 49.244 0.144 7.17 0.47 11.13
10/28/2022 6:45:00 PM 9.55 49.19 0.144 7.17 0.64 11.07
10/28/2022 7:00:00 PM 9.52 49.136 0.144 7.15 0.86 11
10/28/2022 7:15:00 PM 9.47 49.046 0.144 7.14 0.92 10.93
10/28/2022 7:30:00 PM 9.44 48.992 0.144 7.14 1.17 10.88
10/28/2022 7:45:00 PM 9.39 48.902 0.144 7.12 1.07 10.83
10/28/2022 8:00:00 PM 9.35 48.83 0.144 7.1 1.06 10.74
10/28/2022 8:15:00 PM 9.3 48.74 0.144 7.11 0.97 10.71
10/28/2022 8:30:00 PM 9.27 48.686 0.144 7.1 1.38 10.71
10/28/2022 8:45:00 PM 9.24 48.632 0.144 7.09 1.25 10.64
10/28/2022 9:00:00 PM 9.21 48.578 0.144 7.08 0.82 10.6
10/28/2022 9:15:00 PM 9.16 48.488 0.144 7.08 1.06 10.56
10/28/2022 9:30:00 PM 9.13 48.434 0.144 7.07 0.82 10.52
10/28/2022 9:45:00 PM 9.08 48.344 0.144 7.05 1.11 10.47
10/28/2022 10:00:00 PM 9.04 48.272 0.144 7.05 0.88 10.44
10/28/2022 10:15:00 PM 9.01 48.218 0.144 7.05 0.89 10.4
10/28/2022 10:30:00 PM 8.96 48.128 0.144 7.04 0.75 10.36
10/28/2022 10:45:00 PM 8.92 48.056 0.144 7.03 0.66 10.34
10/28/2022 11:00:00 PM 8.87 47.966 0.144 7.02 0.6 10.3
10/28/2022 11:15:00 PM 8.82 47.876 0.144 7.01 0.53 10.28
10/28/2022 11:30:00 PM 8.76 47.768 0.145 7.01 0.76 10.25
10/28/2022 11:45:00 PM 8.71 47.678 0.145 7 0.78 10.22
10/29/2022 12:00:00 AM 8.66 47.588 0.145 6.99 0.85 10.22
10/29/2022 12:15:00 AM 8.59 47.462 0.145 6.98 0.92 10.2
10/29/2022 12:30:00 AM 8.53 47.354 0.145 6.98 0.75 10.2
10/29/2022 12:45:00 AM 8.46 47.228 0.145 6.98 0.71 10.19
10/29/2022 1:00:00 AM 8.39 47.102 0.145 6.97 0.7 10.2
10/29/2022 1:15:00 AM 8.32 46.976 0.145 6.96 0.67 10.2
10/29/2022 1:30:00 AM 8.24 46.832 0.145 6.93 0.84 10.2
10/29/2022 1:45:00 AM 8.16 46.688 0.145 6.92 0.72 10.22
10/29/2022 2:00:00 AM 8.09 46.562 0.145 6.92 0.9 10.24
10/29/2022 2:15:00 AM 8.01 46.418 0.145 6.91 0.9 10.25
10/29/2022 2:30:00 AM 7.92 46.256 0.145 6.9 0.92 10.26
10/29/2022 2:45:00 AM 7.83 46.094 0.145 6.9 0.71 10.27
10/29/2022 3:00:00 AM 7.76 45.968 0.145 6.89 0.72 10.3
10/29/2022 3:15:00 AM 7.67 45.806 0.145 6.88 0.69 10.32
10/29/2022 3:30:00 AM 7.58 45.644 0.146 6.88 0.69 10.34
10/29/2022 3:45:00 AM 7.49 45.482 0.146 6.87 0.58 10.37
10/29/2022 4:00:00 AM 7.4 45.32 0.146 6.87 0.68 10.4
10/29/2022 4:15:00 AM 7.32 45.176 0.146 6.86 0.77 10.41
10/29/2022 4:30:00 AM 7.23 45.014 0.146 6.86 0.73 10.44
10/29/2022 4:45:00 AM 7.14 44.852 0.146 6.83 0.52 10.47
10/29/2022 5:00:00 AM 7.06 44.708 0.146 6.85 0.59 10.49
10/29/2022 5:15:00 AM 6.96 44.528 0.146 6.85 0.61 10.53
10/29/2022 5:30:00 AM 6.87 44.366 0.146 6.85 0.71 10.57
10/29/2022 5:45:00 AM 6.79 44.222 0.146 6.84 0.82 10.59
10/29/2022 6:00:00 AM 6.71 44.078 0.146 6.84 0.81 10.61
10/29/2022 6:15:00 AM 6.63 43.934 0.146 6.84 1.4 10.65
10/29/2022 6:30:00 AM 6.55 43.79 0.146 6.84 0.88 10.68
10/29/2022 6:45:00 AM 6.46 43.628 0.146 6.84 1.5 10.71
10/29/2022 7:00:00 AM 6.39 43.502 0.146 6.84 0.87 10.74
10/29/2022 7:15:00 AM 6.31 43.358 0.146 6.84 1.22 10.77
10/29/2022 7:30:00 AM 6.23 43.214 0.146 6.84 0.75 10.79
10/29/2022 7:45:00 AM 6.16 43.088 0.146 6.84 1.7 10.83
10/29/2022 8:00:00 AM 6.09 42.962 0.146 6.84 0.87 10.82
10/29/2022 8:15:00 AM 6.02 42.836 0.145 6.85 1.2 10.86
10/29/2022 8:30:00 AM 5.98 42.764 0.145 6.86 1.11 10.92
10/29/2022 8:45:00 AM 5.95 42.71 0.145 6.86 0.66 11.01
10/29/2022 9:00:00 AM 5.93 42.674 0.145 6.87 0.71 11.03
10/29/2022 9:15:00 AM 5.98 42.764 0.145 6.89 0.79 11.2
10/29/2022 9:30:00 AM 6.06 42.908 0.145 6.91 0.68 11.28
10/29/2022 9:45:00 AM 6.16 43.088 0.145 6.93 0.67 11.35
10/29/2022 10:00:00 AM 6.3 43.34 0.145 6.94 0.68 11.4
10/29/2022 10:15:00 AM 6.42 43.556 0.145 6.95 0.76 11.45
10/29/2022 10:30:00 AM 6.54 43.772 0.145 6.97 0.6 11.5
10/29/2022 10:45:00 AM 6.68 44.024 0.145 6.98 1.41 11.55
10/29/2022 11:00:00 AM 6.82 44.276 0.145 6.99 0.5 11.59
10/29/2022 11:15:00 AM 6.97 44.546 0.144 7 1.05 11.61
10/29/2022 11:30:00 AM 7.15 44.87 0.144 7 0.94 11.64
10/29/2022 11:45:00 AM 7.3 45.14 0.144 7.02 1.01 11.67
10/29/2022 12:00:00 PM 7.49 45.482 0.144 7.02 0.59 11.69
10/29/2022 12:15:00 PM 7.66 45.788 0.144 7.04 0.57 11.71
10/29/2022 12:30:00 PM 7.83 46.094 0.144 7.05 0.53 11.74
10/29/2022 12:45:00 PM 8.02 46.436 0.144 7.06 0.61 11.75
10/29/2022 1:00:00 PM 8.19 46.742 0.144 7.07 0.63 11.77
10/29/2022 1:15:00 PM 8.39 47.102 0.144 7.08 0.6 11.78
10/29/2022 1:30:00 PM 8.57 47.426 0.144 7.08 0.64 11.79
10/29/2022 1:45:00 PM 8.7 47.66 0.144 7.1 0.5 11.8
10/29/2022 2:00:00 PM 8.83 47.894 0.143 7.11 0.94 11.8
10/29/2022 2:15:00 PM 8.93 48.074 0.143 7.12 0.98 11.8
10/29/2022 2:30:00 PM 9.05 48.29 0.143 7.12 0.82 11.81
10/29/2022 2:45:00 PM 9.13 48.434 0.143 7.13 1.1 11.81
10/29/2022 3:00:00 PM 9.21 48.578 0.143 7.14 1.26 11.8
10/29/2022 3:15:00 PM 9.23 48.614 0.143 7.15 1.12 11.81
10/29/2022 3:30:00 PM 9.29 48.722 0.143 7.14 1.13 11.79
10/29/2022 3:45:00 PM 9.31 48.758 0.143 7.16 0.73 11.78
10/29/2022 4:00:00 PM 9.28 48.704 0.143 7.16 0.73 11.76
10/29/2022 4:15:00 PM 9.27 48.686 0.143 7.16 1.43 11.74
10/29/2022 4:30:00 PM 9.23 48.614 0.143 7.16 0.67 11.69
10/29/2022 4:45:00 PM 9.18 48.524 0.143 7.16 0.5 11.67
10/29/2022 5:00:00 PM 9.13 48.434 0.143 7.16 0.74 11.64
10/29/2022 5:15:00 PM 9.1 48.38 0.143 7.16 0.7 11.59
10/29/2022 5:30:00 PM 9.05 48.29 0.142 7.16 0.45 11.53
10/29/2022 5:45:00 PM 9.01 48.218 0.142 7.15 0.4 11.48
10/29/2022 6:00:00 PM 8.96 48.128 0.142 7.15 0.41 11.41
10/29/2022 6:15:00 PM 8.92 48.056 0.142 7.14 0.45 11.35
10/29/2022 6:30:00 PM 8.87 47.966 0.142 7.12 0.35 11.28
10/29/2022 6:45:00 PM 8.83 47.894 0.142 7.12 0.48 11.21
10/29/2022 7:00:00 PM 8.79 47.822 0.142 7.11 0.66 11.15
10/29/2022 7:15:00 PM 8.75 47.75 0.142 7.11 0.69 11.08
10/29/2022 7:30:00 PM 8.71 47.678 0.142 7.09 1 11.02
10/29/2022 7:45:00 PM 8.67 47.606 0.142 7.08 0.82 10.96
10/29/2022 8:00:00 PM 8.64 47.552 0.142 7.07 1.02 10.9
10/29/2022 8:15:00 PM 8.61 47.498 0.143 7.06 1.14 10.84
10/29/2022 8:30:00 PM 8.58 47.444 0.143 7.05 1.41 10.78
10/29/2022 8:45:00 PM 8.56 47.408 0.143 7.05 1.43 10.73
10/29/2022 9:00:00 PM 8.54 47.372 0.143 7.04 1.08 10.68
10/29/2022 9:15:00 PM 8.51 47.318 0.143 7.03 1.05 10.64
10/29/2022 9:30:00 PM 8.49 47.282 0.143 7.03 1.08 10.6
10/29/2022 9:45:00 PM 8.47 47.246 0.143 7.02 0.86 10.55
10/29/2022 10:00:00 PM 8.43 47.174 0.143 7.01 0.98 10.5
10/29/2022 10:15:00 PM 8.4 47.12 0.143 7 1.01 10.46
10/29/2022 10:30:00 PM 8.37 47.066 0.143 6.99 0.89 10.43
10/29/2022 10:45:00 PM 8.33 46.994 0.143 6.99 0.87 10.4
10/29/2022 11:00:00 PM 8.29 46.922 0.143 6.98 0.73 10.37
10/29/2022 11:15:00 PM 8.25 46.85 0.143 6.98 0.83 10.35
10/29/2022 11:30:00 PM 8.21 46.778 0.143 6.97 0.67 10.33
10/29/2022 11:45:00 PM 8.16 46.688 0.143 6.96 0.81 10.32
10/30/2022 12:00:00 AM 8.1 46.58 0.143 6.96 0.6 10.3
10/30/2022 12:15:00 AM 8.05 46.49 0.144 6.95 0.6 10.29
10/30/2022 12:30:00 AM 7.98 46.364 0.144 6.95 0.61 10.29
10/30/2022 12:45:00 AM 7.92 46.256 0.144 6.95 0.63 10.3
10/30/2022 1:00:00 AM 7.85 46.13 0.144 6.95 0.68 10.29
10/30/2022 1:15:00 AM 7.78 46.004 0.144 6.94 0.62 10.3
10/30/2022 1:30:00 AM 7.71 45.878 0.144 6.94 0.75 10.3
10/30/2022 1:45:00 AM 7.62 45.716 0.144 6.94 1.14 10.33
10/30/2022 2:00:00 AM 7.55 45.59 0.144 6.93 1.77 10.34
10/30/2022 2:15:00 AM 7.45 45.41 0.144 6.93 1.1 10.36
10/30/2022 2:30:00 AM 7.35 45.23 0.145 6.91 0.75 10.39
10/30/2022 2:45:00 AM 7.26 45.068 0.145 6.92 1 10.41
10/30/2022 3:00:00 AM 7.17 44.906 0.145 6.92 0.92 10.44
10/30/2022 3:15:00 AM 7.07 44.726 0.145 6.91 0.71 10.48
10/30/2022 3:30:00 AM 6.97 44.546 0.145 6.87 0.78 10.51
10/30/2022 3:45:00 AM 6.86 44.348 0.145 6.88 0.82 10.55
10/30/2022 4:00:00 AM 6.76 44.168 0.145 6.88 0.66 10.59
10/30/2022 4:15:00 AM 6.67 44.006 0.145 6.87 0.64 10.63
10/30/2022 4:30:00 AM 6.59 43.862 0.145 6.87 0.72 10.66
10/30/2022 4:45:00 AM 6.51 43.718 0.145 6.86 0.57 10.69
10/30/2022 5:00:00 AM 6.43 43.574 0.145 6.86 0.52 10.73
10/30/2022 5:15:00 AM 6.35 43.43 0.145 6.86 1.12 10.78
10/30/2022 5:30:00 AM 6.27 43.286 0.145 6.86 0.7 10.82
10/30/2022 5:45:00 AM 6.19 43.142 0.145 6.85 0.57 10.84
10/30/2022 6:00:00 AM 6.08 42.944 0.145 6.85 1.25 10.88
10/30/2022 6:15:00 AM 5.98 42.764 0.145 6.84 0.77 10.93
10/30/2022 6:30:00 AM 5.88 42.584 0.145 6.84 0.77 10.87
10/30/2022 6:45:00 AM 5.81 42.458 0.145 6.83 0.84 10.96
10/30/2022 7:00:00 AM 5.73 42.314 0.144 6.83 1.15 11.01
10/30/2022 7:15:00 AM 5.66 42.188 0.144 6.83 1.12 11.05
10/30/2022 7:30:00 AM 5.59 42.062 0.144 6.83 1.27 11.08
10/30/2022 7:45:00 AM 5.53 41.954 0.144 6.82 3.27 11.12
10/30/2022 8:00:00 AM 5.48 41.864 0.144 6.84 2.69 11.15
10/30/2022 8:15:00 AM 5.42 41.756 0.144 6.85 1.45 11.2
10/30/2022 8:30:00 AM 5.39 41.702 0.144 6.85 0.75 11.25
10/30/2022 8:45:00 AM 5.32 41.576 0.144 6.86 2.61 11.28
10/30/2022 9:00:00 AM 5.32 41.576 0.144 6.87 6.04 11.36
10/30/2022 9:15:00 AM 5.33 41.594 0.144 6.89 1 11.43
10/30/2022 9:30:00 AM 5.37 41.666 0.144 6.9 0.89 11.49
10/30/2022 9:45:00 AM 5.46 41.828 0.144 6.91 1.38 11.57
10/30/2022 10:00:00 AM 5.57 42.026 0.144 6.93 1.1 11.62
10/30/2022 10:15:00 AM 5.7 42.26 0.144 6.94 1.39 11.68
10/30/2022 10:30:00 AM 5.82 42.476 0.143 6.95 1.37 11.73
10/30/2022 10:45:00 AM 5.97 42.746 0.143 6.96 1.44 11.77
10/30/2022 11:00:00 AM 6.11 42.998 0.143 6.97 1 11.79
10/30/2022 11:15:00 AM 6.26 43.268 0.143 6.99 0.7 11.82
10/30/2022 11:30:00 AM 6.43 43.574 0.143 6.99 1.35 11.85
10/30/2022 11:45:00 AM 6.62 43.916 0.143 7 0.89 11.87
10/30/2022 12:00:00 PM 6.8 44.24 0.143 7.01 1.33 11.88
10/30/2022 12:15:00 PM 6.98 44.564 0.143 7.02 0.54 11.91
10/30/2022 12:30:00 PM 7.15 44.87 0.143 7.03 1.42 11.92
10/30/2022 12:45:00 PM 7.3 45.14 0.143 7.04 1.09 11.95
10/30/2022 1:00:00 PM 7.45 45.41 0.143 7.05 0.95 11.96
10/30/2022 1:15:00 PM 7.58 45.644 0.143 7.06 0.92 11.97
10/30/2022 1:30:00 PM 7.73 45.914 0.142 7.07 0.84 11.97
10/30/2022 1:45:00 PM 7.89 46.202 0.142 7.08 0.78 11.98
10/30/2022 2:00:00 PM 7.98 46.364 0.142 7.09 0.97 12
10/30/2022 2:15:00 PM 8.06 46.508 0.142 7.1 0.93 12.01
10/30/2022 2:30:00 PM 8.15 46.67 0.142 7.11 1.73 12.01
10/30/2022 2:45:00 PM 8.29 46.922 0.142 7.11 1.07 12
10/30/2022 3:00:00 PM 8.26 46.868 0.142 7.13 1.05 12
10/30/2022 3:15:00 PM 8.21 46.778 0.142 7.12 0.95 11.99
10/30/2022 3:30:00 PM 8.23 46.814 0.142 7.14 0.85 12
10/30/2022 3:45:00 PM 8.37 47.066 0.142 7.15 0.62 12
10/30/2022 4:00:00 PM 8.33 46.994 0.142 7.16 0.59 11.98
10/30/2022 4:15:00 PM 8.35 47.03 0.142 7.16 0.79 11.97
10/30/2022 4:30:00 PM 8.35 47.03 0.142 7.17 0.67 11.95
10/30/2022 4:45:00 PM 8.32 46.976 0.142 7.17 0.37 11.93
10/30/2022 5:00:00 PM 8.27 46.886 0.142 7.17 8.17 11.87
10/30/2022 5:15:00 PM 8.24 46.832 0.142 7.17 0.54 11.83
10/30/2022 5:30:00 PM 8.22 46.796 0.142 7.16 0.34 11.78
10/30/2022 5:45:00 PM 8.2 46.76 0.142 7.16 2.16 11.71
10/30/2022 6:00:00 PM 8.17 46.706 0.142 7.16 0.85 11.65
10/30/2022 6:15:00 PM 8.15 46.67 0.142 7.14 0.66 11.59
10/30/2022 6:30:00 PM 8.12 46.616 0.141 7.14 0.36 11.53
10/30/2022 6:45:00 PM 8.11 46.598 0.141 7.13 0.5 11.46
10/30/2022 7:00:00 PM 8.12 46.616 0.141 7.13 0.67 11.39
10/30/2022 7:15:00 PM 8.12 46.616 0.141 7.12 0.52 11.32
10/30/2022 7:30:00 PM 8.13 46.634 0.141 7.11 0.67 11.26
10/30/2022 7:45:00 PM 8.14 46.652 0.141 7.1 1.02 11.21
10/30/2022 8:00:00 PM 8.14 46.652 0.141 7.1 0.76 11.16
10/30/2022 8:15:00 PM 8.15 46.67 0.141 7.09 0.69 11.1
10/30/2022 8:30:00 PM 8.14 46.652 0.141 7.08 0.85 11.05
10/30/2022 8:45:00 PM 8.15 46.67 0.141 7.08 0.95 11
10/30/2022 9:00:00 PM 8.16 46.688 0.141 7.07 0.94 10.94
10/30/2022 9:15:00 PM 8.18 46.724 0.141 7.06 0.97 10.9
10/30/2022 9:30:00 PM 8.18 46.724 0.141 7.06 0.86 10.84
10/30/2022 9:45:00 PM 8.2 46.76 0.141 7.05 1.06 10.79
10/30/2022 10:00:00 PM 8.2 46.76 0.141 7.05 0.83 10.74
10/30/2022 10:15:00 PM 8.19 46.742 0.141 7.04 0.85 10.69
10/30/2022 10:30:00 PM 8.17 46.706 0.141 7.03 0.66 10.65
10/30/2022 10:45:00 PM 8.15 46.67 0.142 7.02 0.74 10.61
10/30/2022 11:00:00 PM 8.12 46.616 0.142 7.02 0.72 10.57
10/30/2022 11:15:00 PM 8.1 46.58 0.142 7.01 0.72 10.51
10/30/2022 11:30:00 PM 8.07 46.526 0.142 7.01 0.69 10.49
10/30/2022 11:45:00 PM 8.03 46.454 0.142 7 0.62 10.48
10/31/2022 12:00:00 AM 7.99 46.382 0.142 6.99 0.53 10.45
10/31/2022 12:15:00 AM 7.94 46.292 0.142 6.99 0.56 10.43
10/31/2022 12:30:00 AM 7.9 46.22 0.142 6.98 0.64 10.42
10/31/2022 12:45:00 AM 7.85 46.13 0.142 6.98 0.63 10.41
10/31/2022 1:00:00 AM 7.79 46.022 0.142 6.97 0.63 10.41
10/31/2022 1:15:00 AM 7.74 45.932 0.143 6.97 0.6 10.4
10/31/2022 1:30:00 AM 7.68 45.824 0.143 6.95 0.63 10.41
10/31/2022 1:45:00 AM 7.63 45.734 0.143 6.96 0.61 10.41
10/31/2022 2:00:00 AM 7.57 45.626 0.143 6.95 0.66 10.42
10/31/2022 2:15:00 AM 7.52 45.536 0.143 6.95 0.63 10.42
10/31/2022 2:30:00 AM 7.47 45.446 0.143 6.94 0.58 10.44
10/31/2022 2:45:00 AM 7.41 45.338 0.143 6.94 0.7 10.45
10/31/2022 3:00:00 AM 7.35 45.23 0.143 6.94 0.66 10.47
10/31/2022 3:15:00 AM 7.3 45.14 0.143 6.93 0.53 10.48
10/31/2022 3:30:00 AM 7.25 45.05 0.143 6.93 0.55 10.5
10/31/2022 3:45:00 AM 7.18 44.924 0.143 6.93 0.76 10.52
10/31/2022 4:00:00 AM 7.11 44.798 0.143 6.93 0.55 10.54
10/31/2022 4:15:00 AM 7.07 44.726 0.143 6.93 0.58 10.56
10/31/2022 4:30:00 AM 7.02 44.636 0.143 6.91 0.49 10.59
10/31/2022 4:45:00 AM 6.96 44.528 0.143 6.92 0.62 10.61
10/31/2022 5:00:00 AM 6.89 44.402 0.143 6.92 0.66 10.63
10/31/2022 5:15:00 AM 6.83 44.294 0.143 6.91 0.93 10.65
10/31/2022 5:30:00 AM 6.75 44.15 0.143 6.91 0.73 10.68
10/31/2022 5:45:00 AM 6.68 44.024 0.143 6.91 0.77 10.71
10/31/2022 6:00:00 AM 6.61 43.898 0.143 6.91 0.82 10.74
10/31/2022 6:15:00 AM 6.54 43.772 0.143 6.91 0.76 10.76
10/31/2022 6:30:00 AM 6.48 43.664 0.143 6.9 0.78 10.79
10/31/2022 6:45:00 AM 6.45 43.61 0.143 6.89 0.79 10.82
10/31/2022 7:00:00 AM 6.41 43.538 0.143 6.88 0.91 10.83
10/31/2022 7:15:00 AM 6.35 43.43 0.143 6.88 0.68 10.85
10/31/2022 7:30:00 AM 6.3 43.34 0.143 6.88 0.75 10.87
10/31/2022 7:45:00 AM 6.3 43.34 0.143 6.88 0.69 10.89
10/31/2022 8:00:00 AM 6.28 43.304 0.143 6.88 0.77 10.93
10/31/2022 8:15:00 AM 6.27 43.286 0.143 6.88 0.48 10.95
10/31/2022 8:30:00 AM 6.27 43.286 0.143 6.89 0.64 10.98
10/31/2022 8:45:00 AM 6.29 43.322 0.143 6.9 0.41 11.03
10/31/2022 9:00:00 AM 6.31 43.358 0.142 6.9 0.59 11.08
10/31/2022 9:15:00 AM 6.33 43.394 0.142 6.91 0.61 11.12
10/31/2022 9:30:00 AM 6.36 43.448 0.142 6.92 0.58 11.18
10/31/2022 9:45:00 AM 6.39 43.502 0.142 6.93 0.39 11.23
10/31/2022 10:00:00 AM 6.41 43.538 0.142 6.94 0.72 11.27
10/31/2022 10:15:00 AM 6.47 43.646 0.142 6.95 0.37 11.33
10/31/2022 10:30:00 AM 6.52 43.736 0.142 6.95 0.51 11.35
10/31/2022 10:45:00 AM 6.59 43.862 0.142 6.96 0.39 11.39
10/31/2022 11:00:00 AM 6.73 44.114 0.142 6.97 0.46 11.44
10/31/2022 11:15:00 AM 6.83 44.294 0.142 6.98 0.41 11.47
10/31/2022 11:30:00 AM 6.92 44.456 0.142 6.99 0.39 11.49
10/31/2022 11:45:00 AM 7.02 44.636 0.142 7 0.39 11.53
10/31/2022 12:00:00 PM 7.06 44.708 0.142 7.01 0.42 11.57
10/31/2022 12:15:00 PM 7.11 44.798 0.142 7.01 0.42 11.58
10/31/2022 12:30:00 PM 7.14 44.852 0.142 7.02 0.59 11.6
10/31/2022 12:45:00 PM 7.2 44.96 0.142 7.03 0.53 11.62
10/31/2022 1:00:00 PM 7.24 45.032 0.142 7.03 0.62 11.62
10/31/2022 1:15:00 PM 7.3 45.14 0.142 7.04 0.6 11.65
10/31/2022 1:30:00 PM 7.38 45.284 0.141 7.05 0.59 11.67
10/31/2022 1:45:00 PM 7.44 45.392 0.141 7.06 0.6 11.69
10/31/2022 2:00:00 PM 7.5 45.5 0.141 7.06 0.88 11.71
10/31/2022 2:15:00 PM 7.57 45.626 0.141 7.07 0.71 11.73
10/31/2022 2:30:00 PM 7.64 45.752 0.141 7.08 0.77 11.73
10/31/2022 2:45:00 PM 7.74 45.932 0.141 7.1 0.8 11.74
10/31/2022 3:00:00 PM 7.82 46.076 0.141 7.11 0.85 11.76
10/31/2022 3:15:00 PM 7.87 46.166 0.141 7.11 0.8 11.75
10/31/2022 3:30:00 PM 7.91 46.238 0.141 7.12 0.71 11.74
10/31/2022 3:45:00 PM 7.98 46.364 0.141 7.13 0.58 11.74
10/31/2022 4:00:00 PM 8 46.4 0.141 7.13 0.48 11.72
10/31/2022 4:15:00 PM 8.04 46.472 0.141 7.13 0.47 11.68
10/31/2022 4:30:00 PM 8.06 46.508 0.141 7.14 0.45 11.65
10/31/2022 4:45:00 PM 8.1 46.58 0.141 7.14 0.45 11.61
10/31/2022 5:00:00 PM 8.14 46.652 0.14 7.14 0.42 11.58
10/31/2022 5:15:00 PM 8.18 46.724 0.14 7.14 0.45 11.53
10/31/2022 5:30:00 PM 8.2 46.76 0.14 7.14 0.44 11.49
10/31/2022 5:45:00 PM 8.23 46.814 0.14 7.14 0.47 11.44
10/31/2022 6:00:00 PM 8.26 46.868 0.14 7.13 1.61 11.38
10/31/2022 6:15:00 PM 8.28 46.904 0.14 7.13 0.39 11.32
10/31/2022 6:30:00 PM 8.31 46.958 0.14 7.12 0.46 11.26
10/31/2022 6:45:00 PM 8.34 47.012 0.14 7.11 0.5 11.2
10/31/2022 7:00:00 PM 8.36 47.048 0.14 7.11 0.63 11.14
10/31/2022 7:15:00 PM 8.39 47.102 0.14 7.1 0.95 11.09
10/31/2022 7:30:00 PM 8.41 47.138 0.14 7.09 1.06 11.03
10/31/2022 7:45:00 PM 8.44 47.192 0.14 7.09 0.92 10.99
10/31/2022 8:00:00 PM 8.47 47.246 0.14 7.08 0.91 10.94
10/31/2022 8:15:00 PM 8.51 47.318 0.14 7.07 0.73 10.89
10/31/2022 8:30:00 PM 8.54 47.372 0.14 7.06 0.73 10.85
10/31/2022 8:45:00 PM 8.57 47.426 0.14 7.06 0.79 10.81
10/31/2022 9:00:00 PM 8.6 47.48 0.14 7.06 0.92 10.75
10/31/2022 9:15:00 PM 8.62 47.516 0.14 7.05 0.9 10.72
10/31/2022 9:30:00 PM 8.65 47.57 0.14 7.04 0.7 10.66
10/31/2022 9:45:00 PM 8.68 47.624 0.14 7.03 0.73 10.61
10/31/2022 10:00:00 PM 8.7 47.66 0.14 7.03 0.61 10.57
10/31/2022 10:15:00 PM 8.72 47.696 0.14 7.02 0.56 10.52
10/31/2022 10:30:00 PM 8.75 47.75 0.14 7.02 0.56 10.47
10/31/2022 10:45:00 PM 8.77 47.786 0.14 7.01 0.54 10.43
10/31/2022 11:00:00 PM 8.78 47.804 0.14 7.01 0.6 10.4
10/31/2022 11:15:00 PM 8.79 47.822 0.14 6.99 0.48 10.36
10/31/2022 11:30:00 PM 8.81 47.858 0.14 6.99 0.56 10.32
10/31/2022 11:45:00 PM 8.81 47.858 0.14 6.99 0.51 10.29
11/1/2022 12:00:00 AM 8.81 47.858 0.141 6.98 0.49 10.26
11/1/2022 12:15:00 AM 8.82 47.876 0.141 6.97 0.5 10.24
11/1/2022 12:30:00 AM 8.83 47.894 0.141 6.97 0.53 10.21
11/1/2022 12:45:00 AM 8.84 47.912 0.141 6.96 0.64 10.19
11/1/2022 1:00:00 AM 8.85 47.93 0.141 6.96 0.54 10.17
11/1/2022 1:15:00 AM 8.85 47.93 0.141 6.95 0.6 10.15
11/1/2022 1:30:00 AM 8.86 47.948 0.141 6.95 0.53 10.13
11/1/2022 1:45:00 AM 8.87 47.966 0.141 6.94 0.54 10.11
11/1/2022 2:00:00 AM 8.87 47.966 0.141 6.94 0.56 10.1
11/1/2022 2:15:00 AM 8.88 47.984 0.141 6.93 0.51 10.08
11/1/2022 2:30:00 AM 8.88 47.984 0.141 6.93 0.5 10.07
11/1/2022 2:45:00 AM 8.89 48.002 0.141 6.93 0.47 10.06
11/1/2022 3:00:00 AM 8.89 48.002 0.141 6.92 0.55 10.05
11/1/2022 3:15:00 AM 8.89 48.002 0.141 6.91 0.51 10.04
11/1/2022 3:30:00 AM 8.9 48.02 0.141 6.92 0.53 10.03
11/1/2022 3:45:00 AM 8.9 48.02 0.142 6.91 0.58 10.02
11/1/2022 4:00:00 AM 8.9 48.02 0.142 6.91 0.54 10.01
11/1/2022 4:15:00 AM 8.9 48.02 0.142 6.89 0.53 10
11/1/2022 4:30:00 AM 8.91 48.038 0.142 6.91 0.48 9.99
11/1/2022 4:45:00 AM 8.91 48.038 0.142 6.9 0.71 9.98
11/1/2022 5:00:00 AM 8.91 48.038 0.142 6.9 0.52 9.98
11/1/2022 5:15:00 AM 8.92 48.056 0.142 6.9 0.66 9.97
11/1/2022 5:30:00 AM 8.92 48.056 0.142 6.89 0.54 9.96
11/1/2022 5:45:00 AM 8.92 48.056 0.142 6.89 0.66 9.95
11/1/2022 6:00:00 AM 8.92 48.056 0.142 6.89 0.66 9.94
11/1/2022 6:15:00 AM 8.93 48.074 0.142 6.88 0.77 9.94
11/1/2022 6:30:00 AM 8.94 48.092 0.142 6.88 0.7 9.94
11/1/2022 6:45:00 AM 8.94 48.092 0.142 6.88 1.39 9.94
11/1/2022 7:00:00 AM 8.94 48.092 0.142 6.88 0.85 9.92
11/1/2022 7:15:00 AM 8.95 48.11 0.141 6.88 0.71 9.92
11/1/2022 7:30:00 AM 8.95 48.11 0.141 6.88 0.76 9.91
11/1/2022 7:45:00 AM 8.96 48.128 0.142 6.87 0.71 9.91
11/1/2022 8:00:00 AM 8.97 48.146 0.142 6.87 0.55 9.91
11/1/2022 8:15:00 AM 8.98 48.164 0.142 6.87 0.74 9.92
11/1/2022 8:30:00 AM 9 48.2 0.142 6.87 0.8 9.94
11/1/2022 8:45:00 AM 9.02 48.236 0.142 6.88 0.52 9.96
11/1/2022 9:00:00 AM 9.05 48.29 0.141 6.88 0.47 9.96
11/1/2022 9:15:00 AM 9.08 48.344 0.141 6.89 0.71 10.02
11/1/2022 9:30:00 AM 9.11 48.398 0.141 6.9 0.48 10.05
11/1/2022 9:45:00 AM 9.17 48.506 0.141 6.91 0.49 10.08
11/1/2022 10:00:00 AM 9.21 48.578 0.141 6.91 0.65 10.12
11/1/2022 10:15:00 AM 9.24 48.632 0.141 6.91 0.57 10.18
11/1/2022 10:30:00 AM 9.32 48.776 0.141 6.93 0.71 10.26
11/1/2022 10:45:00 AM 9.47 49.046 0.141 6.94 0.65 10.3
11/1/2022 11:00:00 AM 9.66 49.388 0.141 6.95 0.63 10.34
11/1/2022 11:15:00 AM 9.71 49.478 0.141 6.96 0.73 10.37
11/1/2022 11:30:00 AM 9.77 49.586 0.141 6.97 0.55 10.42
11/1/2022 11:45:00 AM 9.86 49.748 0.141 6.98 0.49 10.47
11/1/2022 12:00:00 PM 10.01 50.018 0.141 6.99 0.64 10.49
11/1/2022 12:15:00 PM 10.1 50.18 0.141 7 0.57 10.52
11/1/2022 12:30:00 PM 10.17 50.306 0.141 7.01 0.56 10.56
11/1/2022 12:45:00 PM 10.25 50.45 0.141 7.02 0.56 10.59
11/1/2022 1:00:00 PM 10.31 50.558 0.141 7.03 0.52 10.62
11/1/2022 1:15:00 PM 10.32 50.576 0.141 7.03 0.94 10.6
11/1/2022 1:30:00 PM 10.35 50.63 0.141 7.04 0.8 10.62
11/1/2022 1:45:00 PM 10.41 50.738 0.141 7.05 0.69 10.62
11/1/2022 2:00:00 PM 10.63 51.134 0.141 7.06 0.82 10.64
11/1/2022 2:15:00 PM 10.69 51.242 0.141 7.07 0.68 10.62
11/1/2022 2:30:00 PM 10.73 51.314 0.14 7.07 1.12 10.68
11/1/2022 2:45:00 PM 10.95 51.71 0.14 7.09 0.59 10.71
11/1/2022 3:00:00 PM 11.06 51.908 0.14 7.1 0.59 10.7
11/1/2022 3:15:00 PM 11.23 52.214 0.14 7.11 0.67 10.75
11/1/2022 3:30:00 PM 11.49 52.682 0.14 7.11 0.58 10.75
11/1/2022 3:45:00 PM 11.61 52.898 0.14 7.14 0.57 10.74
11/1/2022 4:00:00 PM 11.71 53.078 0.14 7.15 0.57 10.75
11/1/2022 4:15:00 PM 11.75 53.15 0.14 7.16 0.55 10.73
11/1/2022 4:30:00 PM 11.74 53.132 0.14 7.16 0.39 10.7
11/1/2022 4:45:00 PM 11.73 53.114 0.14 7.16 0.43 10.64
11/1/2022 5:00:00 PM 11.71 53.078 0.14 7.16 0.48 10.59
11/1/2022 5:15:00 PM 11.72 53.096 0.14 7.16 0.52 10.55
11/1/2022 5:30:00 PM 11.73 53.114 0.14 7.16 0.43 10.5
11/1/2022 5:45:00 PM 11.69 53.042 0.14 7.15 0.51 10.43
11/1/2022 6:00:00 PM 11.71 53.078 0.14 7.15 0.5 10.37
11/1/2022 6:15:00 PM 11.71 53.078 0.14 7.15 0.5 10.32
11/1/2022 6:30:00 PM 11.69 53.042 0.14 7.14 0.6 10.24
11/1/2022 6:45:00 PM 11.68 53.024 0.14 7.13 1.22 10.16
11/1/2022 7:00:00 PM 11.67 53.006 0.14 7.12 0.78 10.1
11/1/2022 7:15:00 PM 11.65 52.97 0.14 7.11 0.69 10.02
11/1/2022 7:30:00 PM 11.63 52.934 0.14 7.1 0.89 9.96
11/1/2022 7:45:00 PM 11.62 52.916 0.14 7.09 0.61 9.92
11/1/2022 8:00:00 PM 11.63 52.934 0.14 7.08 0.67 9.86
11/1/2022 8:15:00 PM 11.65 52.97 0.14 7.07 0.71 9.79
11/1/2022 8:30:00 PM 11.68 53.024 0.14 7.07 0.69 9.76
11/1/2022 8:45:00 PM 11.7 53.06 0.14 7.05 1.17 9.72
11/1/2022 9:00:00 PM 11.69 53.042 0.14 7.04 1.22 9.66
11/1/2022 9:15:00 PM 11.68 53.024 0.14 7.05 0.77 9.6
11/1/2022 9:30:00 PM 11.67 53.006 0.14 7.04 0.67 9.57
11/1/2022 9:45:00 PM 11.65 52.97 0.14 7.03 0.59 9.52
11/1/2022 10:00:00 PM 11.63 52.934 0.14 7.02 0.56 9.48
11/1/2022 10:15:00 PM 11.6 52.88 0.14 7.02 0.55 9.44
11/1/2022 10:30:00 PM 11.58 52.844 0.14 7.01 0.63 9.4
11/1/2022 10:45:00 PM 11.54 52.772 0.14 7 0.58 9.35
11/1/2022 11:00:00 PM 11.5 52.7 0.141 6.99 0.6 9.31
11/1/2022 11:15:00 PM 11.46 52.628 0.141 6.98 0.78 9.28
11/1/2022 11:30:00 PM 11.44 52.592 0.141 6.98 0.58 9.28
11/1/2022 11:45:00 PM 11.4 52.52 0.141 6.97 0.65 9.26
11/2/2022 12:00:00 AM 11.36 52.448 0.141 6.95 0.55 9.25
11/2/2022 12:15:00 AM 11.32 52.376 0.141 6.96 0.54 9.22
11/2/2022 12:30:00 AM 11.27 52.286 0.141 6.95 0.81 9.22
11/2/2022 12:45:00 AM 11.22 52.196 0.141 6.95 1.04 9.2
11/2/2022 1:00:00 AM 11.17 52.106 0.141 6.94 0.77 9.19
11/2/2022 1:15:00 AM 11.11 51.998 0.141 6.94 0.74 9.19
11/2/2022 1:30:00 AM 11.06 51.908 0.141 6.93 0.8 9.19
11/2/2022 1:45:00 AM 10.99 51.782 0.142 6.92 0.84 9.18
11/2/2022 2:00:00 AM 10.93 51.674 0.142 6.92 0.84 9.18
11/2/2022 2:15:00 AM 10.86 51.548 0.142 6.92 0.75 9.21
11/2/2022 2:30:00 AM 10.79 51.422 0.142 6.92 1.05 9.22
11/2/2022 2:45:00 AM 10.71 51.278 0.142 6.91 0.68 9.24
11/2/2022 3:00:00 AM 10.65 51.17 0.142 6.91 0.61 9.23
11/2/2022 3:15:00 AM 10.57 51.026 0.142 6.91 0.62 9.28
11/2/2022 3:30:00 AM 10.48 50.864 0.142 6.91 0.92 9.31
11/2/2022 3:45:00 AM 10.39 50.702 0.142 6.88 1.08 9.33
11/2/2022 4:00:00 AM 10.31 50.558 0.142 6.9 0.83 9.36
11/2/2022 4:15:00 AM 10.24 50.432 0.142 6.9 0.67 9.36
11/2/2022 4:30:00 AM 10.15 50.27 0.142 6.9 0.88 9.4
11/2/2022 4:45:00 AM 10.07 50.126 0.142 6.89 0.67 9.43
11/2/2022 5:00:00 AM 10 50 0.142 6.88 0.74 9.46
11/2/2022 5:15:00 AM 9.92 49.856 0.142 6.89 0.76 9.49
11/2/2022 5:30:00 AM 9.85 49.73 0.142 6.88 0.8 9.51
11/2/2022 5:45:00 AM 9.78 49.604 0.142 6.88 0.84 9.53
11/2/2022 6:00:00 AM 9.69 49.442 0.142 6.88 0.9 9.58
11/2/2022 6:15:00 AM 9.64 49.352 0.142 6.88 1.12 9.59
11/2/2022 6:30:00 AM 9.59 49.262 0.142 6.88 1.1 9.61
11/2/2022 6:45:00 AM 9.53 49.154 0.142 6.87 0.84 9.64
11/2/2022 7:00:00 AM 9.49 49.082 0.142 6.87 1.25 9.66
11/2/2022 7:15:00 AM 9.45 49.01 0.142 6.87 0.77 9.68
11/2/2022 7:30:00 AM 9.41 48.938 0.142 6.85 0.84 9.71
11/2/2022 7:45:00 AM 9.38 48.884 0.142 6.84 1.12 9.71
11/2/2022 8:00:00 AM 9.34 48.812 0.142 6.84 1.55 9.76
11/2/2022 8:15:00 AM 9.32 48.776 0.142 6.85 0.8 9.75
11/2/2022 8:30:00 AM 9.29 48.722 0.142 6.85 0.57 9.82
11/2/2022 8:45:00 AM 9.28 48.704 0.142 6.86 0.57 9.88
11/2/2022 9:00:00 AM 9.29 48.722 0.142 6.87 0.48 9.93
11/2/2022 9:15:00 AM 9.32 48.776 0.142 6.88 0.45 10.03
11/2/2022 9:30:00 AM 9.34 48.812 0.142 6.89 0.5 10.08
11/2/2022 9:45:00 AM 9.35 48.83 0.142 6.9 0.5 10.15
11/2/2022 10:00:00 AM 9.4 48.92 0.141 6.9 0.49 10.21
11/2/2022 10:15:00 AM 9.45 49.01 0.141 6.92 0.46 10.29
11/2/2022 10:30:00 AM 9.54 49.172 0.141 6.94 0.5 10.36
11/2/2022 10:45:00 AM 9.67 49.406 0.141 6.94 0.46 10.43
11/2/2022 11:00:00 AM 9.83 49.694 0.141 6.96 0.43 10.48
11/2/2022 11:15:00 AM 10.02 50.036 0.141 6.96 0.46 10.54
11/2/2022 11:30:00 AM 10.22 50.396 0.141 6.98 0.57 10.59
11/2/2022 11:45:00 AM 10.39 50.702 0.141 7.01 0.59 10.65
11/2/2022 12:00:00 PM 10.56 51.008 0.141 7.02 0.49 10.67
11/2/2022 12:15:00 PM 10.75 51.35 0.141 7.03 0.52 10.71
11/2/2022 12:30:00 PM 10.93 51.674 0.141 7.03 0.69 10.72
11/2/2022 12:45:00 PM 11.09 51.962 0.141 7.06 0.65 10.73
11/2/2022 1:00:00 PM 11.24 52.232 0.14 7.06 0.49 10.77
11/2/2022 1:15:00 PM 11.42 52.556 0.14 7.08 0.47 10.78
11/2/2022 1:30:00 PM 11.6 52.88 0.14 7.08 0.45 10.79
11/2/2022 1:45:00 PM 11.74 53.132 0.14 7.11 0.47 10.85
11/2/2022 2:00:00 PM 11.84 53.312 0.14 7.12 0.47 10.86
11/2/2022 2:15:00 PM 11.92 53.456 0.14 7.14 0.57 10.88
11/2/2022 2:30:00 PM 12.03 53.654 0.14 7.15 0.53 10.89
11/2/2022 2:45:00 PM 12.14 53.852 0.14 7.15 0.64 10.89
11/2/2022 3:00:00 PM 12.17 53.906 0.14 7.17 0.54 10.9
11/2/2022 3:15:00 PM 12.19 53.942 0.14 7.18 0.61 10.9
11/2/2022 3:30:00 PM 12.21 53.978 0.14 7.18 0.57 10.88
11/2/2022 3:45:00 PM 12.22 53.996 0.14 7.2 0.55 10.88
11/2/2022 4:00:00 PM 12.21 53.978 0.14 7.2 0.52 10.85
11/2/2022 4:15:00 PM 12.19 53.942 0.14 7.21 0.54 10.82
11/2/2022 4:30:00 PM 12.13 53.834 0.14 7.2 0.46 10.79
11/2/2022 4:45:00 PM 12.11 53.798 0.14 7.21 0.54 10.76
11/2/2022 5:00:00 PM 12.03 53.654 0.14 7.21 0.48 10.69
11/2/2022 5:15:00 PM 11.98 53.564 0.14 7.2 0.39 10.65
11/2/2022 5:30:00 PM 11.92 53.456 0.139 7.21 0.46 10.62
11/2/2022 5:45:00 PM 11.88 53.384 0.14 7.19 0.56 10.52
11/2/2022 6:00:00 PM 11.83 53.294 0.14 7.16 0.98 10.44
11/2/2022 6:15:00 PM 11.78 53.204 0.14 7.15 0.99 10.37
11/2/2022 6:30:00 PM 11.72 53.096 0.14 7.15 0.69 10.27
11/2/2022 6:45:00 PM 11.67 53.006 0.14 7.14 0.88 10.2
11/2/2022 7:00:00 PM 11.64 52.952 0.14 7.13 0.88 10.15
11/2/2022 7:15:00 PM 11.58 52.844 0.14 7.11 0.92 10.06
11/2/2022 7:30:00 PM 11.55 52.79 0.14 7.1 0.93 10
11/2/2022 7:45:00 PM 11.52 52.736 0.14 7.09 1.05 9.94
11/2/2022 8:00:00 PM 11.49 52.682 0.14 7.08 0.99 9.9
11/2/2022 8:15:00 PM 11.46 52.628 0.14 7.07 1.03 9.85
11/2/2022 8:30:00 PM 11.44 52.592 0.14 7.06 0.96 9.81
11/2/2022 8:45:00 PM 11.41 52.538 0.14 7.06 1.21 9.76
11/2/2022 9:00:00 PM 11.38 52.484 0.14 7.05 1.23 9.72
11/2/2022 9:15:00 PM 11.33 52.394 0.14 7.04 1.03 9.67
11/2/2022 9:30:00 PM 11.31 52.358 0.14 7.03 0.85 9.64
11/2/2022 9:45:00 PM 11.28 52.304 0.14 7.02 0.89 9.6
11/2/2022 10:00:00 PM 11.24 52.232 0.14 7.01 0.96 9.57
11/2/2022 10:15:00 PM 11.2 52.16 0.141 7 0.96 9.53
11/2/2022 10:30:00 PM 11.15 52.07 0.141 6.99 0.91 9.48
11/2/2022 10:45:00 PM 11.12 52.016 0.141 6.99 0.98 9.47
11/2/2022 11:00:00 PM 11.05 51.89 0.141 6.97 0.76 9.41
11/2/2022 11:15:00 PM 11.02 51.836 0.141 6.97 0.61 9.4
11/2/2022 11:30:00 PM 10.95 51.71 0.141 6.96 0.61 9.38
11/2/2022 11:45:00 PM 10.89 51.602 0.141 6.96 0.78 9.39
11/3/2022 12:00:00 AM 10.82 51.476 0.141 6.95 0.7 9.38
11/3/2022 12:15:00 AM 10.76 51.368 0.142 6.95 0.59 9.38
11/3/2022 12:30:00 AM 10.68 51.224 0.142 6.95 0.69 9.39
11/3/2022 12:45:00 AM 10.6 51.08 0.142 6.94 0.66 9.36
11/3/2022 1:00:00 AM 10.51 50.918 0.142 6.94 0.62 9.39
11/3/2022 1:15:00 AM 10.44 50.792 0.142 6.93 0.73 9.39
11/3/2022 1:30:00 AM 10.36 50.648 0.142 6.93 0.7 9.42
11/3/2022 1:45:00 AM 10.28 50.504 0.142 6.91 0.73 9.43
11/3/2022 2:00:00 AM 10.18 50.324 0.142 6.92 0.68 9.45
11/3/2022 2:15:00 AM 10.08 50.144 0.142 6.92 0.81 9.47
11/3/2022 2:30:00 AM 9.98 49.964 0.142 6.91 0.71 9.49
11/3/2022 2:45:00 AM 9.88 49.784 0.142 6.87 0.86 9.53
11/3/2022 3:00:00 AM 9.78 49.604 0.143 6.88 0.78 9.54
11/3/2022 3:15:00 AM 9.68 49.424 0.143 6.86 0.74 9.55
11/3/2022 3:30:00 AM 9.58 49.244 0.143 6.86 0.81 9.61
11/3/2022 3:45:00 AM 9.47 49.046 0.143 6.85 0.67 9.65
11/3/2022 4:00:00 AM 9.38 48.884 0.143 6.84 0.75 9.67
11/3/2022 4:15:00 AM 9.27 48.686 0.143 6.83 0.94 9.71
11/3/2022 4:30:00 AM 9.18 48.524 0.143 6.83 0.97 9.73
11/3/2022 4:45:00 AM 9.07 48.326 0.143 6.83 0.86 9.77
11/3/2022 5:00:00 AM 8.98 48.164 0.143 6.82 0.78 9.79
11/3/2022 5:15:00 AM 8.87 47.966 0.143 6.81 0.73 9.81
11/3/2022 5:30:00 AM 8.8 47.84 0.143 6.82 0.74 9.87
11/3/2022 5:45:00 AM 8.73 47.714 0.143 6.81 0.68 9.88
11/3/2022 6:00:00 AM 8.67 47.606 0.143 6.82 0.7 9.91
11/3/2022 6:15:00 AM 8.62 47.516 0.143 6.8 0.83 9.97
11/3/2022 6:30:00 AM 8.57 47.426 0.143 6.83 1.08 10.02
11/3/2022 6:45:00 AM 8.52 47.336 0.143 6.83 0.81 10.02
11/3/2022 7:00:00 AM 8.47 47.246 0.143 6.83 0.77 10.05
11/3/2022 7:15:00 AM 8.42 47.156 0.142 6.84 0.7 10.07
11/3/2022 7:30:00 AM 8.37 47.066 0.142 6.84 0.87 10.1
11/3/2022 7:45:00 AM 8.31 46.958 0.142 6.85 0.63 10.1
11/3/2022 8:00:00 AM 8.27 46.886 0.142 6.84 0.67 10.15
11/3/2022 8:15:00 AM 8.24 46.832 0.142 6.85 0.6 10.18
11/3/2022 8:30:00 AM 8.22 46.796 0.142 6.85 1.34 10.23
11/3/2022 8:45:00 AM 8.19 46.742 0.142 6.86 0.62 10.29
11/3/2022 9:00:00 AM 8.18 46.724 0.142 6.87 0.55 10.34
11/3/2022 9:15:00 AM 8.18 46.724 0.142 6.88 0.51 10.4
11/3/2022 9:30:00 AM 8.18 46.724 0.142 6.89 0.52 10.48
11/3/2022 9:45:00 AM 8.19 46.742 0.142 6.9 0.49 10.53
11/3/2022 10:00:00 AM 8.21 46.778 0.142 6.92 0.48 10.61
11/3/2022 10:15:00 AM 8.23 46.814 0.142 6.93 0.44 10.66
11/3/2022 10:30:00 AM 8.27 46.886 0.142 6.94 0.49 10.75
11/3/2022 10:45:00 AM 8.34 47.012 0.142 6.93 0.49 10.82
11/3/2022 11:00:00 AM 8.4 47.12 0.142 6.96 0.49 10.88
11/3/2022 11:15:00 AM 8.49 47.282 0.142 6.98 0.5 10.95
11/3/2022 11:30:00 AM 8.67 47.606 0.142 6.98 0.5 10.93
11/3/2022 11:45:00 AM 8.91 48.038 0.142 7 0.47 11.03
11/3/2022 12:00:00 PM 9.08 48.344 0.142 7.01 0.49 11.07
11/3/2022 12:15:00 PM 9.22 48.596 0.141 7.02 0.5 11.1
11/3/2022 12:30:00 PM 9.39 48.902 0.142 7.03 0.42 11.14
11/3/2022 12:45:00 PM 9.57 49.226 0.141 7.04 0.45 11.14
11/3/2022 1:00:00 PM 9.75 49.55 0.141 7.06 0.43 11.19
11/3/2022 1:15:00 PM 9.96 49.928 0.141 7.06 0.5 11.18
11/3/2022 1:30:00 PM 10.17 50.306 0.141 7.06 0.54 11.2
11/3/2022 1:45:00 PM 10.37 50.666 0.141 7.1 0.51 11.22
11/3/2022 2:00:00 PM 10.54 50.972 0.141 7.11 0.57 11.24
11/3/2022 2:15:00 PM 10.64 51.152 0.141 7.12 0.54 11.28
11/3/2022 2:30:00 PM 10.76 51.368 0.141 7.14 0.53 11.29
11/3/2022 2:45:00 PM 10.83 51.494 0.141 7.15 0.48 11.27
11/3/2022 3:00:00 PM 10.91 51.638 0.141 7.16 0.57 11.26
11/3/2022 3:15:00 PM 10.96 51.728 0.141 7.17 0.51 11.28
11/3/2022 3:30:00 PM 11 51.8 0.141 7.18 0.83 11.27
11/3/2022 3:45:00 PM 11 51.8 0.141 7.19 0.58 11.25
11/3/2022 4:00:00 PM 10.99 51.782 0.141 7.19 4.18 11.24
11/3/2022 4:15:00 PM 10.95 51.71 0.141 7.21 0.51 11.24
11/3/2022 4:30:00 PM 10.93 51.674 0.141 7.2 0.55 11.2
11/3/2022 4:45:00 PM 10.88 51.584 0.141 7.21 0.67 11.19
11/3/2022 5:00:00 PM 10.83 51.494 0.141 7.21 0.44 11.14
11/3/2022 5:15:00 PM 10.8 51.44 0.141 7.21 0.49 11.09
11/3/2022 5:30:00 PM 10.76 51.368 0.141 7.2 0.42 11.03
11/3/2022 5:45:00 PM 10.7 51.26 0.141 7.2 0.49 10.98
11/3/2022 6:00:00 PM 10.66 51.188 0.141 7.19 0.47 10.89
11/3/2022 6:15:00 PM 10.62 51.116 0.141 7.19 0.44 10.85
11/3/2022 6:30:00 PM 10.58 51.044 0.141 7.17 0.5 10.75
11/3/2022 6:45:00 PM 10.54 50.972 0.141 7.17 0.55 10.68
11/3/2022 7:00:00 PM 10.51 50.918 0.141 7.16 0.68 10.63
11/3/2022 7:15:00 PM 10.47 50.846 0.141 7.15 0.8 10.55
11/3/2022 7:30:00 PM 10.44 50.792 0.141 7.13 0.64 10.51
11/3/2022 7:45:00 PM 10.41 50.738 0.141 7.12 0.81 10.43
11/3/2022 8:00:00 PM 10.38 50.684 0.141 7.11 0.89 10.39
11/3/2022 8:15:00 PM 10.36 50.648 0.141 7.11 0.66 10.35
11/3/2022 8:30:00 PM 10.33 50.594 0.141 7.1 0.81 10.3
11/3/2022 8:45:00 PM 10.29 50.522 0.141 7.09 0.75 10.23
11/3/2022 9:00:00 PM 10.27 50.486 0.141 7.08 0.71 10.19
11/3/2022 9:15:00 PM 10.24 50.432 0.141 7.07 0.63 10.13
11/3/2022 9:30:00 PM 10.21 50.378 0.141 7.06 0.7 10.11
11/3/2022 9:45:00 PM 10.19 50.342 0.141 7.05 0.59 10.06
11/3/2022 10:00:00 PM 10.17 50.306 0.141 7.05 0.61 10.02
11/3/2022 10:15:00 PM 10.13 50.234 0.141 7.04 0.56 9.98
11/3/2022 10:30:00 PM 10.11 50.198 0.141 7.02 0.57 9.95
11/3/2022 10:45:00 PM 10.07 50.126 0.142 7.02 0.63 9.92
11/3/2022 11:00:00 PM 10.05 50.09 0.142 6.99 0.55 9.9
11/3/2022 11:15:00 PM 10.01 50.018 0.142 7.01 0.65 9.88
11/3/2022 11:30:00 PM 9.95 49.91 0.142 7 0.55 9.82
11/3/2022 11:45:00 PM 9.91 49.838 0.142 6.99 0.65 9.81
11/4/2022 12:00:00 AM 9.86 49.748 0.142 6.99 0.65 9.79
11/4/2022 12:15:00 AM 9.82 49.676 0.142 6.98 0.61 9.78
11/4/2022 12:30:00 AM 9.77 49.586 0.142 6.97 0.5 9.77
11/4/2022 12:45:00 AM 9.72 49.496 0.143 6.97 0.65 9.75
11/4/2022 1:00:00 AM 9.65 49.37 0.143 6.97 0.62 9.76
11/4/2022 1:15:00 AM 9.59 49.262 0.143 6.96 0.54 9.77
11/4/2022 1:30:00 AM 9.52 49.136 0.143 6.96 0.51 9.75
11/4/2022 1:45:00 AM 9.44 48.992 0.143 6.96 0.8 9.76
11/4/2022 2:00:00 AM 9.38 48.884 0.143 6.95 0.56 9.79
11/4/2022 2:15:00 AM 9.31 48.758 0.143 6.95 0.71 9.8
11/4/2022 2:30:00 AM 9.24 48.632 0.143 6.94 0.62 9.8
11/4/2022 2:45:00 AM 9.16 48.488 0.144 6.94 0.73 9.81
11/4/2022 3:00:00 AM 9.08 48.344 0.144 6.93 0.67 9.83
11/4/2022 3:15:00 AM 9 48.2 0.144 6.93 0.66 9.84
11/4/2022 3:30:00 AM 8.92 48.056 0.144 6.93 0.58 9.88
11/4/2022 3:45:00 AM 8.82 47.876 0.144 6.92 0.6 9.91
11/4/2022 4:00:00 AM 8.75 47.75 0.144 6.89 1.24 9.93
11/4/2022 4:15:00 AM 8.67 47.606 0.144 6.88 0.58 9.96
11/4/2022 4:30:00 AM 8.58 47.444 0.144 6.88 0.81 9.98
11/4/2022 4:45:00 AM 8.48 47.264 0.144 6.87 0.74 10.01
11/4/2022 5:00:00 AM 8.39 47.102 0.144 6.84 0.64 10.05
11/4/2022 5:15:00 AM 8.32 46.976 0.144 6.86 0.66 10.09
11/4/2022 5:30:00 AM 8.23 46.814 0.145 6.85 0.79 10.11
11/4/2022 5:45:00 AM 8.15 46.67 0.144 6.85 0.56 10.16
11/4/2022 6:00:00 AM 8.06 46.508 0.144 6.85 0.65 10.18
11/4/2022 6:15:00 AM 7.97 46.346 0.144 6.84 0.62 10.2
11/4/2022 6:30:00 AM 7.9 46.22 0.144 6.84 0.66 10.26
11/4/2022 6:45:00 AM 7.82 46.076 0.144 6.84 0.71 10.29
11/4/2022 7:00:00 AM 7.74 45.932 0.144 6.84 0.67 10.31
11/4/2022 7:15:00 AM 7.67 45.806 0.144 6.84 0.68 10.35
11/4/2022 7:30:00 AM 7.59 45.662 0.144 6.84 0.91 10.39
11/4/2022 7:45:00 AM 7.53 45.554 0.144 6.84 0.67 10.42
11/4/2022 8:00:00 AM 7.47 45.446 0.144 6.84 0.69 10.46
11/4/2022 8:15:00 AM 7.42 45.356 0.144 6.85 0.54 10.49
11/4/2022 8:30:00 AM 7.38 45.284 0.144 6.86 0.54 10.54
11/4/2022 8:45:00 AM 7.38 45.284 0.144 6.87 0.46 10.6
11/4/2022 9:00:00 AM 7.38 45.284 0.144 6.87 0.45 10.67
11/4/2022 9:15:00 AM 7.41 45.338 0.144 6.9 0.5 10.73
11/4/2022 9:30:00 AM 7.41 45.338 0.144 6.91 0.48 10.79
11/4/2022 9:45:00 AM 7.44 45.392 0.144 6.93 0.6 10.88
11/4/2022 10:00:00 AM 7.5 45.5 0.144 6.94 0.42 10.93
11/4/2022 10:15:00 AM 7.62 45.716 0.144 6.95 0.44 10.97
11/4/2022 10:30:00 AM 7.72 45.896 0.144 6.97 0.42 11.03
11/4/2022 10:45:00 AM 7.89 46.202 0.143 6.98 0.42 11.09
11/4/2022 11:00:00 AM 8.07 46.526 0.143 6.99 0.52 11.16
11/4/2022 11:15:00 AM 8.26 46.868 0.143 7 0.49 11.18
11/4/2022 11:30:00 AM 8.44 47.192 0.143 7.02 0.45 11.2
11/4/2022 11:45:00 AM 8.63 47.534 0.143 7.03 0.41 11.23
11/4/2022 12:00:00 PM 8.84 47.912 0.143 7.04 0.42 11.25
11/4/2022 12:15:00 PM 9.03 48.254 0.143 7.05 0.38 11.29
11/4/2022 12:30:00 PM 9.25 48.65 0.143 7.07 0.44 11.32
11/4/2022 12:45:00 PM 9.44 48.992 0.143 7.08 0.42 11.33
11/4/2022 1:00:00 PM 9.64 49.352 0.143 7.09 0.4 11.34
11/4/2022 1:15:00 PM 9.85 49.73 0.143 7.1 0.42 11.35
11/4/2022 1:30:00 PM 10.02 50.036 0.143 7.12 0.41 11.35
11/4/2022 1:45:00 PM 10.17 50.306 0.143 7.13 0.46 11.39
11/4/2022 2:00:00 PM 10.33 50.594 0.143 7.14 0.45 11.37
11/4/2022 2:15:00 PM 10.49 50.882 0.143 7.15 0.64 11.39
11/4/2022 2:30:00 PM 10.59 51.062 0.143 7.17 0.44 11.39
11/4/2022 2:45:00 PM 10.67 51.206 0.143 7.18 0.62 11.4
11/4/2022 3:00:00 PM 10.76 51.368 0.143 7.19 0.42 11.41
11/4/2022 3:15:00 PM 10.82 51.476 0.142 7.2 0.44 11.41
11/4/2022 3:30:00 PM 10.88 51.584 0.142 7.21 0.45 11.38
11/4/2022 3:45:00 PM 10.92 51.656 0.142 7.22 0.43 11.38
11/4/2022 4:00:00 PM 10.89 51.602 0.142 7.23 1.97 11.36
11/4/2022 4:15:00 PM 10.92 51.656 0.142 7.23 0.45 11.36
11/4/2022 4:30:00 PM 10.91 51.638 0.142 7.23 0.91 11.33
11/4/2022 4:45:00 PM 10.87 51.566 0.142 7.25 0.44 11.31
11/4/2022 5:00:00 PM 10.86 51.548 0.142 7.24 0.35 11.21
11/4/2022 5:15:00 PM 10.83 51.494 0.142 7.25 0.39 11.24
11/4/2022 5:30:00 PM 10.84 51.512 0.142 7.25 0.48 11.16
11/4/2022 5:45:00 PM 10.82 51.476 0.142 7.24 0.45 11.08
11/4/2022 6:00:00 PM 10.82 51.476 0.142 7.23 0.51 10.98
11/4/2022 6:15:00 PM 10.83 51.494 0.142 7.22 0.5 10.91
11/4/2022 6:30:00 PM 10.84 51.512 0.142 7.21 0.64 10.82
11/4/2022 6:45:00 PM 10.85 51.53 0.142 7.2 0.54 10.72
11/4/2022 7:00:00 PM 10.85 51.53 0.142 7.19 0.59 10.65
11/4/2022 7:15:00 PM 10.86 51.548 0.142 7.18 0.72 10.57
11/4/2022 7:30:00 PM 10.87 51.566 0.142 7.17 0.62 10.5
11/4/2022 7:45:00 PM 10.89 51.602 0.142 7.16 0.78 10.44
11/4/2022 8:00:00 PM 10.91 51.638 0.142 7.15 0.8 10.37
11/4/2022 8:15:00 PM 10.92 51.656 0.142 7.14 0.7 10.29
11/4/2022 8:30:00 PM 10.94 51.692 0.142 7.13 0.65 10.22
11/4/2022 8:45:00 PM 10.95 51.71 0.142 7.12 0.69 10.18
11/4/2022 9:00:00 PM 10.96 51.728 0.142 7.11 0.68 10.12
11/4/2022 9:15:00 PM 10.97 51.746 0.142 7.11 0.8 10.03
11/4/2022 9:30:00 PM 10.98 51.764 0.142 7.09 0.78 10
11/4/2022 9:45:00 PM 11 51.8 0.142 7.08 1.13 9.94
11/4/2022 10:00:00 PM 11.01 51.818 0.142 7.08 0.7 9.89
11/4/2022 10:15:00 PM 11.01 51.818 0.143 7.07 0.73 9.84
11/4/2022 10:30:00 PM 11.02 51.836 0.143 7.06 0.67 9.75
11/4/2022 10:45:00 PM 11.03 51.854 0.143 7.06 0.6 9.73
11/4/2022 11:00:00 PM 11.04 51.872 0.143 7.05 0.64 9.69
11/4/2022 11:15:00 PM 11.04 51.872 0.143 7.03 0.65 9.64
11/4/2022 11:30:00 PM 11.05 51.89 0.143 7.03 0.53 9.6
11/4/2022 11:45:00 PM 11.05 51.89 0.143 7.03 0.54 9.56
11/5/2022 12:00:00 AM 11.05 51.89 0.143 7.02 0.49 9.52
11/5/2022 12:15:00 AM 11.05 51.89 0.143 7.02 0.55 9.49
11/5/2022 12:30:00 AM 11.04 51.872 0.143 7.01 0.5 9.46
11/5/2022 12:45:00 AM 11.02 51.836 0.144 7 0.52 9.43
11/5/2022 1:00:00 AM 11 51.8 0.144 7 0.67 9.41
11/5/2022 1:15:00 AM 10.98 51.764 0.144 6.99 0.51 9.39
11/5/2022 1:30:00 AM 10.96 51.728 0.144 6.99 0.66 9.37
11/5/2022 1:45:00 AM 10.93 51.674 0.144 6.98 0.57 9.36
11/5/2022 2:00:00 AM 10.89 51.602 0.144 6.96 0.99 9.36
11/5/2022 2:15:00 AM 10.85 51.53 0.144 6.97 0.64 9.36
11/5/2022 2:30:00 AM 10.83 51.494 0.144 6.97 0.62 9.35
11/5/2022 2:45:00 AM 10.78 51.404 0.144 6.97 0.59 9.36
11/5/2022 3:00:00 AM 10.73 51.314 0.144 6.97 0.63 9.36
11/5/2022 3:15:00 AM 10.68 51.224 0.145 6.96 0.61 9.36
11/5/2022 3:30:00 AM 10.64 51.152 0.145 6.96 1.06 9.37
11/5/2022 3:45:00 AM 10.58 51.044 0.145 6.95 0.7 9.37
11/5/2022 4:00:00 AM 10.53 50.954 0.145 6.95 0.63 9.38
11/5/2022 4:15:00 AM 10.47 50.846 0.145 6.94 0.97 9.39
11/5/2022 4:30:00 AM 10.42 50.756 0.145 6.94 0.77 9.4
11/5/2022 4:45:00 AM 10.37 50.666 0.145 6.93 0.99 9.41
11/5/2022 5:00:00 AM 10.33 50.594 0.145 6.93 0.9 9.42
11/5/2022 5:15:00 AM 10.27 50.486 0.145 6.93 0.92 9.42
11/5/2022 5:30:00 AM 10.23 50.414 0.146 6.92 0.92 9.43
11/5/2022 5:45:00 AM 10.2 50.36 0.146 6.9 1.15 9.45
11/5/2022 6:00:00 AM 10.15 50.27 0.146 6.91 0.81 9.47
11/5/2022 6:15:00 AM 10.12 50.216 0.145 6.92 0.72 9.5
11/5/2022 6:30:00 AM 10.06 50.108 0.145 6.92 0.95 9.52
11/5/2022 6:45:00 AM 10.01 50.018 0.145 6.92 0.7 9.55
11/5/2022 7:00:00 AM 9.96 49.928 0.145 6.91 0.62 9.55
11/5/2022 7:15:00 AM 9.93 49.874 0.145 6.91 0.77 9.56
11/5/2022 7:30:00 AM 9.9 49.82 0.145 6.91 0.82 9.58
11/5/2022 7:45:00 AM 9.85 49.73 0.145 6.91 0.9 9.61
11/5/2022 8:00:00 AM 9.81 49.658 0.145 6.91 0.7 9.64
11/5/2022 8:15:00 AM 9.8 49.64 0.145 6.9 0.59 9.66
11/5/2022 8:30:00 AM 9.81 49.658 0.145 6.91 0.71 9.71
11/5/2022 8:45:00 AM 9.84 49.712 0.145 6.92 0.56 9.76
11/5/2022 9:00:00 AM 9.88 49.784 0.145 6.92 0.51 9.84
11/5/2022 9:15:00 AM 9.92 49.856 0.145 6.93 0.53 9.9
11/5/2022 9:30:00 AM 9.94 49.892 0.144 6.94 0.56 9.99
11/5/2022 9:45:00 AM 9.98 49.964 0.144 6.95 0.49 10.07
11/5/2022 10:00:00 AM 10.02 50.036 0.144 6.96 0.47 10.14
11/5/2022 10:15:00 AM 10.08 50.144 0.144 6.97 0.55 10.17
11/5/2022 10:30:00 AM 10.25 50.45 0.144 6.99 0.44 10.28
11/5/2022 10:45:00 AM 10.5 50.9 0.144 7 0.5 10.32
11/5/2022 11:00:00 AM 10.65 51.17 0.144 7.01 0.48 10.38
11/5/2022 11:15:00 AM 10.87 51.566 0.144 7.03 0.49 10.43
11/5/2022 11:30:00 AM 11.23 52.214 0.144 7.05 0.62 10.49
11/5/2022 11:45:00 AM 11.43 52.574 0.144 7.07 0.53 10.52
11/5/2022 12:00:00 PM 11.68 53.024 0.144 7.08 0.53 10.57
11/5/2022 12:15:00 PM 11.88 53.384 0.144 7.08 0.49 10.58
11/5/2022 12:30:00 PM 12.09 53.762 0.143 7.12 0.54 10.61
11/5/2022 12:45:00 PM 12.17 53.906 0.143 7.12 0.91 10.6
11/5/2022 1:00:00 PM 12.29 54.122 0.143 7.13 1 10.62
11/5/2022 1:15:00 PM 12.35 54.23 0.143 7.15 0.62 10.6
11/5/2022 1:30:00 PM 12.37 54.266 0.143 7.17 0.55 10.58
11/5/2022 1:45:00 PM 12.48 54.464 0.143 7.18 0.51 10.61
11/5/2022 2:00:00 PM 12.6 54.68 0.143 7.19 0.66 10.59
11/5/2022 2:15:00 PM 12.85 55.13 0.143 7.2 0.58 10.62
11/5/2022 2:30:00 PM 13.03 55.454 0.143 7.22 0.52 10.64
11/5/2022 2:45:00 PM 13.07 55.526 0.143 7.23 0.52 10.63
11/5/2022 3:00:00 PM 13.07 55.526 0.143 7.22 0.51 10.63
11/5/2022 3:15:00 PM 13.15 55.67 0.143 7.24 0.54 10.59
11/5/2022 3:30:00 PM 13.19 55.742 0.143 7.24 0.92 10.53
11/5/2022 3:45:00 PM 13.24 55.832 0.143 7.24 0.92 10.51
11/5/2022 4:00:00 PM 13.33 55.994 0.143 7.26 0.5 10.49
11/5/2022 4:15:00 PM 13.32 55.976 0.143 7.26 0.48 10.4
11/5/2022 4:30:00 PM 13.4 56.12 0.143 7.26 0.46 10.42
11/5/2022 4:45:00 PM 13.44 56.192 0.143 7.27 0.44 10.4
11/5/2022 5:00:00 PM 13.44 56.192 0.143 7.27 0.48 10.34
11/5/2022 5:15:00 PM 13.48 56.264 0.143 7.27 0.44 10.31
11/5/2022 5:30:00 PM 13.49 56.282 0.143 7.27 0.53 10.24
11/5/2022 5:45:00 PM 13.54 56.372 0.143 7.24 0.48 10.12
11/5/2022 6:00:00 PM 13.57 56.426 0.143 7.24 0.84 10.03
11/5/2022 6:15:00 PM 13.6 56.48 0.143 7.24 0.45 9.94
11/5/2022 6:30:00 PM 13.62 56.516 0.143 7.23 0.57 9.83
11/5/2022 6:45:00 PM 13.65 56.57 0.143 7.21 0.58 9.73
11/5/2022 7:00:00 PM 13.65 56.57 0.143 7.2 0.52 9.64
11/5/2022 7:15:00 PM 13.66 56.588 0.143 7.19 0.72 9.55
11/5/2022 7:30:00 PM 13.68 56.624 0.143 7.17 0.7 9.45
11/5/2022 7:45:00 PM 13.69 56.642 0.143 7.15 0.84 9.4
11/5/2022 8:00:00 PM 13.69 56.642 0.143 7.15 0.76 9.34
11/5/2022 8:15:00 PM 13.71 56.678 0.143 7.14 0.71 9.29
11/5/2022 8:30:00 PM 13.72 56.696 0.143 7.12 1.18 9.22
11/5/2022 8:45:00 PM 13.74 56.732 0.143 7.12 0.7 9.14
11/5/2022 9:00:00 PM 13.73 56.714 0.143 7.11 0.72 9.1
11/5/2022 9:15:00 PM 13.74 56.732 0.143 7.08 1.17 9.03
11/5/2022 9:30:00 PM 13.75 56.75 0.143 7.08 1.18 8.98
11/5/2022 9:45:00 PM 13.75 56.75 0.143 7.08 0.73 8.92
11/5/2022 10:00:00 PM 13.76 56.768 0.144 7.08 0.76 8.89
11/5/2022 10:15:00 PM 13.77 56.786 0.144 7.07 0.65 8.85
11/5/2022 10:30:00 PM 13.76 56.768 0.144 7.05 1.09 8.79
11/5/2022 10:45:00 PM 13.79 56.822 0.144 7.04 1.03 8.73
11/5/2022 11:00:00 PM 13.81 56.858 0.144 7.02 1.09 8.72
11/5/2022 11:15:00 PM 13.83 56.894 0.144 7.03 1.11 8.65
11/5/2022 11:30:00 PM 13.85 56.93 0.144 7.04 0.67 8.64
11/5/2022 11:45:00 PM 13.89 57.002 0.144 7.03 0.68 8.6
11/6/2022 12:00:00 AM 13.92 57.056 0.144 7.03 0.71 8.58
11/6/2022 12:15:00 AM 13.94 57.092 0.144 7.02 0.6 8.55
11/6/2022 12:30:00 AM 13.95 57.11 0.144 7.01 0.69 8.49
11/6/2022 12:45:00 AM 13.95 57.11 0.144 7.01 0.66 8.46
11/6/2022 1:00:00 AM 13.98 57.164 0.144 6.99 1.22 8.39
11/6/2022 1:15:00 AM 13.99 57.182 0.145 7 0.66 8.39
11/6/2022 1:30:00 AM 14 57.2 0.145 6.99 0.56 8.36
11/6/2022 1:45:00 AM 14.01 57.218 0.145 6.99 0.63 8.35
11/6/2022 2:00:00 AM 14.02 57.236 0.145 6.98 0.71 8.33
11/6/2022 2:15:00 AM 14.05 57.29 0.145 6.98 0.67 8.31
11/6/2022 2:30:00 AM 14.06 57.308 0.145 6.98 0.85 8.29
11/6/2022 2:45:00 AM 14.07 57.326 0.145 6.98 0.67 8.29
11/6/2022 3:00:00 AM 14.11 57.398 0.145 6.98 0.77 8.26
11/6/2022 3:15:00 AM 14.14 57.452 0.145 6.98 0.73 8.3
11/6/2022 3:30:00 AM 14.17 57.506 0.145 6.96 1.11 8.3
11/6/2022 3:45:00 AM 14.18 57.524 0.145 6.97 0.61 8.3
11/6/2022 4:00:00 AM 14.19 57.542 0.145 6.98 0.64 8.29
11/6/2022 4:15:00 AM 14.22 57.596 0.146 6.97 0.7 8.24
11/6/2022 4:30:00 AM 14.21 57.578 0.146 6.96 0.63 8.24
11/6/2022 4:45:00 AM 14.22 57.596 0.146 6.96 0.64 8.14
11/6/2022 5:00:00 AM 14.19 57.542 0.146 6.96 1.28 8.22
11/6/2022 5:15:00 AM 14.17 57.506 0.146 6.96 0.84 8.2
11/6/2022 5:30:00 AM 14.14 57.452 0.146 6.95 0.78 8.19
11/6/2022 5:45:00 AM 14.12 57.416 0.146 6.95 0.85 8.18
11/6/2022 6:00:00 AM 14.09 57.362 0.146 6.95 0.78 8.18
11/6/2022 6:15:00 AM 14.08 57.344 0.146 6.94 0.84 8.18
11/6/2022 6:30:00 AM 14.07 57.326 0.146 6.93 0.86 8.15
11/6/2022 6:45:00 AM 14.05 57.29 0.146 6.94 0.73 8.16
11/6/2022 7:00:00 AM 14.05 57.29 0.146 6.94 0.64 8.15
11/6/2022 7:15:00 AM 14.04 57.272 0.146 6.92 0.66 8.15
11/6/2022 7:30:00 AM 14.03 57.254 0.146 6.93 0.74 8.15
11/6/2022 7:45:00 AM 14.02 57.236 0.146 6.93 0.56 8.16
11/6/2022 8:00:00 AM 14.03 57.254 0.146 6.94 0.64 8.21
11/6/2022 8:15:00 AM 14.05 57.29 0.146 6.94 0.69 8.26
11/6/2022 8:30:00 AM 14.09 57.362 0.146 6.95 0.57 8.29
11/6/2022 8:45:00 AM 14.12 57.416 0.146 6.95 0.59 8.41
11/6/2022 9:00:00 AM 14.21 57.578 0.146 6.97 0.79 8.52
11/6/2022 9:15:00 AM 14.34 57.812 0.146 6.98 1.08 8.64
11/6/2022 9:30:00 AM 14.38 57.884 0.146 6.99 0.54 8.71
11/6/2022 9:45:00 AM 14.44 57.992 0.146 7.01 0.54 8.82
11/6/2022 10:00:00 AM 14.49 58.082 0.146 7.02 0.55 8.89
11/6/2022 10:15:00 AM 14.54 58.172 0.146 7.03 0.64 8.93
11/6/2022 10:30:00 AM 14.55 58.19 0.146 7.04 0.58 8.98
11/6/2022 10:45:00 AM 14.74 58.532 0.146 7.05 0.59 8.99
11/6/2022 11:00:00 AM 15 59 0.146 7.07 0.55 9.1
11/6/2022 11:15:00 AM 15.24 59.432 0.146 7.08 0.59 9.14
11/6/2022 11:30:00 AM 15.49 59.882 0.145 7.1 0.56 9.18
11/6/2022 11:45:00 AM 15.75 60.35 0.145 7.11 0.72 9.27
11/6/2022 12:00:00 PM 15.88 60.584 0.145 7.13 0.63 9.29
11/6/2022 12:15:00 PM 15.98 60.764 0.145 7.15 0.52 9.3
11/6/2022 12:30:00 PM 16.08 60.944 0.145 7.16 0.53 9.38
11/6/2022 12:45:00 PM 16.21 61.178 0.145 7.18 0.58 9.43
11/6/2022 1:00:00 PM 16.21 61.178 0.145 7.19 0.58 9.42
11/6/2022 1:15:00 PM 16.36 61.448 0.145 7.21 0.69 9.46
11/6/2022 1:30:00 PM 16.52 61.736 0.145 7.21 0.55 9.5
11/6/2022 1:45:00 PM 16.62 61.916 0.145 7.25 2.53 9.52
11/6/2022 2:00:00 PM 16.61 61.898 0.145 7.25 1.07 9.51
11/6/2022 2:15:00 PM 16.58 61.844 0.145 7.25 0.99 9.51
11/6/2022 2:30:00 PM 16.66 61.988 0.145 7.26 1.01 9.55
11/6/2022 2:45:00 PM 16.64 61.952 0.144 7.26 0.95 9.49
11/6/2022 3:00:00 PM 16.59 61.862 0.144 7.28 0.54 9.43
11/6/2022 3:15:00 PM 16.55 61.79 0.144 7.29 0.51 9.36
11/6/2022 3:30:00 PM 16.54 61.772 0.144 7.29 0.52 9.37
11/6/2022 3:45:00 PM 16.51 61.718 0.144 7.28 0.6 9.32
11/6/2022 4:00:00 PM 16.52 61.736 0.144 7.27 1.02 9.24
11/6/2022 4:15:00 PM 16.5 61.7 0.144 7.28 0.57 9.2
11/6/2022 4:30:00 PM 16.46 61.628 0.144 7.27 0.54 9.15
11/6/2022 4:45:00 PM 16.42 61.556 0.144 7.25 1.14 9.06
11/6/2022 5:00:00 PM 16.41 61.538 0.144 7.23 0.56 8.98
11/6/2022 5:15:00 PM 16.4 61.52 0.144 7.24 0.57 8.9
11/6/2022 5:30:00 PM 16.4 61.52 0.144 7.21 1.11 8.79
11/6/2022 5:45:00 PM 16.39 61.502 0.144 7.21 0.65 8.71
11/6/2022 6:00:00 PM 16.35 61.43 0.144 7.2 0.9 8.64
11/6/2022 6:15:00 PM 16.32 61.376 0.144 7.18 0.76 8.58
11/6/2022 6:30:00 PM 16.32 61.376 0.144 7.17 0.65 8.5
11/6/2022 6:45:00 PM 16.29 61.322 0.144 7.16 0.53 8.45
11/6/2022 7:00:00 PM 16.27 61.286 0.144 7.14 0.58 8.4
11/6/2022 7:15:00 PM 16.25 61.25 0.144 7.11 1.06 8.35
11/6/2022 7:30:00 PM 16.24 61.232 0.144 7.1 1.09 8.3
11/6/2022 7:45:00 PM 16.23 61.214 0.144 7.1 0.64 8.24
11/6/2022 8:00:00 PM 16.21 61.178 0.144 7.07 0.68 8.19
11/6/2022 8:15:00 PM 16.19 61.142 0.144 7.08 1.08 8.14
11/6/2022 8:30:00 PM 16.18 61.124 0.144 7.07 0.64 8.07
11/6/2022 8:45:00 PM 16.18 61.124 0.144 7.06 1.18 8.02
11/6/2022 9:00:00 PM 16.18 61.124 0.144 7.06 0.66 7.99
11/6/2022 9:15:00 PM 16.18 61.124 0.144 7.05 0.57 7.92
11/6/2022 9:30:00 PM 16.17 61.106 0.144 7.04 0.69 7.88
11/6/2022 9:45:00 PM 16.15 61.07 0.144 7.02 1.14 7.85
11/6/2022 10:00:00 PM 16.14 61.052 0.144 7.01 1.06 7.81
11/6/2022 10:15:00 PM 16.13 61.034 0.145 7.02 0.72 7.73
11/6/2022 10:30:00 PM 16.13 61.034 0.145 7.01 0.6 7.74
11/6/2022 10:45:00 PM 16.1 60.98 0.145 7 0.64 7.68
11/6/2022 11:00:00 PM 16.08 60.944 0.145 7 0.5 7.63
11/6/2022 11:15:00 PM 16.05 60.89 0.145 6.98 1.03 7.63
11/6/2022 11:30:00 PM 16.04 60.872 0.145 6.99 0.6 7.63
11/6/2022 11:45:00 PM 16.02 60.836 0.145 6.97 1.12 7.62
11/7/2022 12:00:00 AM 15.98 60.764 0.146 6.96 1.4 7.61
11/7/2022 12:15:00 AM 15.95 60.71 0.146 6.98 0.63 7.6
11/7/2022 12:30:00 AM 15.9 60.62 0.146 6.97 0.69 7.58
11/7/2022 12:45:00 AM 15.84 60.512 0.146 6.96 0.64 7.57
11/7/2022 1:00:00 AM 15.8 60.44 0.146 6.96 0.6 7.56
11/7/2022 1:15:00 AM 15.75 60.35 0.146 6.96 0.73 7.59
11/7/2022 1:30:00 AM 15.71 60.278 0.147 6.95 0.6 7.58
11/7/2022 1:45:00 AM 15.67 60.206 0.147 6.95 0.62 7.6
11/7/2022 2:00:00 AM 15.64 60.152 0.147 6.93 0.72 7.6
11/7/2022 2:15:00 AM 15.6 60.08 0.147 6.94 1.03 7.59
11/7/2022 2:30:00 AM 15.54 59.972 0.147 6.94 0.6 7.61
11/7/2022 2:45:00 AM 15.48 59.864 0.147 6.94 0.63 7.62
11/7/2022 3:00:00 AM 15.41 59.738 0.147 6.94 0.63 7.65
11/7/2022 3:15:00 AM 15.35 59.63 0.147 6.95 0.62 7.63
11/7/2022 3:30:00 AM 15.27 59.486 0.147 6.94 0.7 7.69
11/7/2022 3:45:00 AM 15.19 59.342 0.147 6.94 0.77 7.69
11/7/2022 4:00:00 AM 15.1 59.18 0.147 6.93 0.8 7.74
11/7/2022 4:15:00 AM 15.01 59.018 0.147 6.94 0.74 7.74
11/7/2022 4:30:00 AM 14.93 58.874 0.147 6.94 0.85 7.77
11/7/2022 4:45:00 AM 14.85 58.73 0.147 6.94 0.78 7.76
11/7/2022 5:00:00 AM 14.77 58.586 0.147 6.93 1.36 7.81
11/7/2022 5:15:00 AM 14.69 58.442 0.147 6.93 0.83 7.83
11/7/2022 5:30:00 AM 14.6 58.28 0.147 6.93 0.77 7.85
11/7/2022 5:45:00 AM 14.53 58.154 0.147 6.94 0.71 7.87
11/7/2022 6:00:00 AM 14.44 57.992 0.147 6.92 1.36 7.9
11/7/2022 6:15:00 AM 14.36 57.848 0.147 6.93 0.72 7.93
11/7/2022 6:30:00 AM 14.29 57.722 0.147 6.93 0.84 7.96
11/7/2022 6:45:00 AM 14.22 57.596 0.147 6.93 0.76 7.99
11/7/2022 7:00:00 AM 14.13 57.434 0.147 6.9 1.19 8.03
11/7/2022 7:15:00 AM 14.05 57.29 0.147 6.88 0.65 8.07
11/7/2022 7:30:00 AM 13.98 57.164 0.147 6.89 0.59 8.1
11/7/2022 7:45:00 AM 13.93 57.074 0.147 6.89 0.63 8.17
11/7/2022 8:00:00 AM 13.9 57.02 0.147 6.88 1.09 8.23
11/7/2022 8:15:00 AM 13.9 57.02 0.147 6.9 0.72 8.31
11/7/2022 8:30:00 AM 13.93 57.074 0.147 6.92 0.61 8.41
11/7/2022 8:45:00 AM 14 57.2 0.146 6.94 0.65 8.52
11/7/2022 9:00:00 AM 14.09 57.362 0.146 6.96 0.58 8.65
11/7/2022 9:15:00 AM 14.17 57.506 0.146 6.98 0.59 8.75
11/7/2022 9:30:00 AM 14.27 57.686 0.146 6.99 0.63 8.83
11/7/2022 9:45:00 AM 14.39 57.902 0.146 7.01 0.68 8.93
11/7/2022 10:00:00 AM 14.52 58.136 0.146 7.03 0.55 8.99
11/7/2022 10:15:00 AM 14.66 58.388 0.146 7.04 0.57 9.09
11/7/2022 10:30:00 AM 14.79 58.622 0.146 7.06 1 9.17
11/7/2022 10:45:00 AM 14.92 58.856 0.146 7.09 0.55 9.28
11/7/2022 11:00:00 AM 15.04 59.072 0.146 7.12 0.52 9.36
11/7/2022 11:15:00 AM 15.16 59.288 0.146 7.14 0.54 9.4
11/7/2022 11:30:00 AM 15.3 59.54 0.146 7.17 0.54 9.46
11/7/2022 11:45:00 AM 15.43 59.774 0.146 7.18 0.59 9.53
11/7/2022 12:00:00 PM 15.53 59.954 0.146 7.2 0.56 9.59
11/7/2022 12:15:00 PM 15.64 60.152 0.146 7.21 0.58 9.65
11/7/2022 12:30:00 PM 15.72 60.296 0.146 7.23 0.57 9.69
11/7/2022 12:45:00 PM 15.76 60.368 0.146 7.25 0.56 9.76
11/7/2022 1:00:00 PM 15.79 60.422 0.146 7.26 0.67 9.78
11/7/2022 1:15:00 PM 15.84 60.512 0.146 7.27 0.58 9.81
11/7/2022 1:30:00 PM 15.91 60.638 0.145 7.29 0.66 9.85
11/7/2022 1:45:00 PM 15.92 60.656 0.145 7.28 1 9.84
11/7/2022 2:00:00 PM 15.92 60.656 0.145 7.32 0.56 9.87
11/7/2022 2:15:00 PM 15.91 60.638 0.145 7.33 0.69 9.87
11/7/2022 2:30:00 PM 15.85 60.53 0.145 7.34 0.57 9.91
11/7/2022 2:45:00 PM 15.75 60.35 0.145 7.33 0.95 9.92
11/7/2022 3:00:00 PM 15.62 60.116 0.145 7.35 0.46 9.9
11/7/2022 3:15:00 PM 15.55 59.99 0.145 7.35 0.52 9.88
11/7/2022 3:30:00 PM 15.47 59.846 0.145 7.35 0.51 9.88
11/7/2022 3:45:00 PM 15.32 59.576 0.145 7.35 0.58 9.82
11/7/2022 4:00:00 PM 15.25 59.45 0.145 7.34 0.48 9.79
11/7/2022 4:15:00 PM 15.16 59.288 0.144 7.34 0.62 9.72
11/7/2022 4:30:00 PM 15.06 59.108 0.144 7.33 0.59 9.66
11/7/2022 4:45:00 PM 14.97 58.946 0.144 7.3 0.54 9.59
11/7/2022 5:00:00 PM 14.85 58.73 0.144 7.27 20.16 9.46
11/7/2022 5:15:00 PM 14.74 58.532 0.144 7.27 0.8 9.4
11/7/2022 5:30:00 PM 14.65 58.37 0.144 7.25 0.62 9.33
11/7/2022 5:45:00 PM 14.57 58.226 0.144 7.23 1.12 9.22
11/7/2022 6:00:00 PM 14.48 58.064 0.144 7.21 1 9.18
11/7/2022 6:15:00 PM 14.38 57.884 0.144 7.2 1.06 9.13
11/7/2022 6:30:00 PM 14.29 57.722 0.144 7.19 0.76 9.07
11/7/2022 6:45:00 PM 14.21 57.578 0.144 7.18 0.76 9.03
11/7/2022 7:00:00 PM 14.12 57.416 0.144 7.17 1.19 8.97
11/7/2022 7:15:00 PM 14.04 57.272 0.144 7.13 0.72 8.93
11/7/2022 7:30:00 PM 13.96 57.128 0.144 7.1 1.89 8.91
11/7/2022 7:45:00 PM 13.87 56.966 0.144 7.1 0.8 8.87
11/7/2022 8:00:00 PM 13.79 56.822 0.144 7.08 1.22 8.84
11/7/2022 8:15:00 PM 13.75 56.75 0.144 7.07 0.83 8.78
11/7/2022 8:30:00 PM 13.66 56.588 0.144 7.07 0.74 8.81
11/7/2022 8:45:00 PM 13.59 56.462 0.144 7.05 0.63 8.78
11/7/2022 9:00:00 PM 13.5 56.3 0.144 7.04 0.61 8.77
11/7/2022 9:15:00 PM 13.42 56.156 0.144 7.03 0.59 8.76
11/7/2022 9:30:00 PM 13.37 56.066 0.144 7.02 0.67 8.75
11/7/2022 9:45:00 PM 13.29 55.922 0.144 7 0.76 8.71
11/7/2022 10:00:00 PM 13.23 55.814 0.144 7 1.09 8.7
11/7/2022 10:15:00 PM 13.15 55.67 0.145 7.01 1.09 8.7
11/7/2022 10:30:00 PM 13.09 55.562 0.145 7 0.84 8.7
11/7/2022 10:45:00 PM 13 55.4 0.145 6.99 1.28 8.67
11/7/2022 11:00:00 PM 12.91 55.238 0.145 6.99 0.93 8.68
11/7/2022 11:15:00 PM 12.82 55.076 0.145 6.97 0.58 8.67
11/7/2022 11:30:00 PM 12.72 54.896 0.145 6.96 0.9 8.68
11/7/2022 11:45:00 PM 12.62 54.716 0.145 6.95 0.93 8.68
11/8/2022 12:00:00 AM 12.54 54.572 0.146 6.95 0.61 8.72
11/8/2022 12:15:00 AM 12.44 54.392 0.146 6.93 0.62 8.74
11/8/2022 12:30:00 AM 12.33 54.194 0.146 6.92 0.82 8.75
11/8/2022 12:45:00 AM 12.22 53.996 0.146 6.91 1.25 8.77
11/8/2022 1:00:00 AM 12.11 53.798 0.146 6.91 0.69 8.77
11/8/2022 1:15:00 AM 12 53.6 0.146 6.9 0.77 8.82
11/8/2022 1:30:00 AM 11.87 53.366 0.146 6.9 0.86 8.83
11/8/2022 1:45:00 AM 11.76 53.168 0.146 6.88 1.19 8.86
11/8/2022 2:00:00 AM 11.66 52.988 0.147 6.88 0.79 8.9
11/8/2022 2:15:00 AM 11.55 52.79 0.147 6.88 0.84 8.93
11/8/2022 2:30:00 AM 11.45 52.61 0.147 6.87 1.27 8.93
11/8/2022 2:45:00 AM 11.34 52.412 0.147 6.88 0.88 8.99
11/8/2022 3:00:00 AM 11.22 52.196 0.147 6.87 0.75 9.01
11/8/2022 3:15:00 AM 11.13 52.034 0.147 6.87 0.88 9.08
11/8/2022 3:30:00 AM 11.03 51.854 0.147 6.88 1 9.08
11/8/2022 3:45:00 AM 10.94 51.692 0.147 6.88 1.35 9.11
11/8/2022 4:00:00 AM 10.84 51.512 0.147 6.88 0.94 9.16
11/8/2022 4:15:00 AM 10.73 51.314 0.147 6.87 0.8 9.22
11/8/2022 4:30:00 AM 10.62 51.116 0.147 6.85 0.76 9.23
11/8/2022 4:45:00 AM 10.51 50.918 0.147 6.87 0.8 9.29
11/8/2022 5:00:00 AM 10.39 50.702 0.147 6.87 1.01 9.3
11/8/2022 5:15:00 AM 10.28 50.504 0.147 6.87 0.83 9.38
11/8/2022 5:30:00 AM 10.18 50.324 0.147 6.86 0.74 9.41
11/8/2022 5:45:00 AM 10.06 50.108 0.147 6.86 0.84 9.46
11/8/2022 6:00:00 AM 9.96 49.928 0.147 6.86 0.73 9.46
11/8/2022 6:15:00 AM 9.83 49.694 0.146 6.87 1.19 9.53
11/8/2022 6:30:00 AM 9.74 49.532 0.146 6.86 0.94 9.56
11/8/2022 6:45:00 AM 9.65 49.37 0.146 6.87 1.08 9.6
11/8/2022 7:00:00 AM 9.56 49.208 0.146 6.87 0.94 9.65
11/8/2022 7:15:00 AM 9.47 49.046 0.146 6.88 0.9 9.71
11/8/2022 7:30:00 AM 9.39 48.902 0.146 6.88 1.38 9.74
11/8/2022 7:45:00 AM 9.34 48.812 0.146 6.9 0.68 9.83
11/8/2022 8:00:00 AM 9.32 48.776 0.146 6.92 0.6 9.92
11/8/2022 8:15:00 AM 9.32 48.776 0.146 6.94 0.59 10.02
11/8/2022 8:30:00 AM 9.32 48.776 0.146 6.96 0.76 10.09
11/8/2022 8:45:00 AM 9.36 48.848 0.145 6.97 0.55 10.17
11/8/2022 9:00:00 AM 9.45 49.01 0.145 6.99 0.76 10.26
11/8/2022 9:15:00 AM 9.55 49.19 0.145 7.02 0.56 10.35
11/8/2022 9:30:00 AM 9.65 49.37 0.145 7.03 0.58 10.44
11/8/2022 9:45:00 AM 9.81 49.658 0.145 7.05 0.49 10.54
11/8/2022 10:00:00 AM 9.93 49.874 0.145 7.07 0.55 10.62
11/8/2022 10:15:00 AM 10.07 50.126 0.145 7.09 0.46 10.7
11/8/2022 10:30:00 AM 10.21 50.378 0.145 7.11 0.49 10.75
11/8/2022 10:45:00 AM 10.3 50.54 0.145 7.13 0.45 10.82
11/8/2022 11:00:00 AM 10.41 50.738 0.145 7.13 0.46 10.86
11/8/2022 11:15:00 AM 10.55 50.99 0.145 7.14 0.48 10.88
11/8/2022 11:30:00 AM 10.72 51.296 0.144 7.17 0.46 10.95
11/8/2022 11:45:00 AM 10.86 51.548 0.144 7.16 0.49 10.98
11/8/2022 12:00:00 PM 11.02 51.836 0.144 7.19 0.42 11
11/8/2022 12:15:00 PM 11.19 52.142 0.144 7.21 0.49 11.08
11/8/2022 12:30:00 PM 11.3 52.34 0.144 7.23 0.49 11.12
11/8/2022 12:45:00 PM 11.42 52.556 0.144 7.23 0.49 11.09
11/8/2022 1:00:00 PM 11.49 52.682 0.144 7.26 0.59 11.13
11/8/2022 1:15:00 PM 11.58 52.844 0.144 7.25 0.94 11.18
11/8/2022 1:30:00 PM 11.66 52.988 0.144 7.27 0.62 11.22
11/8/2022 1:45:00 PM 11.69 53.042 0.144 7.29 0.68 11.2
11/8/2022 2:00:00 PM 11.74 53.132 0.144 7.3 0.66 11.23
11/8/2022 2:15:00 PM 11.72 53.096 0.144 7.32 0.58 11.25
11/8/2022 2:30:00 PM 11.7 53.06 0.144 7.33 0.44 11.25
11/8/2022 2:45:00 PM 11.68 53.024 0.143 7.34 0.55 11.28
11/8/2022 3:00:00 PM 11.59 52.862 0.143 7.35 0.61 11.27
11/8/2022 3:15:00 PM 11.53 52.754 0.143 7.35 0.58 11.24
11/8/2022 3:30:00 PM 11.44 52.592 0.143 7.35 4.56 11.22
11/8/2022 3:45:00 PM 11.34 52.412 0.143 7.35 0.42 11.21
11/8/2022 4:00:00 PM 11.25 52.25 0.143 7.34 0.51 11.16
11/8/2022 4:15:00 PM 11.16 52.088 0.143 7.34 0.4 11.13
11/8/2022 4:30:00 PM 11.07 51.926 0.143 7.33 0.43 11.08
11/8/2022 4:45:00 PM 10.97 51.746 0.143 7.31 0.65 11
11/8/2022 5:00:00 PM 10.87 51.566 0.143 7.28 0.56 10.93
11/8/2022 5:15:00 PM 10.79 51.422 0.143 7.29 0.93 10.86
11/8/2022 5:30:00 PM 10.7 51.26 0.143 7.27 0.86 10.8
11/8/2022 5:45:00 PM 10.63 51.134 0.143 7.25 0.96 10.73
11/8/2022 6:00:00 PM 10.56 51.008 0.143 7.24 0.79 10.67
11/8/2022 6:15:00 PM 10.48 50.864 0.143 7.23 0.59 10.62
11/8/2022 6:30:00 PM 10.42 50.756 0.143 7.21 0.64 10.57
11/8/2022 6:45:00 PM 10.34 50.612 0.143 7.19 0.76 10.53
11/8/2022 7:00:00 PM 10.26 50.468 0.143 7.19 0.9 10.49
11/8/2022 7:15:00 PM 10.19 50.342 0.143 7.17 0.64 10.46
11/8/2022 7:30:00 PM 10.12 50.216 0.143 7.16 0.62 10.43
11/8/2022 7:45:00 PM 10.05 50.09 0.143 7.15 0.5 10.39
11/8/2022 8:00:00 PM 9.99 49.982 0.143 7.13 1.2 10.36
11/8/2022 8:15:00 PM 9.93 49.874 0.143 7.13 0.58 10.34
11/8/2022 8:30:00 PM 9.87 49.766 0.143 7.13 0.67 10.31
11/8/2022 8:45:00 PM 9.81 49.658 0.143 7.12 1.03 10.27
11/8/2022 9:00:00 PM 9.76 49.568 0.143 7.11 0.7 10.25
11/8/2022 9:15:00 PM 9.7 49.46 0.143 7.1 0.6 10.22
11/8/2022 9:30:00 PM 9.65 49.37 0.143 7.09 0.72 10.18
11/8/2022 9:45:00 PM 9.59 49.262 0.143 7.08 0.66 10.16
11/8/2022 10:00:00 PM 9.53 49.154 0.144 7.06 0.71 10.14
11/8/2022 10:15:00 PM 9.48 49.064 0.144 7.05 0.62 10.12
11/8/2022 10:30:00 PM 9.41 48.938 0.144 7.04 0.72 10.1
11/8/2022 10:45:00 PM 9.36 48.848 0.144 7.03 0.67 10.09
11/8/2022 11:00:00 PM 9.28 48.704 0.144 7.02 0.72 10.08
11/8/2022 11:15:00 PM 9.22 48.596 0.144 6.98 0.8 10.06
11/8/2022 11:30:00 PM 9.16 48.488 0.144 7.01 0.87 10.05
11/8/2022 11:45:00 PM 9.1 48.38 0.144 6.99 0.6 10.06
11/9/2022 12:00:00 AM 9.03 48.254 0.144 6.99 0.6 10.04
11/9/2022 12:15:00 AM 8.96 48.128 0.145 6.96 0.69 10.05
11/9/2022 12:30:00 AM 8.89 48.002 0.145 6.98 0.67 10.05
11/9/2022 12:45:00 AM 8.81 47.858 0.145 6.97 0.61 10.07
11/9/2022 1:00:00 AM 8.74 47.732 0.145 6.94 0.68 10.08
11/9/2022 1:15:00 AM 8.65 47.57 0.145 6.95 1.19 10.1
11/9/2022 1:30:00 AM 8.57 47.426 0.145 6.95 0.75 10.11
11/9/2022 1:45:00 AM 8.5 47.3 0.145 6.95 1.17 10.12
11/9/2022 2:00:00 AM 8.42 47.156 0.145 6.92 0.78 10.13
11/9/2022 2:15:00 AM 8.33 46.994 0.145 6.94 0.76 10.16
11/9/2022 2:30:00 AM 8.24 46.832 0.145 6.93 0.78 10.18
11/9/2022 2:45:00 AM 8.15 46.67 0.146 6.9 0.78 10.22
11/9/2022 3:00:00 AM 8.06 46.508 0.146 6.92 0.75 10.26
11/9/2022 3:15:00 AM 7.95 46.31 0.146 6.92 1.14 10.29
11/9/2022 3:30:00 AM 7.87 46.166 0.146 6.91 0.88 10.32
11/9/2022 3:45:00 AM 7.76 45.968 0.146 6.92 1.34 10.35
11/9/2022 4:00:00 AM 7.67 45.806 0.146 6.87 1.18 10.39
11/9/2022 4:15:00 AM 7.57 45.626 0.146 6.89 0.94 10.44
11/9/2022 4:30:00 AM 7.47 45.446 0.146 6.89 1.69 10.46
11/9/2022 4:45:00 AM 7.37 45.266 0.146 6.89 1 10.51
11/9/2022 5:00:00 AM 7.27 45.086 0.146 6.88 1.35 10.55
11/9/2022 5:15:00 AM 7.18 44.924 0.146 6.88 1.5 10.58
11/9/2022 5:30:00 AM 7.09 44.762 0.146 6.87 1.17 10.62
11/9/2022 5:45:00 AM 6.98 44.564 0.146 6.89 1.2 10.65
11/9/2022 6:00:00 AM 6.89 44.402 0.146 6.89 1.4 10.69
11/9/2022 6:15:00 AM 6.8 44.24 0.146 6.87 1.21 10.74
11/9/2022 6:30:00 AM 6.69 44.042 0.146 6.89 1.34 10.77
11/9/2022 6:45:00 AM 6.61 43.898 0.146 6.9 1.35 10.82
11/9/2022 7:00:00 AM 6.52 43.736 0.146 6.9 1.14 10.87
11/9/2022 7:15:00 AM 6.43 43.574 0.146 6.9 0.83 10.91
11/9/2022 7:30:00 AM 6.35 43.43 0.146 6.91 0.65 10.98
11/9/2022 7:45:00 AM 6.29 43.322 0.146 6.91 0.52 11.06
11/9/2022 8:00:00 AM 6.26 43.268 0.146 6.93 0.5 11.1
11/9/2022 8:15:00 AM 6.24 43.232 0.146 6.94 0.46 11.18
11/9/2022 8:30:00 AM 6.26 43.268 0.146 6.96 0.57 11.27
11/9/2022 8:45:00 AM 6.31 43.358 0.146 6.98 0.43 11.33
11/9/2022 9:00:00 AM 6.4 43.52 0.145 6.98 0.44 11.45
11/9/2022 9:15:00 AM 6.51 43.718 0.145 7.01 0.46 11.52
11/9/2022 9:30:00 AM 6.62 43.916 0.145 7.04 0.81 11.58
11/9/2022 9:45:00 AM 6.76 44.168 0.145 7.05 0.76 11.65
11/9/2022 10:00:00 AM 6.89 44.402 0.145 7.06 0.88 11.71
11/9/2022 10:15:00 AM 7.03 44.654 0.145 7.07 0.68 11.78
11/9/2022 10:30:00 AM 7.2 44.96 0.145 7.09 0.79 11.8
11/9/2022 10:45:00 AM 7.34 45.212 0.145 7.11 0.59 11.86
11/9/2022 11:00:00 AM 7.49 45.482 0.145 7.12 0.49 11.89
11/9/2022 11:15:00 AM 7.68 45.824 0.145 7.13 0.46 11.88
11/9/2022 11:30:00 AM 7.87 46.166 0.145 7.14 0.38 11.94
11/9/2022 11:45:00 AM 8.01 46.418 0.145 7.15 0.44 11.95
11/9/2022 12:00:00 PM 8.19 46.742 0.145 7.15 0.53 12
11/9/2022 12:15:00 PM 8.34 47.012 0.145 7.18 0.75 12.01
11/9/2022 12:30:00 PM 8.42 47.156 0.144 7.2 0.49 12.02
11/9/2022 12:45:00 PM 8.5 47.3 0.145 7.2 0.51 12.08
11/9/2022 1:00:00 PM 8.7 47.66 0.144 7.21 0.47 12.09
11/9/2022 1:15:00 PM 8.78 47.804 0.144 7.23 0.57 12.09
11/9/2022 1:30:00 PM 8.87 47.966 0.144 7.24 0.64 12.12
11/9/2022 1:45:00 PM 8.91 48.038 0.144 7.25 0.57 12.1
11/9/2022 2:00:00 PM 9.01 48.218 0.144 7.27 0.55 12.15
11/9/2022 2:15:00 PM 8.88 47.984 0.144 7.28 0.41 12.15
11/9/2022 2:30:00 PM 8.96 48.128 0.144 7.28 0.35 12.15
11/9/2022 2:45:00 PM 8.98 48.164 0.144 7.29 0.33 12.17
11/9/2022 3:00:00 PM 8.93 48.074 0.144 7.29 0.3 12.17
11/9/2022 3:15:00 PM 8.87 47.966 0.144 7.31 0.35 12.15
11/9/2022 3:30:00 PM 8.81 47.858 0.144 7.31 0.33 12.16
11/9/2022 3:45:00 PM 8.76 47.768 0.144 7.3 0.34 12.15
11/9/2022 4:00:00 PM 8.67 47.606 0.144 7.3 0.41 12.12
11/9/2022 4:15:00 PM 8.59 47.462 0.144 7.31 0.35 12.06
11/9/2022 4:30:00 PM 8.52 47.336 0.144 7.3 0.35 12.02
11/9/2022 4:45:00 PM 8.42 47.156 0.144 7.3 0.32 11.97
11/9/2022 5:00:00 PM 8.35 47.03 0.144 7.29 1.25 11.9
11/9/2022 5:15:00 PM 8.29 46.922 0.144 7.27 1.18 11.83
11/9/2022 5:30:00 PM 8.22 46.796 0.145 7.26 1.11 11.77
11/9/2022 5:45:00 PM 8.16 46.688 0.145 7.25 0.97 11.7
11/9/2022 6:00:00 PM 8.1 46.58 0.145 7.24 0.66 11.66
11/9/2022 6:15:00 PM 8.05 46.49 0.145 7.23 0.68 11.6
11/9/2022 6:30:00 PM 7.99 46.382 0.145 7.22 0.85 11.54
11/9/2022 6:45:00 PM 7.94 46.292 0.145 7.21 0.78 11.5
11/9/2022 7:00:00 PM 7.89 46.202 0.145 7.2 0.63 11.45
11/9/2022 7:15:00 PM 7.84 46.112 0.145 7.2 0.9 11.43
11/9/2022 7:30:00 PM 7.79 46.022 0.145 7.18 0.7 11.39
11/9/2022 7:45:00 PM 7.76 45.968 0.145 7.18 0.63 11.36
11/9/2022 8:00:00 PM 7.71 45.878 0.145 7.17 0.57 11.32
11/9/2022 8:15:00 PM 7.68 45.824 0.145 7.16 0.7 11.29
11/9/2022 8:30:00 PM 7.64 45.752 0.145 7.15 0.61 11.25
11/9/2022 8:45:00 PM 7.61 45.698 0.145 7.14 0.77 11.09
11/9/2022 9:00:00 PM 7.58 45.644 0.145 7.11 0.85 11.17
11/9/2022 9:15:00 PM 7.55 45.59 0.145 7.13 0.7 11.14
11/9/2022 9:30:00 PM 7.52 45.536 0.145 7.12 1.21 11.12
11/9/2022 9:45:00 PM 7.49 45.482 0.145 7.12 0.9 11.07
11/9/2022 10:00:00 PM 7.46 45.428 0.145 7.11 0.99 11.04
11/9/2022 10:15:00 PM 7.43 45.374 0.145 7.1 0.76 11.01
11/9/2022 10:30:00 PM 7.39 45.302 0.145 7.1 0.66 10.98
11/9/2022 10:45:00 PM 7.36 45.248 0.145 7.07 0.63 10.96
11/9/2022 11:00:00 PM 7.31 45.158 0.145 7.08 0.65 10.94
11/9/2022 11:15:00 PM 7.28 45.104 0.145 7.07 0.54 10.91
11/9/2022 11:30:00 PM 7.24 45.032 0.146 7.07 0.53 10.89
11/9/2022 11:45:00 PM 7.2 44.96 0.146 7.06 0.58 10.87
11/10/2022 12:00:00 AM 7.15 44.87 0.146 7.06 0.46 10.85
11/10/2022 12:15:00 AM 7.11 44.798 0.146 7.05 0.54 10.86
11/10/2022 12:30:00 AM 7.06 44.708 0.146 7.04 0.53 10.85
11/10/2022 12:45:00 AM 7.01 44.618 0.146 7.05 0.61 10.85
11/10/2022 1:00:00 AM 6.94 44.492 0.146 7.04 0.52 10.85
11/10/2022 1:15:00 AM 6.9 44.42 0.146 7.04 0.63 10.85
11/10/2022 1:30:00 AM 6.83 44.294 0.147 7.03 0.81 10.86
11/10/2022 1:45:00 AM 6.77 44.186 0.147 7 1.03 10.87
11/10/2022 2:00:00 AM 6.71 44.078 0.147 6.99 0.88 10.87
11/10/2022 2:15:00 AM 6.65 43.97 0.147 6.98 1.19 10.89
11/10/2022 2:30:00 AM 6.58 43.844 0.147 6.98 1.07 10.91
11/10/2022 2:45:00 AM 6.51 43.718 0.147 6.97 0.86 10.91
11/10/2022 3:00:00 AM 6.44 43.592 0.147 6.97 0.87 10.93
11/10/2022 3:15:00 AM 6.37 43.466 0.147 6.96 0.8 10.96
11/10/2022 3:30:00 AM 6.3 43.34 0.147 6.96 1.25 10.98
11/10/2022 3:45:00 AM 6.22 43.196 0.148 6.95 0.99 11.01
11/10/2022 4:00:00 AM 6.15 43.07 0.148 6.94 0.95 11.03
11/10/2022 4:15:00 AM 6.07 42.926 0.148 6.93 0.82 11.06
11/10/2022 4:30:00 AM 5.99 42.782 0.148 6.92 0.97 11.06
11/10/2022 4:45:00 AM 5.92 42.656 0.148 6.94 0.73 11.1
11/10/2022 5:00:00 AM 5.82 42.476 0.148 6.94 1.09 11.14
11/10/2022 5:15:00 AM 5.76 42.368 0.148 6.93 1.09 11.16
11/10/2022 5:30:00 AM 5.68 42.224 0.148 6.93 0.84 11.2
11/10/2022 5:45:00 AM 5.6 42.08 0.148 6.93 1.07 11.24
11/10/2022 6:00:00 AM 5.54 41.972 0.148 6.92 0.9 11.26
11/10/2022 6:15:00 AM 5.45 41.81 0.148 6.93 0.78 11.26
11/10/2022 6:30:00 AM 5.37 41.666 0.148 6.92 1.08 11.32
11/10/2022 6:45:00 AM 5.31 41.558 0.148 6.93 1 11.36
11/10/2022 7:00:00 AM 5.23 41.414 0.148 6.93 0.73 11.41
11/10/2022 7:15:00 AM 5.17 41.306 0.148 6.93 0.79 11.44
11/10/2022 7:30:00 AM 5.1 41.18 0.148 6.93 0.55 11.47
11/10/2022 7:45:00 AM 5.07 41.126 0.148 6.94 0.52 11.54
11/10/2022 8:00:00 AM 5.04 41.072 0.148 6.95 0.45 11.6
11/10/2022 8:15:00 AM 5.03 41.054 0.148 6.96 0.39 11.66
11/10/2022 8:30:00 AM 5.05 41.09 0.148 6.99 0.35 11.74
11/10/2022 8:45:00 AM 5.11 41.198 0.148 6.99 0.36 11.83
11/10/2022 9:00:00 AM 5.2 41.36 0.147 7.02 0.36 11.91
11/10/2022 9:15:00 AM 5.32